<?xml version="1.0" encoding="UTF-8" standalone="no" ?>
<gpx xmlns="http://www.topografix.com/GPX/1/1" xmlns:xsi="http://www.w3.org/2001/XMLSchema-instance" xsi:schemaLocation="http://www.topografix.com/GPX/1/1 http://www.topografix.com/GPX/1/1/gpx.xsd" version="1.1" creator="VisuGPX - https://www.visugpx.com">
  <metadata>
    <name>Château Chalon</name>
  </metadata>
  <trk>
    <name><![CDATA[Château Chalon_1]]></name>
    <trkseg>
      <trkpt lat="46.75506" lon="5.63144">
        <ele>464.8</ele>
        <time>2019-10-13T11:27:44Z</time>
      </trkpt>
      <trkpt lat="46.75501" lon="5.63141">
        <ele>456.8</ele>
        <time>2019-10-13T11:28:26Z</time>
      </trkpt>
      <trkpt lat="46.75497" lon="5.63139">
        <ele>456.7</ele>
        <time>2019-10-13T11:28:32Z</time>
      </trkpt>
      <trkpt lat="46.75494" lon="5.63131">
        <ele>456.6</ele>
        <time>2019-10-13T11:28:41Z</time>
      </trkpt>
      <trkpt lat="46.75491" lon="5.63124">
        <ele>456.5</ele>
        <time>2019-10-13T11:28:45Z</time>
      </trkpt>
      <trkpt lat="46.7549" lon="5.63117">
        <ele>456.3</ele>
        <time>2019-10-13T11:28:48Z</time>
      </trkpt>
      <trkpt lat="46.75489" lon="5.63109">
        <ele>456.2</ele>
        <time>2019-10-13T11:28:51Z</time>
      </trkpt>
      <trkpt lat="46.75488" lon="5.63102">
        <ele>456.2</ele>
        <time>2019-10-13T11:28:55Z</time>
      </trkpt>
      <trkpt lat="46.75486" lon="5.63094">
        <ele>456.3</ele>
        <time>2019-10-13T11:29:00Z</time>
      </trkpt>
      <trkpt lat="46.75484" lon="5.63087">
        <ele>456.4</ele>
        <time>2019-10-13T11:29:04Z</time>
      </trkpt>
      <trkpt lat="46.75485" lon="5.6308">
        <ele>456.8</ele>
        <time>2019-10-13T11:29:09Z</time>
      </trkpt>
      <trkpt lat="46.75486" lon="5.63073">
        <ele>457</ele>
        <time>2019-10-13T11:29:14Z</time>
      </trkpt>
      <trkpt lat="46.75488" lon="5.63066">
        <ele>457.1</ele>
        <time>2019-10-13T11:29:19Z</time>
      </trkpt>
      <trkpt lat="46.75489" lon="5.63059">
        <ele>457.2</ele>
        <time>2019-10-13T11:29:24Z</time>
      </trkpt>
      <trkpt lat="46.7549" lon="5.63053">
        <ele>457.1</ele>
        <time>2019-10-13T11:29:29Z</time>
      </trkpt>
      <trkpt lat="46.75491" lon="5.63046">
        <ele>457.2</ele>
        <time>2019-10-13T11:29:33Z</time>
      </trkpt>
      <trkpt lat="46.75492" lon="5.63038">
        <ele>457.4</ele>
        <time>2019-10-13T11:29:39Z</time>
      </trkpt>
      <trkpt lat="46.75493" lon="5.63031">
        <ele>457.7</ele>
        <time>2019-10-13T11:29:43Z</time>
      </trkpt>
      <trkpt lat="46.75495" lon="5.63024">
        <ele>458</ele>
        <time>2019-10-13T11:29:46Z</time>
      </trkpt>
      <trkpt lat="46.75496" lon="5.63017">
        <ele>458.3</ele>
        <time>2019-10-13T11:29:49Z</time>
      </trkpt>
      <trkpt lat="46.75497" lon="5.63009">
        <ele>459</ele>
        <time>2019-10-13T11:29:54Z</time>
      </trkpt>
      <trkpt lat="46.75498" lon="5.63002">
        <ele>459.8</ele>
        <time>2019-10-13T11:29:59Z</time>
      </trkpt>
      <trkpt lat="46.755" lon="5.62995">
        <ele>460.7</ele>
        <time>2019-10-13T11:30:04Z</time>
      </trkpt>
      <trkpt lat="46.75504" lon="5.62976">
        <ele>464.1</ele>
        <time>2019-10-13T11:30:34Z</time>
      </trkpt>
      <trkpt lat="46.75505" lon="5.62969">
        <ele>464.1</ele>
        <time>2019-10-13T11:30:39Z</time>
      </trkpt>
      <trkpt lat="46.75505" lon="5.62961">
        <ele>464.1</ele>
        <time>2019-10-13T11:30:43Z</time>
      </trkpt>
      <trkpt lat="46.75506" lon="5.62954">
        <ele>464.1</ele>
        <time>2019-10-13T11:30:47Z</time>
      </trkpt>
      <trkpt lat="46.75505" lon="5.62946">
        <ele>464.2</ele>
        <time>2019-10-13T11:30:52Z</time>
      </trkpt>
      <trkpt lat="46.75505" lon="5.6294">
        <ele>464.2</ele>
        <time>2019-10-13T11:30:56Z</time>
      </trkpt>
      <trkpt lat="46.75504" lon="5.62933">
        <ele>464</ele>
        <time>2019-10-13T11:31:00Z</time>
      </trkpt>
      <trkpt lat="46.75503" lon="5.62926">
        <ele>463.7</ele>
        <time>2019-10-13T11:31:05Z</time>
      </trkpt>
      <trkpt lat="46.75506" lon="5.62919">
        <ele>463.6</ele>
        <time>2019-10-13T11:31:10Z</time>
      </trkpt>
      <trkpt lat="46.75511" lon="5.62909">
        <ele>464</ele>
        <time>2019-10-13T11:31:28Z</time>
      </trkpt>
      <trkpt lat="46.75507" lon="5.62906">
        <ele>463.7</ele>
        <time>2019-10-13T11:31:44Z</time>
      </trkpt>
      <trkpt lat="46.75502" lon="5.62905">
        <ele>463.1</ele>
        <time>2019-10-13T11:31:49Z</time>
      </trkpt>
      <trkpt lat="46.75498" lon="5.62899">
        <ele>462.4</ele>
        <time>2019-10-13T11:31:54Z</time>
      </trkpt>
      <trkpt lat="46.75496" lon="5.62893">
        <ele>462</ele>
        <time>2019-10-13T11:31:59Z</time>
      </trkpt>
      <trkpt lat="46.75493" lon="5.62886">
        <ele>461.5</ele>
        <time>2019-10-13T11:32:04Z</time>
      </trkpt>
      <trkpt lat="46.7549" lon="5.62879">
        <ele>460.9</ele>
        <time>2019-10-13T11:32:09Z</time>
      </trkpt>
      <trkpt lat="46.75487" lon="5.62872">
        <ele>460.4</ele>
        <time>2019-10-13T11:32:14Z</time>
      </trkpt>
      <trkpt lat="46.75484" lon="5.62866">
        <ele>460</ele>
        <time>2019-10-13T11:32:18Z</time>
      </trkpt>
      <trkpt lat="46.75482" lon="5.62859">
        <ele>459.8</ele>
        <time>2019-10-13T11:32:23Z</time>
      </trkpt>
      <trkpt lat="46.75479" lon="5.62854">
        <ele>459.8</ele>
        <time>2019-10-13T11:32:27Z</time>
      </trkpt>
      <trkpt lat="46.75475" lon="5.62849">
        <ele>460</ele>
        <time>2019-10-13T11:32:31Z</time>
      </trkpt>
      <trkpt lat="46.75471" lon="5.62845">
        <ele>460.2</ele>
        <time>2019-10-13T11:32:36Z</time>
      </trkpt>
      <trkpt lat="46.75467" lon="5.6284">
        <ele>460.6</ele>
        <time>2019-10-13T11:32:42Z</time>
      </trkpt>
      <trkpt lat="46.75464" lon="5.62835">
        <ele>461.1</ele>
        <time>2019-10-13T11:32:48Z</time>
      </trkpt>
      <trkpt lat="46.75459" lon="5.62831">
        <ele>461.5</ele>
        <time>2019-10-13T11:32:52Z</time>
      </trkpt>
      <trkpt lat="46.75453" lon="5.6283">
        <ele>461.8</ele>
        <time>2019-10-13T11:32:57Z</time>
      </trkpt>
      <trkpt lat="46.75449" lon="5.62828">
        <ele>461.8</ele>
        <time>2019-10-13T11:33:03Z</time>
      </trkpt>
      <trkpt lat="46.75446" lon="5.62823">
        <ele>461.5</ele>
        <time>2019-10-13T11:33:07Z</time>
      </trkpt>
      <trkpt lat="46.75442" lon="5.62818">
        <ele>460.9</ele>
        <time>2019-10-13T11:33:12Z</time>
      </trkpt>
      <trkpt lat="46.75441" lon="5.62811">
        <ele>459.6</ele>
        <time>2019-10-13T11:33:21Z</time>
      </trkpt>
      <trkpt lat="46.75442" lon="5.62805">
        <ele>459.3</ele>
        <time>2019-10-13T11:33:26Z</time>
      </trkpt>
      <trkpt lat="46.75444" lon="5.62797">
        <ele>459.3</ele>
        <time>2019-10-13T11:33:31Z</time>
      </trkpt>
      <trkpt lat="46.75444" lon="5.6279">
        <ele>459.7</ele>
        <time>2019-10-13T11:33:36Z</time>
      </trkpt>
      <trkpt lat="46.75446" lon="5.62783">
        <ele>460.4</ele>
        <time>2019-10-13T11:33:41Z</time>
      </trkpt>
      <trkpt lat="46.75448" lon="5.62777">
        <ele>461.1</ele>
        <time>2019-10-13T11:33:46Z</time>
      </trkpt>
      <trkpt lat="46.75449" lon="5.6277">
        <ele>461.2</ele>
        <time>2019-10-13T11:33:51Z</time>
      </trkpt>
      <trkpt lat="46.75449" lon="5.62762">
        <ele>460.9</ele>
        <time>2019-10-13T11:33:54Z</time>
      </trkpt>
      <trkpt lat="46.75449" lon="5.62755">
        <ele>460.5</ele>
        <time>2019-10-13T11:33:57Z</time>
      </trkpt>
      <trkpt lat="46.7545" lon="5.62748">
        <ele>460.2</ele>
        <time>2019-10-13T11:34:00Z</time>
      </trkpt>
      <trkpt lat="46.7545" lon="5.62739">
        <ele>459.8</ele>
        <time>2019-10-13T11:34:04Z</time>
      </trkpt>
      <trkpt lat="46.75451" lon="5.62732">
        <ele>459.8</ele>
        <time>2019-10-13T11:34:09Z</time>
      </trkpt>
      <trkpt lat="46.75453" lon="5.62725">
        <ele>460</ele>
        <time>2019-10-13T11:34:13Z</time>
      </trkpt>
      <trkpt lat="46.75456" lon="5.62717">
        <ele>460.3</ele>
        <time>2019-10-13T11:34:18Z</time>
      </trkpt>
      <trkpt lat="46.75458" lon="5.62711">
        <ele>460.5</ele>
        <time>2019-10-13T11:34:23Z</time>
      </trkpt>
      <trkpt lat="46.75462" lon="5.62706">
        <ele>460.6</ele>
        <time>2019-10-13T11:34:30Z</time>
      </trkpt>
      <trkpt lat="46.75465" lon="5.62699">
        <ele>460.6</ele>
        <time>2019-10-13T11:34:34Z</time>
      </trkpt>
      <trkpt lat="46.75468" lon="5.62694">
        <ele>460.6</ele>
        <time>2019-10-13T11:34:37Z</time>
      </trkpt>
      <trkpt lat="46.7547" lon="5.62687">
        <ele>460.6</ele>
        <time>2019-10-13T11:34:42Z</time>
      </trkpt>
      <trkpt lat="46.75472" lon="5.62681">
        <ele>460.3</ele>
        <time>2019-10-13T11:34:48Z</time>
      </trkpt>
      <trkpt lat="46.75475" lon="5.62676">
        <ele>460</ele>
        <time>2019-10-13T11:34:52Z</time>
      </trkpt>
      <trkpt lat="46.75479" lon="5.62671">
        <ele>459.7</ele>
        <time>2019-10-13T11:34:57Z</time>
      </trkpt>
      <trkpt lat="46.75482" lon="5.62664">
        <ele>459.3</ele>
        <time>2019-10-13T11:35:03Z</time>
      </trkpt>
      <trkpt lat="46.75484" lon="5.62659">
        <ele>459.2</ele>
        <time>2019-10-13T11:35:07Z</time>
      </trkpt>
      <trkpt lat="46.75487" lon="5.62653">
        <ele>458.7</ele>
        <time>2019-10-13T11:35:12Z</time>
      </trkpt>
      <trkpt lat="46.75492" lon="5.62653">
        <ele>458.2</ele>
        <time>2019-10-13T11:35:17Z</time>
      </trkpt>
      <trkpt lat="46.75496" lon="5.62655">
        <ele>458</ele>
        <time>2019-10-13T11:35:21Z</time>
      </trkpt>
      <trkpt lat="46.75501" lon="5.62658">
        <ele>457.8</ele>
        <time>2019-10-13T11:35:26Z</time>
      </trkpt>
      <trkpt lat="46.75506" lon="5.6266">
        <ele>457.4</ele>
        <time>2019-10-13T11:35:30Z</time>
      </trkpt>
      <trkpt lat="46.7551" lon="5.62663">
        <ele>456.6</ele>
        <time>2019-10-13T11:35:36Z</time>
      </trkpt>
      <trkpt lat="46.75515" lon="5.62666">
        <ele>455.5</ele>
        <time>2019-10-13T11:35:42Z</time>
      </trkpt>
      <trkpt lat="46.7552" lon="5.62664">
        <ele>454.6</ele>
        <time>2019-10-13T11:35:47Z</time>
      </trkpt>
      <trkpt lat="46.75525" lon="5.62664">
        <ele>453.8</ele>
        <time>2019-10-13T11:35:51Z</time>
      </trkpt>
      <trkpt lat="46.7553" lon="5.62664">
        <ele>452.6</ele>
        <time>2019-10-13T11:35:56Z</time>
      </trkpt>
      <trkpt lat="46.75534" lon="5.62666">
        <ele>451.6</ele>
        <time>2019-10-13T11:36:01Z</time>
      </trkpt>
      <trkpt lat="46.75539" lon="5.62668">
        <ele>450.6</ele>
        <time>2019-10-13T11:36:08Z</time>
      </trkpt>
      <trkpt lat="46.75544" lon="5.62669">
        <ele>450.1</ele>
        <time>2019-10-13T11:36:14Z</time>
      </trkpt>
      <trkpt lat="46.75549" lon="5.62669">
        <ele>449.8</ele>
        <time>2019-10-13T11:36:19Z</time>
      </trkpt>
      <trkpt lat="46.75554" lon="5.62672">
        <ele>449.2</ele>
        <time>2019-10-13T11:36:24Z</time>
      </trkpt>
      <trkpt lat="46.75558" lon="5.62675">
        <ele>448.7</ele>
        <time>2019-10-13T11:36:28Z</time>
      </trkpt>
      <trkpt lat="46.75561" lon="5.62679">
        <ele>447.9</ele>
        <time>2019-10-13T11:36:34Z</time>
      </trkpt>
      <trkpt lat="46.75566" lon="5.62684">
        <ele>446.8</ele>
        <time>2019-10-13T11:36:40Z</time>
      </trkpt>
      <trkpt lat="46.7557" lon="5.62687">
        <ele>445.2</ele>
        <time>2019-10-13T11:36:46Z</time>
      </trkpt>
      <trkpt lat="46.75574" lon="5.6269">
        <ele>443.1</ele>
        <time>2019-10-13T11:36:53Z</time>
      </trkpt>
      <trkpt lat="46.75579" lon="5.62692">
        <ele>441.4</ele>
        <time>2019-10-13T11:36:59Z</time>
      </trkpt>
      <trkpt lat="46.75582" lon="5.62697">
        <ele>439.9</ele>
        <time>2019-10-13T11:37:04Z</time>
      </trkpt>
      <trkpt lat="46.75583" lon="5.62711">
        <ele>435.6</ele>
        <time>2019-10-13T11:37:17Z</time>
      </trkpt>
      <trkpt lat="46.75581" lon="5.62718">
        <ele>433.9</ele>
        <time>2019-10-13T11:37:23Z</time>
      </trkpt>
      <trkpt lat="46.7558" lon="5.62724">
        <ele>432.7</ele>
        <time>2019-10-13T11:37:28Z</time>
      </trkpt>
      <trkpt lat="46.75581" lon="5.62731">
        <ele>432</ele>
        <time>2019-10-13T11:37:32Z</time>
      </trkpt>
      <trkpt lat="46.7558" lon="5.62739">
        <ele>431.2</ele>
        <time>2019-10-13T11:37:37Z</time>
      </trkpt>
      <trkpt lat="46.75582" lon="5.62746">
        <ele>430.3</ele>
        <time>2019-10-13T11:37:42Z</time>
      </trkpt>
      <trkpt lat="46.75586" lon="5.62756">
        <ele>428.7</ele>
        <time>2019-10-13T11:37:56Z</time>
      </trkpt>
      <trkpt lat="46.75589" lon="5.62763">
        <ele>428.5</ele>
        <time>2019-10-13T11:38:00Z</time>
      </trkpt>
      <trkpt lat="46.75589" lon="5.6277">
        <ele>428.3</ele>
        <time>2019-10-13T11:38:04Z</time>
      </trkpt>
      <trkpt lat="46.75589" lon="5.62778">
        <ele>427.9</ele>
        <time>2019-10-13T11:38:11Z</time>
      </trkpt>
      <trkpt lat="46.75589" lon="5.62785">
        <ele>427.7</ele>
        <time>2019-10-13T11:38:16Z</time>
      </trkpt>
      <trkpt lat="46.75588" lon="5.62793">
        <ele>427.4</ele>
        <time>2019-10-13T11:38:22Z</time>
      </trkpt>
      <trkpt lat="46.75588" lon="5.62799">
        <ele>427.1</ele>
        <time>2019-10-13T11:38:26Z</time>
      </trkpt>
      <trkpt lat="46.75588" lon="5.62806">
        <ele>426.7</ele>
        <time>2019-10-13T11:38:31Z</time>
      </trkpt>
      <trkpt lat="46.75589" lon="5.62812">
        <ele>426.4</ele>
        <time>2019-10-13T11:38:36Z</time>
      </trkpt>
      <trkpt lat="46.75593" lon="5.62818">
        <ele>426.5</ele>
        <time>2019-10-13T11:38:41Z</time>
      </trkpt>
      <trkpt lat="46.75594" lon="5.62825">
        <ele>426.7</ele>
        <time>2019-10-13T11:38:46Z</time>
      </trkpt>
      <trkpt lat="46.75596" lon="5.62832">
        <ele>426.6</ele>
        <time>2019-10-13T11:38:52Z</time>
      </trkpt>
      <trkpt lat="46.75599" lon="5.62838">
        <ele>426.1</ele>
        <time>2019-10-13T11:38:57Z</time>
      </trkpt>
      <trkpt lat="46.75603" lon="5.62855">
        <ele>424</ele>
        <time>2019-10-13T11:39:10Z</time>
      </trkpt>
      <trkpt lat="46.75604" lon="5.62862">
        <ele>423.7</ele>
        <time>2019-10-13T11:39:15Z</time>
      </trkpt>
      <trkpt lat="46.75606" lon="5.62869">
        <ele>423.1</ele>
        <time>2019-10-13T11:39:21Z</time>
      </trkpt>
      <trkpt lat="46.75608" lon="5.62874">
        <ele>422.3</ele>
        <time>2019-10-13T11:39:27Z</time>
      </trkpt>
      <trkpt lat="46.75611" lon="5.6288">
        <ele>421.3</ele>
        <time>2019-10-13T11:39:33Z</time>
      </trkpt>
      <trkpt lat="46.75617" lon="5.62908">
        <ele>418.3</ele>
        <time>2019-10-13T11:39:52Z</time>
      </trkpt>
      <trkpt lat="46.75617" lon="5.62916">
        <ele>417.6</ele>
        <time>2019-10-13T11:39:58Z</time>
      </trkpt>
      <trkpt lat="46.7562" lon="5.62921">
        <ele>416.7</ele>
        <time>2019-10-13T11:40:04Z</time>
      </trkpt>
      <trkpt lat="46.75624" lon="5.62925">
        <ele>415.7</ele>
        <time>2019-10-13T11:40:10Z</time>
      </trkpt>
      <trkpt lat="46.75626" lon="5.62932">
        <ele>414.7</ele>
        <time>2019-10-13T11:40:16Z</time>
      </trkpt>
      <trkpt lat="46.75629" lon="5.62938">
        <ele>414.2</ele>
        <time>2019-10-13T11:40:20Z</time>
      </trkpt>
      <trkpt lat="46.75633" lon="5.62943">
        <ele>413.4</ele>
        <time>2019-10-13T11:40:31Z</time>
      </trkpt>
      <trkpt lat="46.75637" lon="5.62943">
        <ele>412.4</ele>
        <time>2019-10-13T11:40:37Z</time>
      </trkpt>
      <trkpt lat="46.75643" lon="5.62941">
        <ele>411.8</ele>
        <time>2019-10-13T11:40:42Z</time>
      </trkpt>
      <trkpt lat="46.75648" lon="5.62935">
        <ele>411.7</ele>
        <time>2019-10-13T11:40:45Z</time>
      </trkpt>
      <trkpt lat="46.75652" lon="5.62931">
        <ele>412</ele>
        <time>2019-10-13T11:40:49Z</time>
      </trkpt>
      <trkpt lat="46.75657" lon="5.62929">
        <ele>413.1</ele>
        <time>2019-10-13T11:40:55Z</time>
      </trkpt>
      <trkpt lat="46.75662" lon="5.62933">
        <ele>414.2</ele>
        <time>2019-10-13T11:41:01Z</time>
      </trkpt>
      <trkpt lat="46.75664" lon="5.6294">
        <ele>414.7</ele>
        <time>2019-10-13T11:41:04Z</time>
      </trkpt>
      <trkpt lat="46.75666" lon="5.62946">
        <ele>415</ele>
        <time>2019-10-13T11:41:07Z</time>
      </trkpt>
      <trkpt lat="46.75668" lon="5.62953">
        <ele>415.2</ele>
        <time>2019-10-13T11:41:10Z</time>
      </trkpt>
      <trkpt lat="46.7567" lon="5.6296">
        <ele>415.2</ele>
        <time>2019-10-13T11:41:13Z</time>
      </trkpt>
      <trkpt lat="46.75672" lon="5.62967">
        <ele>415</ele>
        <time>2019-10-13T11:41:17Z</time>
      </trkpt>
      <trkpt lat="46.75674" lon="5.62974">
        <ele>414.2</ele>
        <time>2019-10-13T11:41:23Z</time>
      </trkpt>
      <trkpt lat="46.75674" lon="5.62982">
        <ele>413.4</ele>
        <time>2019-10-13T11:41:27Z</time>
      </trkpt>
      <trkpt lat="46.75674" lon="5.63006">
        <ele>408.5</ele>
        <time>2019-10-13T11:41:45Z</time>
      </trkpt>
      <trkpt lat="46.75678" lon="5.6301">
        <ele>407.2</ele>
        <time>2019-10-13T11:41:51Z</time>
      </trkpt>
      <trkpt lat="46.75682" lon="5.63014">
        <ele>406.7</ele>
        <time>2019-10-13T11:41:54Z</time>
      </trkpt>
      <trkpt lat="46.75683" lon="5.63022">
        <ele>406.2</ele>
        <time>2019-10-13T11:41:59Z</time>
      </trkpt>
      <trkpt lat="46.75682" lon="5.63029">
        <ele>406</ele>
        <time>2019-10-13T11:42:03Z</time>
      </trkpt>
      <trkpt lat="46.75683" lon="5.63035">
        <ele>404.9</ele>
        <time>2019-10-13T11:42:12Z</time>
      </trkpt>
      <trkpt lat="46.75686" lon="5.63041">
        <ele>404.3</ele>
        <time>2019-10-13T11:42:16Z</time>
      </trkpt>
      <trkpt lat="46.7569" lon="5.63046">
        <ele>403.3</ele>
        <time>2019-10-13T11:42:21Z</time>
      </trkpt>
      <trkpt lat="46.75714" lon="5.63082">
        <ele>401.8</ele>
        <time>2019-10-13T11:43:10Z</time>
      </trkpt>
      <trkpt lat="46.75726" lon="5.63101">
        <ele>402.8</ele>
        <time>2019-10-13T11:43:28Z</time>
      </trkpt>
      <trkpt lat="46.75728" lon="5.63107">
        <ele>403</ele>
        <time>2019-10-13T11:43:31Z</time>
      </trkpt>
      <trkpt lat="46.75737" lon="5.63117">
        <ele>403.8</ele>
        <time>2019-10-13T11:43:40Z</time>
      </trkpt>
      <trkpt lat="46.75742" lon="5.63121">
        <ele>403.9</ele>
        <time>2019-10-13T11:43:42Z</time>
      </trkpt>
      <trkpt lat="46.75762" lon="5.63106">
        <ele>401</ele>
        <time>2019-10-13T11:44:15Z</time>
      </trkpt>
      <trkpt lat="46.75768" lon="5.63077">
        <ele>394.4</ele>
        <time>2019-10-13T11:44:45Z</time>
      </trkpt>
      <trkpt lat="46.75767" lon="5.63069">
        <ele>393.9</ele>
        <time>2019-10-13T11:44:47Z</time>
      </trkpt>
      <trkpt lat="46.75757" lon="5.63044">
        <ele>388.6</ele>
        <time>2019-10-13T11:45:00Z</time>
      </trkpt>
      <trkpt lat="46.75749" lon="5.63016">
        <ele>381.7</ele>
        <time>2019-10-13T11:45:19Z</time>
      </trkpt>
      <trkpt lat="46.75748" lon="5.63009">
        <ele>381.4</ele>
        <time>2019-10-13T11:45:24Z</time>
      </trkpt>
      <trkpt lat="46.75748" lon="5.62991">
        <ele>380</ele>
        <time>2019-10-13T11:45:39Z</time>
      </trkpt>
      <trkpt lat="46.75748" lon="5.62975">
        <ele>379.7</ele>
        <time>2019-10-13T11:45:50Z</time>
      </trkpt>
      <trkpt lat="46.75747" lon="5.62963">
        <ele>379.8</ele>
        <time>2019-10-13T11:45:59Z</time>
      </trkpt>
      <trkpt lat="46.75746" lon="5.62955">
        <ele>379.7</ele>
        <time>2019-10-13T11:46:02Z</time>
      </trkpt>
      <trkpt lat="46.75746" lon="5.62926">
        <ele>378.8</ele>
        <time>2019-10-13T11:46:20Z</time>
      </trkpt>
      <trkpt lat="46.7575" lon="5.6289">
        <ele>376.2</ele>
        <time>2019-10-13T11:46:47Z</time>
      </trkpt>
      <trkpt lat="46.75753" lon="5.62884">
        <ele>376.2</ele>
        <time>2019-10-13T11:46:52Z</time>
      </trkpt>
      <trkpt lat="46.75759" lon="5.62879">
        <ele>376.1</ele>
        <time>2019-10-13T11:47:00Z</time>
      </trkpt>
      <trkpt lat="46.75764" lon="5.62875">
        <ele>375.7</ele>
        <time>2019-10-13T11:47:06Z</time>
      </trkpt>
      <trkpt lat="46.75768" lon="5.62871">
        <ele>375.6</ele>
        <time>2019-10-13T11:47:11Z</time>
      </trkpt>
      <trkpt lat="46.75773" lon="5.62866">
        <ele>375.7</ele>
        <time>2019-10-13T11:47:16Z</time>
      </trkpt>
      <trkpt lat="46.75776" lon="5.62859">
        <ele>375.8</ele>
        <time>2019-10-13T11:47:18Z</time>
      </trkpt>
      <trkpt lat="46.75807" lon="5.62809">
        <ele>371.6</ele>
        <time>2019-10-13T11:48:39Z</time>
      </trkpt>
      <trkpt lat="46.7581" lon="5.62805">
        <ele>369.8</ele>
        <time>2019-10-13T11:48:47Z</time>
      </trkpt>
      <trkpt lat="46.75814" lon="5.62799">
        <ele>368.2</ele>
        <time>2019-10-13T11:48:53Z</time>
      </trkpt>
      <trkpt lat="46.75819" lon="5.62793">
        <ele>367.1</ele>
        <time>2019-10-13T11:48:58Z</time>
      </trkpt>
      <trkpt lat="46.75822" lon="5.62788">
        <ele>365.7</ele>
        <time>2019-10-13T11:49:04Z</time>
      </trkpt>
      <trkpt lat="46.75825" lon="5.62782">
        <ele>365</ele>
        <time>2019-10-13T11:49:08Z</time>
      </trkpt>
      <trkpt lat="46.75828" lon="5.62777">
        <ele>364.1</ele>
        <time>2019-10-13T11:49:12Z</time>
      </trkpt>
      <trkpt lat="46.75832" lon="5.62773">
        <ele>362.8</ele>
        <time>2019-10-13T11:49:17Z</time>
      </trkpt>
      <trkpt lat="46.75836" lon="5.62766">
        <ele>360.7</ele>
        <time>2019-10-13T11:49:27Z</time>
      </trkpt>
      <trkpt lat="46.75839" lon="5.6276">
        <ele>360.3</ele>
        <time>2019-10-13T11:49:30Z</time>
      </trkpt>
      <trkpt lat="46.75842" lon="5.62753">
        <ele>359.4</ele>
        <time>2019-10-13T11:49:36Z</time>
      </trkpt>
      <trkpt lat="46.75846" lon="5.62749">
        <ele>358.6</ele>
        <time>2019-10-13T11:49:42Z</time>
      </trkpt>
      <trkpt lat="46.75852" lon="5.62736">
        <ele>356.7</ele>
        <time>2019-10-13T11:49:57Z</time>
      </trkpt>
      <trkpt lat="46.75852" lon="5.62729">
        <ele>355.8</ele>
        <time>2019-10-13T11:50:02Z</time>
      </trkpt>
      <trkpt lat="46.75854" lon="5.62723">
        <ele>355</ele>
        <time>2019-10-13T11:50:07Z</time>
      </trkpt>
      <trkpt lat="46.75855" lon="5.62716">
        <ele>353.8</ele>
        <time>2019-10-13T11:50:13Z</time>
      </trkpt>
      <trkpt lat="46.75856" lon="5.6271">
        <ele>352.4</ele>
        <time>2019-10-13T11:50:19Z</time>
      </trkpt>
      <trkpt lat="46.75857" lon="5.62702">
        <ele>351</ele>
        <time>2019-10-13T11:50:25Z</time>
      </trkpt>
      <trkpt lat="46.75858" lon="5.62695">
        <ele>350.2</ele>
        <time>2019-10-13T11:50:29Z</time>
      </trkpt>
      <trkpt lat="46.75859" lon="5.62688">
        <ele>349.3</ele>
        <time>2019-10-13T11:50:34Z</time>
      </trkpt>
      <trkpt lat="46.7586" lon="5.62673">
        <ele>347.7</ele>
        <time>2019-10-13T11:50:41Z</time>
      </trkpt>
      <trkpt lat="46.7586" lon="5.62666">
        <ele>346.6</ele>
        <time>2019-10-13T11:50:50Z</time>
      </trkpt>
      <trkpt lat="46.75858" lon="5.62652">
        <ele>344.7</ele>
        <time>2019-10-13T11:51:05Z</time>
      </trkpt>
      <trkpt lat="46.75857" lon="5.62643">
        <ele>344.6</ele>
        <time>2019-10-13T11:51:07Z</time>
      </trkpt>
      <trkpt lat="46.75856" lon="5.62633">
        <ele>344.5</ele>
        <time>2019-10-13T11:51:09Z</time>
      </trkpt>
      <trkpt lat="46.75855" lon="5.62626">
        <ele>344.4</ele>
        <time>2019-10-13T11:51:11Z</time>
      </trkpt>
      <trkpt lat="46.75853" lon="5.62619">
        <ele>344.4</ele>
        <time>2019-10-13T11:51:14Z</time>
      </trkpt>
      <trkpt lat="46.75851" lon="5.62613">
        <ele>344.6</ele>
        <time>2019-10-13T11:51:20Z</time>
      </trkpt>
      <trkpt lat="46.75851" lon="5.62606">
        <ele>344.7</ele>
        <time>2019-10-13T11:51:24Z</time>
      </trkpt>
      <trkpt lat="46.75851" lon="5.62598">
        <ele>344.3</ele>
        <time>2019-10-13T11:51:31Z</time>
      </trkpt>
      <trkpt lat="46.75851" lon="5.62591">
        <ele>344.2</ele>
        <time>2019-10-13T11:51:33Z</time>
      </trkpt>
      <trkpt lat="46.75851" lon="5.62584">
        <ele>343.8</ele>
        <time>2019-10-13T11:51:38Z</time>
      </trkpt>
      <trkpt lat="46.7585" lon="5.62577">
        <ele>343.4</ele>
        <time>2019-10-13T11:51:44Z</time>
      </trkpt>
      <trkpt lat="46.7585" lon="5.6257">
        <ele>343.5</ele>
        <time>2019-10-13T11:51:47Z</time>
      </trkpt>
      <trkpt lat="46.75852" lon="5.62557">
        <ele>344.7</ele>
        <time>2019-10-13T11:51:58Z</time>
      </trkpt>
      <trkpt lat="46.75848" lon="5.62512">
        <ele>343.7</ele>
        <time>2019-10-13T11:52:29Z</time>
      </trkpt>
      <trkpt lat="46.75847" lon="5.62498">
        <ele>342</ele>
        <time>2019-10-13T11:52:38Z</time>
      </trkpt>
      <trkpt lat="46.75846" lon="5.62491">
        <ele>341.5</ele>
        <time>2019-10-13T11:52:42Z</time>
      </trkpt>
      <trkpt lat="46.75846" lon="5.62479">
        <ele>340.2</ele>
        <time>2019-10-13T11:52:52Z</time>
      </trkpt>
      <trkpt lat="46.75846" lon="5.62472">
        <ele>338.9</ele>
        <time>2019-10-13T11:53:01Z</time>
      </trkpt>
      <trkpt lat="46.75847" lon="5.62465">
        <ele>338</ele>
        <time>2019-10-13T11:53:05Z</time>
      </trkpt>
      <trkpt lat="46.75847" lon="5.62457">
        <ele>336.9</ele>
        <time>2019-10-13T11:53:10Z</time>
      </trkpt>
      <trkpt lat="46.75848" lon="5.62451">
        <ele>335.4</ele>
        <time>2019-10-13T11:53:16Z</time>
      </trkpt>
      <trkpt lat="46.75849" lon="5.62444">
        <ele>334.6</ele>
        <time>2019-10-13T11:53:19Z</time>
      </trkpt>
      <trkpt lat="46.75851" lon="5.62437">
        <ele>333.1</ele>
        <time>2019-10-13T11:53:25Z</time>
      </trkpt>
      <trkpt lat="46.75852" lon="5.62431">
        <ele>331.8</ele>
        <time>2019-10-13T11:53:29Z</time>
      </trkpt>
      <trkpt lat="46.75851" lon="5.62407">
        <ele>327</ele>
        <time>2019-10-13T11:53:46Z</time>
      </trkpt>
      <trkpt lat="46.75851" lon="5.62387">
        <ele>324.9</ele>
        <time>2019-10-13T11:54:00Z</time>
      </trkpt>
      <trkpt lat="46.75852" lon="5.6238">
        <ele>324.3</ele>
        <time>2019-10-13T11:54:07Z</time>
      </trkpt>
      <trkpt lat="46.75854" lon="5.62372">
        <ele>323.9</ele>
        <time>2019-10-13T11:54:12Z</time>
      </trkpt>
      <trkpt lat="46.75856" lon="5.62365">
        <ele>323.7</ele>
        <time>2019-10-13T11:54:16Z</time>
      </trkpt>
      <trkpt lat="46.75859" lon="5.62359">
        <ele>323.4</ele>
        <time>2019-10-13T11:54:20Z</time>
      </trkpt>
      <trkpt lat="46.7586" lon="5.62353">
        <ele>323.3</ele>
        <time>2019-10-13T11:54:25Z</time>
      </trkpt>
      <trkpt lat="46.75862" lon="5.62346">
        <ele>323.2</ele>
        <time>2019-10-13T11:54:30Z</time>
      </trkpt>
      <trkpt lat="46.75862" lon="5.62339">
        <ele>322.9</ele>
        <time>2019-10-13T11:54:34Z</time>
      </trkpt>
      <trkpt lat="46.75863" lon="5.62332">
        <ele>322.4</ele>
        <time>2019-10-13T11:54:39Z</time>
      </trkpt>
      <trkpt lat="46.75863" lon="5.62325">
        <ele>321</ele>
        <time>2019-10-13T11:54:45Z</time>
      </trkpt>
      <trkpt lat="46.75864" lon="5.62318">
        <ele>319.2</ele>
        <time>2019-10-13T11:54:51Z</time>
      </trkpt>
      <trkpt lat="46.75864" lon="5.6231">
        <ele>317.7</ele>
        <time>2019-10-13T11:54:56Z</time>
      </trkpt>
      <trkpt lat="46.75865" lon="5.62303">
        <ele>315.7</ele>
        <time>2019-10-13T11:55:02Z</time>
      </trkpt>
      <trkpt lat="46.75868" lon="5.62298">
        <ele>312</ele>
        <time>2019-10-13T11:55:16Z</time>
      </trkpt>
      <trkpt lat="46.75868" lon="5.6229">
        <ele>304.1</ele>
        <time>2019-10-13T11:55:58Z</time>
      </trkpt>
      <trkpt lat="46.75867" lon="5.62283">
        <ele>303.1</ele>
        <time>2019-10-13T11:56:02Z</time>
      </trkpt>
      <trkpt lat="46.75866" lon="5.62275">
        <ele>302</ele>
        <time>2019-10-13T11:56:07Z</time>
      </trkpt>
      <trkpt lat="46.75865" lon="5.62268">
        <ele>301.5</ele>
        <time>2019-10-13T11:56:10Z</time>
      </trkpt>
      <trkpt lat="46.75863" lon="5.6226">
        <ele>301.1</ele>
        <time>2019-10-13T11:56:14Z</time>
      </trkpt>
      <trkpt lat="46.75863" lon="5.62253">
        <ele>300.7</ele>
        <time>2019-10-13T11:56:18Z</time>
      </trkpt>
      <trkpt lat="46.75862" lon="5.62246">
        <ele>300.5</ele>
        <time>2019-10-13T11:56:24Z</time>
      </trkpt>
      <trkpt lat="46.75862" lon="5.62239">
        <ele>300</ele>
        <time>2019-10-13T11:56:32Z</time>
      </trkpt>
      <trkpt lat="46.75864" lon="5.62233">
        <ele>299.6</ele>
        <time>2019-10-13T11:56:42Z</time>
      </trkpt>
      <trkpt lat="46.75865" lon="5.62226">
        <ele>299.9</ele>
        <time>2019-10-13T11:56:47Z</time>
      </trkpt>
      <trkpt lat="46.75867" lon="5.62219">
        <ele>300.1</ele>
        <time>2019-10-13T11:56:52Z</time>
      </trkpt>
      <trkpt lat="46.75867" lon="5.62212">
        <ele>300</ele>
        <time>2019-10-13T11:56:58Z</time>
      </trkpt>
      <trkpt lat="46.75866" lon="5.62204">
        <ele>299.6</ele>
        <time>2019-10-13T11:57:05Z</time>
      </trkpt>
      <trkpt lat="46.75865" lon="5.62196">
        <ele>299.1</ele>
        <time>2019-10-13T11:57:12Z</time>
      </trkpt>
      <trkpt lat="46.75864" lon="5.62188">
        <ele>298.7</ele>
        <time>2019-10-13T11:57:16Z</time>
      </trkpt>
      <trkpt lat="46.75863" lon="5.62181">
        <ele>298.2</ele>
        <time>2019-10-13T11:57:21Z</time>
      </trkpt>
      <trkpt lat="46.75862" lon="5.62174">
        <ele>297.6</ele>
        <time>2019-10-13T11:57:26Z</time>
      </trkpt>
      <trkpt lat="46.75861" lon="5.62167">
        <ele>297.2</ele>
        <time>2019-10-13T11:57:31Z</time>
      </trkpt>
      <trkpt lat="46.7586" lon="5.6216">
        <ele>296.5</ele>
        <time>2019-10-13T11:57:37Z</time>
      </trkpt>
      <trkpt lat="46.7586" lon="5.62153">
        <ele>295.8</ele>
        <time>2019-10-13T11:57:45Z</time>
      </trkpt>
      <trkpt lat="46.75859" lon="5.62145">
        <ele>295.5</ele>
        <time>2019-10-13T11:57:50Z</time>
      </trkpt>
      <trkpt lat="46.75858" lon="5.62138">
        <ele>295.1</ele>
        <time>2019-10-13T11:57:54Z</time>
      </trkpt>
      <trkpt lat="46.75858" lon="5.62131">
        <ele>294.7</ele>
        <time>2019-10-13T11:57:58Z</time>
      </trkpt>
      <trkpt lat="46.75857" lon="5.62123">
        <ele>294.2</ele>
        <time>2019-10-13T11:58:02Z</time>
      </trkpt>
      <trkpt lat="46.75857" lon="5.62116">
        <ele>293.2</ele>
        <time>2019-10-13T11:58:09Z</time>
      </trkpt>
      <trkpt lat="46.75857" lon="5.62109">
        <ele>292.4</ele>
        <time>2019-10-13T11:58:15Z</time>
      </trkpt>
      <trkpt lat="46.75858" lon="5.62102">
        <ele>292</ele>
        <time>2019-10-13T11:58:19Z</time>
      </trkpt>
      <trkpt lat="46.75857" lon="5.62094">
        <ele>291.6</ele>
        <time>2019-10-13T11:58:23Z</time>
      </trkpt>
      <trkpt lat="46.75857" lon="5.62087">
        <ele>290.9</ele>
        <time>2019-10-13T11:58:29Z</time>
      </trkpt>
      <trkpt lat="46.75857" lon="5.6208">
        <ele>290.3</ele>
        <time>2019-10-13T11:58:33Z</time>
      </trkpt>
      <trkpt lat="46.75856" lon="5.62073">
        <ele>289.8</ele>
        <time>2019-10-13T11:58:36Z</time>
      </trkpt>
      <trkpt lat="46.75857" lon="5.62066">
        <ele>289.1</ele>
        <time>2019-10-13T11:58:40Z</time>
      </trkpt>
      <trkpt lat="46.75858" lon="5.62059">
        <ele>288.2</ele>
        <time>2019-10-13T11:58:46Z</time>
      </trkpt>
      <trkpt lat="46.75858" lon="5.62051">
        <ele>287.5</ele>
        <time>2019-10-13T11:58:51Z</time>
      </trkpt>
      <trkpt lat="46.75859" lon="5.62044">
        <ele>287</ele>
        <time>2019-10-13T11:58:55Z</time>
      </trkpt>
      <trkpt lat="46.7586" lon="5.62037">
        <ele>286.6</ele>
        <time>2019-10-13T11:59:00Z</time>
      </trkpt>
      <trkpt lat="46.75861" lon="5.6203">
        <ele>286.1</ele>
        <time>2019-10-13T11:59:06Z</time>
      </trkpt>
      <trkpt lat="46.75862" lon="5.62023">
        <ele>285.8</ele>
        <time>2019-10-13T11:59:10Z</time>
      </trkpt>
      <trkpt lat="46.75863" lon="5.62015">
        <ele>285.6</ele>
        <time>2019-10-13T11:59:14Z</time>
      </trkpt>
      <trkpt lat="46.75863" lon="5.62008">
        <ele>285.5</ele>
        <time>2019-10-13T11:59:19Z</time>
      </trkpt>
      <trkpt lat="46.75864" lon="5.62001">
        <ele>285.2</ele>
        <time>2019-10-13T11:59:24Z</time>
      </trkpt>
      <trkpt lat="46.75865" lon="5.61993">
        <ele>285</ele>
        <time>2019-10-13T11:59:30Z</time>
      </trkpt>
      <trkpt lat="46.75865" lon="5.61986">
        <ele>284.6</ele>
        <time>2019-10-13T11:59:35Z</time>
      </trkpt>
      <trkpt lat="46.75866" lon="5.61979">
        <ele>284.2</ele>
        <time>2019-10-13T11:59:39Z</time>
      </trkpt>
      <trkpt lat="46.75866" lon="5.61972">
        <ele>283.8</ele>
        <time>2019-10-13T11:59:43Z</time>
      </trkpt>
      <trkpt lat="46.75866" lon="5.61965">
        <ele>283.4</ele>
        <time>2019-10-13T11:59:47Z</time>
      </trkpt>
      <trkpt lat="46.75867" lon="5.61957">
        <ele>282.9</ele>
        <time>2019-10-13T11:59:51Z</time>
      </trkpt>
      <trkpt lat="46.75869" lon="5.61949">
        <ele>282.5</ele>
        <time>2019-10-13T11:59:56Z</time>
      </trkpt>
      <trkpt lat="46.75869" lon="5.61941">
        <ele>282.2</ele>
        <time>2019-10-13T12:00:01Z</time>
      </trkpt>
      <trkpt lat="46.75871" lon="5.61935">
        <ele>281.1</ele>
        <time>2019-10-13T12:00:13Z</time>
      </trkpt>
      <trkpt lat="46.75874" lon="5.61929">
        <ele>280.6</ele>
        <time>2019-10-13T12:00:24Z</time>
      </trkpt>
      <trkpt lat="46.75876" lon="5.61923">
        <ele>280.4</ele>
        <time>2019-10-13T12:00:29Z</time>
      </trkpt>
      <trkpt lat="46.7588" lon="5.61918">
        <ele>280.1</ele>
        <time>2019-10-13T12:00:34Z</time>
      </trkpt>
      <trkpt lat="46.75885" lon="5.61913">
        <ele>279.9</ele>
        <time>2019-10-13T12:00:39Z</time>
      </trkpt>
      <trkpt lat="46.75888" lon="5.61909">
        <ele>279.6</ele>
        <time>2019-10-13T12:00:43Z</time>
      </trkpt>
      <trkpt lat="46.75888" lon="5.61902">
        <ele>277.7</ele>
        <time>2019-10-13T12:00:58Z</time>
      </trkpt>
      <trkpt lat="46.75892" lon="5.61899">
        <ele>272.9</ele>
        <time>2019-10-13T12:01:42Z</time>
      </trkpt>
      <trkpt lat="46.75892" lon="5.61906">
        <ele>273.3</ele>
        <time>2019-10-13T12:02:13Z</time>
      </trkpt>
      <trkpt lat="46.75892" lon="5.61913">
        <ele>272.6</ele>
        <time>2019-10-13T12:02:19Z</time>
      </trkpt>
      <trkpt lat="46.75892" lon="5.61921">
        <ele>272.2</ele>
        <time>2019-10-13T12:02:23Z</time>
      </trkpt>
      <trkpt lat="46.75892" lon="5.61928">
        <ele>271.9</ele>
        <time>2019-10-13T12:02:27Z</time>
      </trkpt>
      <trkpt lat="46.75893" lon="5.61935">
        <ele>271.7</ele>
        <time>2019-10-13T12:02:32Z</time>
      </trkpt>
      <trkpt lat="46.75894" lon="5.61942">
        <ele>271.7</ele>
        <time>2019-10-13T12:02:38Z</time>
      </trkpt>
      <trkpt lat="46.75895" lon="5.61949">
        <ele>271.8</ele>
        <time>2019-10-13T12:02:43Z</time>
      </trkpt>
      <trkpt lat="46.75896" lon="5.61957">
        <ele>271.8</ele>
        <time>2019-10-13T12:02:49Z</time>
      </trkpt>
      <trkpt lat="46.75897" lon="5.61965">
        <ele>271.8</ele>
        <time>2019-10-13T12:02:54Z</time>
      </trkpt>
      <trkpt lat="46.75898" lon="5.61971">
        <ele>271.9</ele>
        <time>2019-10-13T12:02:58Z</time>
      </trkpt>
      <trkpt lat="46.75897" lon="5.61978">
        <ele>272</ele>
        <time>2019-10-13T12:03:03Z</time>
      </trkpt>
      <trkpt lat="46.75897" lon="5.61986">
        <ele>272.1</ele>
        <time>2019-10-13T12:03:08Z</time>
      </trkpt>
      <trkpt lat="46.75896" lon="5.61993">
        <ele>272.2</ele>
        <time>2019-10-13T12:03:12Z</time>
      </trkpt>
      <trkpt lat="46.75896" lon="5.62001">
        <ele>272.4</ele>
        <time>2019-10-13T12:03:18Z</time>
      </trkpt>
      <trkpt lat="46.75895" lon="5.62009">
        <ele>272.4</ele>
        <time>2019-10-13T12:03:23Z</time>
      </trkpt>
      <trkpt lat="46.75895" lon="5.62016">
        <ele>272.5</ele>
        <time>2019-10-13T12:03:28Z</time>
      </trkpt>
      <trkpt lat="46.75894" lon="5.62023">
        <ele>272.7</ele>
        <time>2019-10-13T12:03:33Z</time>
      </trkpt>
      <trkpt lat="46.75895" lon="5.6203">
        <ele>272.8</ele>
        <time>2019-10-13T12:03:38Z</time>
      </trkpt>
      <trkpt lat="46.75897" lon="5.62036">
        <ele>272.8</ele>
        <time>2019-10-13T12:03:43Z</time>
      </trkpt>
      <trkpt lat="46.759" lon="5.62043">
        <ele>272.9</ele>
        <time>2019-10-13T12:03:48Z</time>
      </trkpt>
      <trkpt lat="46.75904" lon="5.62049">
        <ele>273</ele>
        <time>2019-10-13T12:03:52Z</time>
      </trkpt>
      <trkpt lat="46.75907" lon="5.62055">
        <ele>273.2</ele>
        <time>2019-10-13T12:03:56Z</time>
      </trkpt>
      <trkpt lat="46.75911" lon="5.6206">
        <ele>273.5</ele>
        <time>2019-10-13T12:04:00Z</time>
      </trkpt>
      <trkpt lat="46.75915" lon="5.62064">
        <ele>273.9</ele>
        <time>2019-10-13T12:04:04Z</time>
      </trkpt>
      <trkpt lat="46.75918" lon="5.62069">
        <ele>274.4</ele>
        <time>2019-10-13T12:04:09Z</time>
      </trkpt>
      <trkpt lat="46.75923" lon="5.62074">
        <ele>274.9</ele>
        <time>2019-10-13T12:04:14Z</time>
      </trkpt>
      <trkpt lat="46.75926" lon="5.62079">
        <ele>275.5</ele>
        <time>2019-10-13T12:04:18Z</time>
      </trkpt>
      <trkpt lat="46.7593" lon="5.62084">
        <ele>276.1</ele>
        <time>2019-10-13T12:04:22Z</time>
      </trkpt>
      <trkpt lat="46.75933" lon="5.62088">
        <ele>276.7</ele>
        <time>2019-10-13T12:04:27Z</time>
      </trkpt>
      <trkpt lat="46.75938" lon="5.6209">
        <ele>277.1</ele>
        <time>2019-10-13T12:04:32Z</time>
      </trkpt>
      <trkpt lat="46.75944" lon="5.6209">
        <ele>277.3</ele>
        <time>2019-10-13T12:04:37Z</time>
      </trkpt>
      <trkpt lat="46.75948" lon="5.62088">
        <ele>277.6</ele>
        <time>2019-10-13T12:04:41Z</time>
      </trkpt>
      <trkpt lat="46.75952" lon="5.62086">
        <ele>278.1</ele>
        <time>2019-10-13T12:04:47Z</time>
      </trkpt>
      <trkpt lat="46.75958" lon="5.62083">
        <ele>278.6</ele>
        <time>2019-10-13T12:04:53Z</time>
      </trkpt>
      <trkpt lat="46.75963" lon="5.6208">
        <ele>279</ele>
        <time>2019-10-13T12:04:57Z</time>
      </trkpt>
      <trkpt lat="46.75968" lon="5.62077">
        <ele>279.4</ele>
        <time>2019-10-13T12:05:01Z</time>
      </trkpt>
      <trkpt lat="46.75973" lon="5.62074">
        <ele>279.9</ele>
        <time>2019-10-13T12:05:05Z</time>
      </trkpt>
      <trkpt lat="46.75978" lon="5.62073">
        <ele>280.2</ele>
        <time>2019-10-13T12:05:10Z</time>
      </trkpt>
      <trkpt lat="46.75983" lon="5.62075">
        <ele>280.3</ele>
        <time>2019-10-13T12:05:17Z</time>
      </trkpt>
      <trkpt lat="46.75983" lon="5.62082">
        <ele>279.9</ele>
        <time>2019-10-13T12:05:55Z</time>
      </trkpt>
      <trkpt lat="46.75984" lon="5.62089">
        <ele>279.9</ele>
        <time>2019-10-13T12:06:03Z</time>
      </trkpt>
      <trkpt lat="46.75987" lon="5.62095">
        <ele>280.1</ele>
        <time>2019-10-13T12:06:11Z</time>
      </trkpt>
      <trkpt lat="46.75987" lon="5.62102">
        <ele>280</ele>
        <time>2019-10-13T12:06:17Z</time>
      </trkpt>
      <trkpt lat="46.75987" lon="5.62109">
        <ele>279.5</ele>
        <time>2019-10-13T12:06:24Z</time>
      </trkpt>
      <trkpt lat="46.75986" lon="5.62116">
        <ele>279</ele>
        <time>2019-10-13T12:06:30Z</time>
      </trkpt>
      <trkpt lat="46.75988" lon="5.62136">
        <ele>278.3</ele>
        <time>2019-10-13T12:06:43Z</time>
      </trkpt>
      <trkpt lat="46.75988" lon="5.62143">
        <ele>277.9</ele>
        <time>2019-10-13T12:06:49Z</time>
      </trkpt>
      <trkpt lat="46.75988" lon="5.6215">
        <ele>277.5</ele>
        <time>2019-10-13T12:06:53Z</time>
      </trkpt>
      <trkpt lat="46.75989" lon="5.62156">
        <ele>277.2</ele>
        <time>2019-10-13T12:06:57Z</time>
      </trkpt>
      <trkpt lat="46.7599" lon="5.62164">
        <ele>277.2</ele>
        <time>2019-10-13T12:07:02Z</time>
      </trkpt>
      <trkpt lat="46.7599" lon="5.62171">
        <ele>277.5</ele>
        <time>2019-10-13T12:07:08Z</time>
      </trkpt>
      <trkpt lat="46.7599" lon="5.62178">
        <ele>277.7</ele>
        <time>2019-10-13T12:07:12Z</time>
      </trkpt>
      <trkpt lat="46.7599" lon="5.62185">
        <ele>277.8</ele>
        <time>2019-10-13T12:07:16Z</time>
      </trkpt>
      <trkpt lat="46.7599" lon="5.62192">
        <ele>278</ele>
        <time>2019-10-13T12:07:20Z</time>
      </trkpt>
      <trkpt lat="46.75991" lon="5.62198">
        <ele>278.3</ele>
        <time>2019-10-13T12:07:24Z</time>
      </trkpt>
      <trkpt lat="46.75991" lon="5.62206">
        <ele>278.7</ele>
        <time>2019-10-13T12:07:28Z</time>
      </trkpt>
      <trkpt lat="46.7599" lon="5.62213">
        <ele>279.3</ele>
        <time>2019-10-13T12:07:34Z</time>
      </trkpt>
      <trkpt lat="46.7599" lon="5.6222">
        <ele>279.7</ele>
        <time>2019-10-13T12:07:41Z</time>
      </trkpt>
      <trkpt lat="46.75988" lon="5.62227">
        <ele>279.9</ele>
        <time>2019-10-13T12:07:47Z</time>
      </trkpt>
      <trkpt lat="46.75988" lon="5.62235">
        <ele>280</ele>
        <time>2019-10-13T12:07:52Z</time>
      </trkpt>
      <trkpt lat="46.75989" lon="5.62242">
        <ele>280.3</ele>
        <time>2019-10-13T12:07:58Z</time>
      </trkpt>
      <trkpt lat="46.75989" lon="5.62249">
        <ele>280.7</ele>
        <time>2019-10-13T12:08:04Z</time>
      </trkpt>
      <trkpt lat="46.75991" lon="5.62255">
        <ele>281.3</ele>
        <time>2019-10-13T12:08:11Z</time>
      </trkpt>
      <trkpt lat="46.75992" lon="5.62262">
        <ele>282.4</ele>
        <time>2019-10-13T12:08:17Z</time>
      </trkpt>
      <trkpt lat="46.7599" lon="5.6227">
        <ele>283.3</ele>
        <time>2019-10-13T12:08:22Z</time>
      </trkpt>
      <trkpt lat="46.75989" lon="5.62278">
        <ele>283.9</ele>
        <time>2019-10-13T12:08:26Z</time>
      </trkpt>
      <trkpt lat="46.7599" lon="5.62285">
        <ele>284.4</ele>
        <time>2019-10-13T12:08:30Z</time>
      </trkpt>
      <trkpt lat="46.75992" lon="5.62291">
        <ele>284.8</ele>
        <time>2019-10-13T12:08:34Z</time>
      </trkpt>
      <trkpt lat="46.75994" lon="5.62298">
        <ele>285.2</ele>
        <time>2019-10-13T12:08:41Z</time>
      </trkpt>
      <trkpt lat="46.75998" lon="5.62304">
        <ele>285</ele>
        <time>2019-10-13T12:08:45Z</time>
      </trkpt>
      <trkpt lat="46.76" lon="5.62311">
        <ele>284.7</ele>
        <time>2019-10-13T12:08:50Z</time>
      </trkpt>
      <trkpt lat="46.76001" lon="5.62318">
        <ele>284.3</ele>
        <time>2019-10-13T12:08:54Z</time>
      </trkpt>
      <trkpt lat="46.76003" lon="5.62325">
        <ele>283.9</ele>
        <time>2019-10-13T12:08:58Z</time>
      </trkpt>
      <trkpt lat="46.76004" lon="5.62332">
        <ele>283.4</ele>
        <time>2019-10-13T12:09:02Z</time>
      </trkpt>
      <trkpt lat="46.76006" lon="5.6234">
        <ele>282.8</ele>
        <time>2019-10-13T12:09:06Z</time>
      </trkpt>
      <trkpt lat="46.76006" lon="5.62348">
        <ele>282.2</ele>
        <time>2019-10-13T12:09:10Z</time>
      </trkpt>
      <trkpt lat="46.76007" lon="5.62355">
        <ele>281.7</ele>
        <time>2019-10-13T12:09:14Z</time>
      </trkpt>
      <trkpt lat="46.76008" lon="5.62363">
        <ele>281.3</ele>
        <time>2019-10-13T12:09:19Z</time>
      </trkpt>
      <trkpt lat="46.76009" lon="5.6237">
        <ele>281.1</ele>
        <time>2019-10-13T12:09:24Z</time>
      </trkpt>
      <trkpt lat="46.7601" lon="5.62377">
        <ele>281.1</ele>
        <time>2019-10-13T12:09:28Z</time>
      </trkpt>
      <trkpt lat="46.7601" lon="5.62384">
        <ele>281.3</ele>
        <time>2019-10-13T12:09:33Z</time>
      </trkpt>
      <trkpt lat="46.76011" lon="5.62393">
        <ele>281.4</ele>
        <time>2019-10-13T12:09:38Z</time>
      </trkpt>
      <trkpt lat="46.76011" lon="5.62401">
        <ele>281.4</ele>
        <time>2019-10-13T12:09:41Z</time>
      </trkpt>
      <trkpt lat="46.76011" lon="5.62407">
        <ele>281.3</ele>
        <time>2019-10-13T12:09:44Z</time>
      </trkpt>
      <trkpt lat="46.76011" lon="5.62415">
        <ele>281.3</ele>
        <time>2019-10-13T12:09:48Z</time>
      </trkpt>
      <trkpt lat="46.76012" lon="5.62423">
        <ele>281.3</ele>
        <time>2019-10-13T12:09:53Z</time>
      </trkpt>
      <trkpt lat="46.76013" lon="5.62431">
        <ele>281.3</ele>
        <time>2019-10-13T12:09:57Z</time>
      </trkpt>
      <trkpt lat="46.76014" lon="5.62439">
        <ele>281.4</ele>
        <time>2019-10-13T12:10:02Z</time>
      </trkpt>
      <trkpt lat="46.76013" lon="5.62445">
        <ele>281.4</ele>
        <time>2019-10-13T12:10:06Z</time>
      </trkpt>
      <trkpt lat="46.76012" lon="5.62453">
        <ele>281.5</ele>
        <time>2019-10-13T12:10:10Z</time>
      </trkpt>
      <trkpt lat="46.76013" lon="5.6246">
        <ele>281.6</ele>
        <time>2019-10-13T12:10:14Z</time>
      </trkpt>
      <trkpt lat="46.76014" lon="5.62467">
        <ele>281.8</ele>
        <time>2019-10-13T12:10:20Z</time>
      </trkpt>
      <trkpt lat="46.76014" lon="5.62474">
        <ele>282.1</ele>
        <time>2019-10-13T12:10:25Z</time>
      </trkpt>
      <trkpt lat="46.76015" lon="5.62482">
        <ele>282.4</ele>
        <time>2019-10-13T12:10:29Z</time>
      </trkpt>
      <trkpt lat="46.76016" lon="5.6249">
        <ele>282.7</ele>
        <time>2019-10-13T12:10:33Z</time>
      </trkpt>
      <trkpt lat="46.76018" lon="5.62497">
        <ele>283</ele>
        <time>2019-10-13T12:10:38Z</time>
      </trkpt>
      <trkpt lat="46.76019" lon="5.62503">
        <ele>283.1</ele>
        <time>2019-10-13T12:10:43Z</time>
      </trkpt>
      <trkpt lat="46.76021" lon="5.62511">
        <ele>283.4</ele>
        <time>2019-10-13T12:10:47Z</time>
      </trkpt>
      <trkpt lat="46.76021" lon="5.62518">
        <ele>283.8</ele>
        <time>2019-10-13T12:10:51Z</time>
      </trkpt>
      <trkpt lat="46.76021" lon="5.62525">
        <ele>284</ele>
        <time>2019-10-13T12:10:55Z</time>
      </trkpt>
      <trkpt lat="46.76021" lon="5.62532">
        <ele>284.1</ele>
        <time>2019-10-13T12:11:00Z</time>
      </trkpt>
      <trkpt lat="46.76021" lon="5.62538">
        <ele>284</ele>
        <time>2019-10-13T12:11:04Z</time>
      </trkpt>
      <trkpt lat="46.76021" lon="5.62546">
        <ele>283.5</ele>
        <time>2019-10-13T12:11:09Z</time>
      </trkpt>
      <trkpt lat="46.76021" lon="5.62554">
        <ele>282.9</ele>
        <time>2019-10-13T12:11:14Z</time>
      </trkpt>
      <trkpt lat="46.76022" lon="5.62561">
        <ele>282.7</ele>
        <time>2019-10-13T12:11:17Z</time>
      </trkpt>
      <trkpt lat="46.76023" lon="5.62569">
        <ele>282.8</ele>
        <time>2019-10-13T12:11:22Z</time>
      </trkpt>
      <trkpt lat="46.76022" lon="5.62577">
        <ele>283</ele>
        <time>2019-10-13T12:11:26Z</time>
      </trkpt>
      <trkpt lat="46.76024" lon="5.62584">
        <ele>283.3</ele>
        <time>2019-10-13T12:11:31Z</time>
      </trkpt>
      <trkpt lat="46.76029" lon="5.62589">
        <ele>283.7</ele>
        <time>2019-10-13T12:11:35Z</time>
      </trkpt>
      <trkpt lat="46.76033" lon="5.62593">
        <ele>284</ele>
        <time>2019-10-13T12:11:40Z</time>
      </trkpt>
      <trkpt lat="46.76037" lon="5.62597">
        <ele>284.3</ele>
        <time>2019-10-13T12:11:44Z</time>
      </trkpt>
      <trkpt lat="46.76042" lon="5.62599">
        <ele>284.4</ele>
        <time>2019-10-13T12:11:47Z</time>
      </trkpt>
      <trkpt lat="46.76047" lon="5.62603">
        <ele>284.5</ele>
        <time>2019-10-13T12:11:51Z</time>
      </trkpt>
      <trkpt lat="46.7605" lon="5.62606">
        <ele>284.8</ele>
        <time>2019-10-13T12:11:56Z</time>
      </trkpt>
      <trkpt lat="46.76054" lon="5.62612">
        <ele>285.1</ele>
        <time>2019-10-13T12:12:01Z</time>
      </trkpt>
      <trkpt lat="46.76057" lon="5.62618">
        <ele>285.5</ele>
        <time>2019-10-13T12:12:05Z</time>
      </trkpt>
      <trkpt lat="46.7606" lon="5.62624">
        <ele>285.8</ele>
        <time>2019-10-13T12:12:09Z</time>
      </trkpt>
      <trkpt lat="46.76063" lon="5.6263">
        <ele>286.1</ele>
        <time>2019-10-13T12:12:14Z</time>
      </trkpt>
      <trkpt lat="46.76066" lon="5.62636">
        <ele>286.2</ele>
        <time>2019-10-13T12:12:17Z</time>
      </trkpt>
      <trkpt lat="46.76069" lon="5.62642">
        <ele>286.3</ele>
        <time>2019-10-13T12:12:21Z</time>
      </trkpt>
      <trkpt lat="46.76073" lon="5.62648">
        <ele>286.4</ele>
        <time>2019-10-13T12:12:26Z</time>
      </trkpt>
      <trkpt lat="46.76074" lon="5.62654">
        <ele>286.6</ele>
        <time>2019-10-13T12:12:30Z</time>
      </trkpt>
      <trkpt lat="46.76077" lon="5.6266">
        <ele>286.8</ele>
        <time>2019-10-13T12:12:34Z</time>
      </trkpt>
      <trkpt lat="46.7608" lon="5.62666">
        <ele>286.9</ele>
        <time>2019-10-13T12:12:41Z</time>
      </trkpt>
      <trkpt lat="46.76084" lon="5.62671">
        <ele>286.9</ele>
        <time>2019-10-13T12:12:45Z</time>
      </trkpt>
      <trkpt lat="46.76087" lon="5.62677">
        <ele>287</ele>
        <time>2019-10-13T12:12:49Z</time>
      </trkpt>
      <trkpt lat="46.76091" lon="5.62683">
        <ele>287.1</ele>
        <time>2019-10-13T12:12:53Z</time>
      </trkpt>
      <trkpt lat="46.76092" lon="5.62689">
        <ele>287.2</ele>
        <time>2019-10-13T12:12:58Z</time>
      </trkpt>
      <trkpt lat="46.76094" lon="5.62696">
        <ele>287.1</ele>
        <time>2019-10-13T12:13:08Z</time>
      </trkpt>
      <trkpt lat="46.76089" lon="5.62699">
        <ele>286.8</ele>
        <time>2019-10-13T12:13:42Z</time>
      </trkpt>
      <trkpt lat="46.76092" lon="5.62693">
        <ele>287.2</ele>
        <time>2019-10-13T12:14:34Z</time>
      </trkpt>
      <trkpt lat="46.76095" lon="5.62698">
        <ele>286.9</ele>
        <time>2019-10-13T12:14:43Z</time>
      </trkpt>
      <trkpt lat="46.76096" lon="5.62705">
        <ele>286.4</ele>
        <time>2019-10-13T12:14:55Z</time>
      </trkpt>
      <trkpt lat="46.76099" lon="5.62711">
        <ele>285.7</ele>
        <time>2019-10-13T12:15:02Z</time>
      </trkpt>
      <trkpt lat="46.76102" lon="5.62719">
        <ele>285</ele>
        <time>2019-10-13T12:15:08Z</time>
      </trkpt>
      <trkpt lat="46.76105" lon="5.62723">
        <ele>284.5</ele>
        <time>2019-10-13T12:15:13Z</time>
      </trkpt>
      <trkpt lat="46.76109" lon="5.62728">
        <ele>284.3</ele>
        <time>2019-10-13T12:15:18Z</time>
      </trkpt>
      <trkpt lat="46.76112" lon="5.62735">
        <ele>284.4</ele>
        <time>2019-10-13T12:15:23Z</time>
      </trkpt>
      <trkpt lat="46.76114" lon="5.6274">
        <ele>284.7</ele>
        <time>2019-10-13T12:15:28Z</time>
      </trkpt>
      <trkpt lat="46.76117" lon="5.62747">
        <ele>284.9</ele>
        <time>2019-10-13T12:15:33Z</time>
      </trkpt>
      <trkpt lat="46.76121" lon="5.62752">
        <ele>285.1</ele>
        <time>2019-10-13T12:15:37Z</time>
      </trkpt>
      <trkpt lat="46.76124" lon="5.62758">
        <ele>285.2</ele>
        <time>2019-10-13T12:15:42Z</time>
      </trkpt>
      <trkpt lat="46.76127" lon="5.62764">
        <ele>285.1</ele>
        <time>2019-10-13T12:15:47Z</time>
      </trkpt>
      <trkpt lat="46.76131" lon="5.62769">
        <ele>284.8</ele>
        <time>2019-10-13T12:15:53Z</time>
      </trkpt>
      <trkpt lat="46.76133" lon="5.62775">
        <ele>284.6</ele>
        <time>2019-10-13T12:15:58Z</time>
      </trkpt>
      <trkpt lat="46.76136" lon="5.6278">
        <ele>284.4</ele>
        <time>2019-10-13T12:16:03Z</time>
      </trkpt>
      <trkpt lat="46.7614" lon="5.62784">
        <ele>283.8</ele>
        <time>2019-10-13T12:16:09Z</time>
      </trkpt>
      <trkpt lat="46.76143" lon="5.6279">
        <ele>283.1</ele>
        <time>2019-10-13T12:16:15Z</time>
      </trkpt>
      <trkpt lat="46.76147" lon="5.62795">
        <ele>282.4</ele>
        <time>2019-10-13T12:16:21Z</time>
      </trkpt>
      <trkpt lat="46.76151" lon="5.62798">
        <ele>281.6</ele>
        <time>2019-10-13T12:16:27Z</time>
      </trkpt>
      <trkpt lat="46.76154" lon="5.62793">
        <ele>280.6</ele>
        <time>2019-10-13T12:16:38Z</time>
      </trkpt>
      <trkpt lat="46.76156" lon="5.62785">
        <ele>280.7</ele>
        <time>2019-10-13T12:16:44Z</time>
      </trkpt>
      <trkpt lat="46.76157" lon="5.62773">
        <ele>281.3</ele>
        <time>2019-10-13T12:16:54Z</time>
      </trkpt>
      <trkpt lat="46.76158" lon="5.62766">
        <ele>282.1</ele>
        <time>2019-10-13T12:16:59Z</time>
      </trkpt>
      <trkpt lat="46.76161" lon="5.62759">
        <ele>282.9</ele>
        <time>2019-10-13T12:17:04Z</time>
      </trkpt>
      <trkpt lat="46.76161" lon="5.62751">
        <ele>283.5</ele>
        <time>2019-10-13T12:17:10Z</time>
      </trkpt>
      <trkpt lat="46.76161" lon="5.62743">
        <ele>283.9</ele>
        <time>2019-10-13T12:17:15Z</time>
      </trkpt>
      <trkpt lat="46.76162" lon="5.62736">
        <ele>284.4</ele>
        <time>2019-10-13T12:17:19Z</time>
      </trkpt>
      <trkpt lat="46.76162" lon="5.62729">
        <ele>284.7</ele>
        <time>2019-10-13T12:17:25Z</time>
      </trkpt>
      <trkpt lat="46.7616" lon="5.62722">
        <ele>284.8</ele>
        <time>2019-10-13T12:17:28Z</time>
      </trkpt>
      <trkpt lat="46.76158" lon="5.62716">
        <ele>285.2</ele>
        <time>2019-10-13T12:17:33Z</time>
      </trkpt>
      <trkpt lat="46.76156" lon="5.62709">
        <ele>285.2</ele>
        <time>2019-10-13T12:17:38Z</time>
      </trkpt>
      <trkpt lat="46.76155" lon="5.62703">
        <ele>285.2</ele>
        <time>2019-10-13T12:17:42Z</time>
      </trkpt>
      <trkpt lat="46.76155" lon="5.62696">
        <ele>285.4</ele>
        <time>2019-10-13T12:17:47Z</time>
      </trkpt>
      <trkpt lat="46.76154" lon="5.62689">
        <ele>285.9</ele>
        <time>2019-10-13T12:17:51Z</time>
      </trkpt>
      <trkpt lat="46.76153" lon="5.62681">
        <ele>286.5</ele>
        <time>2019-10-13T12:17:55Z</time>
      </trkpt>
      <trkpt lat="46.76151" lon="5.62673">
        <ele>287.4</ele>
        <time>2019-10-13T12:18:00Z</time>
      </trkpt>
      <trkpt lat="46.76149" lon="5.62665">
        <ele>288.2</ele>
        <time>2019-10-13T12:18:05Z</time>
      </trkpt>
      <trkpt lat="46.76148" lon="5.62658">
        <ele>288.7</ele>
        <time>2019-10-13T12:18:10Z</time>
      </trkpt>
      <trkpt lat="46.76147" lon="5.62652">
        <ele>288.6</ele>
        <time>2019-10-13T12:18:16Z</time>
      </trkpt>
      <trkpt lat="46.76145" lon="5.62645">
        <ele>288.3</ele>
        <time>2019-10-13T12:18:21Z</time>
      </trkpt>
      <trkpt lat="46.76144" lon="5.62638">
        <ele>287.9</ele>
        <time>2019-10-13T12:18:25Z</time>
      </trkpt>
      <trkpt lat="46.76142" lon="5.62632">
        <ele>287.1</ele>
        <time>2019-10-13T12:18:32Z</time>
      </trkpt>
      <trkpt lat="46.7614" lon="5.62624">
        <ele>286.4</ele>
        <time>2019-10-13T12:18:37Z</time>
      </trkpt>
      <trkpt lat="46.76138" lon="5.62617">
        <ele>285.7</ele>
        <time>2019-10-13T12:18:41Z</time>
      </trkpt>
      <trkpt lat="46.76138" lon="5.62609">
        <ele>284.9</ele>
        <time>2019-10-13T12:18:46Z</time>
      </trkpt>
      <trkpt lat="46.76137" lon="5.62603">
        <ele>284.1</ele>
        <time>2019-10-13T12:18:51Z</time>
      </trkpt>
      <trkpt lat="46.76136" lon="5.62595">
        <ele>283.7</ele>
        <time>2019-10-13T12:18:55Z</time>
      </trkpt>
      <trkpt lat="46.76136" lon="5.62587">
        <ele>283.4</ele>
        <time>2019-10-13T12:18:59Z</time>
      </trkpt>
      <trkpt lat="46.76135" lon="5.6258">
        <ele>283.3</ele>
        <time>2019-10-13T12:19:03Z</time>
      </trkpt>
      <trkpt lat="46.76134" lon="5.62573">
        <ele>283.4</ele>
        <time>2019-10-13T12:19:08Z</time>
      </trkpt>
      <trkpt lat="46.76132" lon="5.62566">
        <ele>283.5</ele>
        <time>2019-10-13T12:19:12Z</time>
      </trkpt>
      <trkpt lat="46.7613" lon="5.6256">
        <ele>283.7</ele>
        <time>2019-10-13T12:19:18Z</time>
      </trkpt>
      <trkpt lat="46.76129" lon="5.62555">
        <ele>278.1</ele>
        <time>2019-10-13T12:19:48Z</time>
      </trkpt>
      <trkpt lat="46.76129" lon="5.62547">
        <ele>277.6</ele>
        <time>2019-10-13T12:19:52Z</time>
      </trkpt>
      <trkpt lat="46.76128" lon="5.62539">
        <ele>277.4</ele>
        <time>2019-10-13T12:19:56Z</time>
      </trkpt>
      <trkpt lat="46.76128" lon="5.62531">
        <ele>277.5</ele>
        <time>2019-10-13T12:20:00Z</time>
      </trkpt>
      <trkpt lat="46.76127" lon="5.62523">
        <ele>277.6</ele>
        <time>2019-10-13T12:20:05Z</time>
      </trkpt>
      <trkpt lat="46.76126" lon="5.62515">
        <ele>277.8</ele>
        <time>2019-10-13T12:20:09Z</time>
      </trkpt>
      <trkpt lat="46.76125" lon="5.62509">
        <ele>278</ele>
        <time>2019-10-13T12:20:13Z</time>
      </trkpt>
      <trkpt lat="46.76126" lon="5.62502">
        <ele>278.6</ele>
        <time>2019-10-13T12:20:20Z</time>
      </trkpt>
      <trkpt lat="46.76126" lon="5.62495">
        <ele>279.7</ele>
        <time>2019-10-13T12:20:31Z</time>
      </trkpt>
      <trkpt lat="46.76126" lon="5.62487">
        <ele>280</ele>
        <time>2019-10-13T12:20:35Z</time>
      </trkpt>
      <trkpt lat="46.76127" lon="5.6248">
        <ele>280.1</ele>
        <time>2019-10-13T12:20:39Z</time>
      </trkpt>
      <trkpt lat="46.76128" lon="5.62472">
        <ele>280</ele>
        <time>2019-10-13T12:20:46Z</time>
      </trkpt>
      <trkpt lat="46.76129" lon="5.62466">
        <ele>279.8</ele>
        <time>2019-10-13T12:20:51Z</time>
      </trkpt>
      <trkpt lat="46.76129" lon="5.62458">
        <ele>279.8</ele>
        <time>2019-10-13T12:20:57Z</time>
      </trkpt>
      <trkpt lat="46.76131" lon="5.62451">
        <ele>280</ele>
        <time>2019-10-13T12:21:02Z</time>
      </trkpt>
      <trkpt lat="46.76131" lon="5.62444">
        <ele>279.9</ele>
        <time>2019-10-13T12:21:08Z</time>
      </trkpt>
      <trkpt lat="46.76132" lon="5.62437">
        <ele>279.6</ele>
        <time>2019-10-13T12:21:13Z</time>
      </trkpt>
      <trkpt lat="46.76133" lon="5.6243">
        <ele>279.4</ele>
        <time>2019-10-13T12:21:17Z</time>
      </trkpt>
      <trkpt lat="46.76134" lon="5.62423">
        <ele>279.2</ele>
        <time>2019-10-13T12:21:22Z</time>
      </trkpt>
      <trkpt lat="46.76137" lon="5.62417">
        <ele>278.8</ele>
        <time>2019-10-13T12:21:27Z</time>
      </trkpt>
      <trkpt lat="46.76139" lon="5.62408">
        <ele>278.6</ele>
        <time>2019-10-13T12:21:31Z</time>
      </trkpt>
      <trkpt lat="46.76142" lon="5.62403">
        <ele>278.2</ele>
        <time>2019-10-13T12:21:34Z</time>
      </trkpt>
      <trkpt lat="46.76143" lon="5.62395">
        <ele>277.4</ele>
        <time>2019-10-13T12:21:39Z</time>
      </trkpt>
      <trkpt lat="46.76145" lon="5.62387">
        <ele>276.9</ele>
        <time>2019-10-13T12:21:43Z</time>
      </trkpt>
      <trkpt lat="46.76147" lon="5.62381">
        <ele>276.3</ele>
        <time>2019-10-13T12:21:47Z</time>
      </trkpt>
      <trkpt lat="46.76149" lon="5.62374">
        <ele>275.9</ele>
        <time>2019-10-13T12:21:53Z</time>
      </trkpt>
      <trkpt lat="46.76151" lon="5.62368">
        <ele>275.5</ele>
        <time>2019-10-13T12:21:57Z</time>
      </trkpt>
      <trkpt lat="46.76153" lon="5.6236">
        <ele>275.2</ele>
        <time>2019-10-13T12:22:02Z</time>
      </trkpt>
      <trkpt lat="46.76155" lon="5.62354">
        <ele>274.9</ele>
        <time>2019-10-13T12:22:08Z</time>
      </trkpt>
      <trkpt lat="46.76157" lon="5.62346">
        <ele>274.5</ele>
        <time>2019-10-13T12:22:14Z</time>
      </trkpt>
      <trkpt lat="46.76159" lon="5.62339">
        <ele>274</ele>
        <time>2019-10-13T12:22:18Z</time>
      </trkpt>
      <trkpt lat="46.76161" lon="5.62333">
        <ele>273.5</ele>
        <time>2019-10-13T12:22:22Z</time>
      </trkpt>
      <trkpt lat="46.76163" lon="5.62326">
        <ele>273</ele>
        <time>2019-10-13T12:22:26Z</time>
      </trkpt>
      <trkpt lat="46.76165" lon="5.62319">
        <ele>272.5</ele>
        <time>2019-10-13T12:22:31Z</time>
      </trkpt>
      <trkpt lat="46.76167" lon="5.62313">
        <ele>272.3</ele>
        <time>2019-10-13T12:22:35Z</time>
      </trkpt>
      <trkpt lat="46.76169" lon="5.62305">
        <ele>272.3</ele>
        <time>2019-10-13T12:22:40Z</time>
      </trkpt>
      <trkpt lat="46.7617" lon="5.62297">
        <ele>272.3</ele>
        <time>2019-10-13T12:22:44Z</time>
      </trkpt>
      <trkpt lat="46.76172" lon="5.6229">
        <ele>272.2</ele>
        <time>2019-10-13T12:22:48Z</time>
      </trkpt>
      <trkpt lat="46.76174" lon="5.62283">
        <ele>272.1</ele>
        <time>2019-10-13T12:22:52Z</time>
      </trkpt>
      <trkpt lat="46.76174" lon="5.62275">
        <ele>272.1</ele>
        <time>2019-10-13T12:22:57Z</time>
      </trkpt>
      <trkpt lat="46.76173" lon="5.62268">
        <ele>272.2</ele>
        <time>2019-10-13T12:23:01Z</time>
      </trkpt>
      <trkpt lat="46.76173" lon="5.62261">
        <ele>272.3</ele>
        <time>2019-10-13T12:23:06Z</time>
      </trkpt>
      <trkpt lat="46.76175" lon="5.62254">
        <ele>272.4</ele>
        <time>2019-10-13T12:23:10Z</time>
      </trkpt>
      <trkpt lat="46.76178" lon="5.62249">
        <ele>272.7</ele>
        <time>2019-10-13T12:23:15Z</time>
      </trkpt>
      <trkpt lat="46.7618" lon="5.62243">
        <ele>272.8</ele>
        <time>2019-10-13T12:23:19Z</time>
      </trkpt>
      <trkpt lat="46.76181" lon="5.62235">
        <ele>272.8</ele>
        <time>2019-10-13T12:23:24Z</time>
      </trkpt>
      <trkpt lat="46.76183" lon="5.62228">
        <ele>272.9</ele>
        <time>2019-10-13T12:23:29Z</time>
      </trkpt>
      <trkpt lat="46.76183" lon="5.62222">
        <ele>272.9</ele>
        <time>2019-10-13T12:23:32Z</time>
      </trkpt>
      <trkpt lat="46.76183" lon="5.62215">
        <ele>272.9</ele>
        <time>2019-10-13T12:23:36Z</time>
      </trkpt>
      <trkpt lat="46.76184" lon="5.62208">
        <ele>272.6</ele>
        <time>2019-10-13T12:23:41Z</time>
      </trkpt>
      <trkpt lat="46.76185" lon="5.62202">
        <ele>272.5</ele>
        <time>2019-10-13T12:23:45Z</time>
      </trkpt>
      <trkpt lat="46.76187" lon="5.62195">
        <ele>272.4</ele>
        <time>2019-10-13T12:23:50Z</time>
      </trkpt>
      <trkpt lat="46.7619" lon="5.62189">
        <ele>272.2</ele>
        <time>2019-10-13T12:23:54Z</time>
      </trkpt>
      <trkpt lat="46.76192" lon="5.62183">
        <ele>272</ele>
        <time>2019-10-13T12:23:59Z</time>
      </trkpt>
      <trkpt lat="46.76192" lon="5.62176">
        <ele>272.1</ele>
        <time>2019-10-13T12:24:04Z</time>
      </trkpt>
      <trkpt lat="46.76193" lon="5.62169">
        <ele>272.2</ele>
        <time>2019-10-13T12:24:08Z</time>
      </trkpt>
      <trkpt lat="46.76195" lon="5.62162">
        <ele>272.7</ele>
        <time>2019-10-13T12:24:15Z</time>
      </trkpt>
      <trkpt lat="46.76196" lon="5.62155">
        <ele>272.8</ele>
        <time>2019-10-13T12:24:19Z</time>
      </trkpt>
      <trkpt lat="46.76196" lon="5.62149">
        <ele>272.9</ele>
        <time>2019-10-13T12:24:22Z</time>
      </trkpt>
      <trkpt lat="46.76196" lon="5.62142">
        <ele>273</ele>
        <time>2019-10-13T12:24:27Z</time>
      </trkpt>
      <trkpt lat="46.76193" lon="5.62136">
        <ele>273.8</ele>
        <time>2019-10-13T12:24:39Z</time>
      </trkpt>
      <trkpt lat="46.76189" lon="5.62132">
        <ele>273.8</ele>
        <time>2019-10-13T12:24:46Z</time>
      </trkpt>
      <trkpt lat="46.76185" lon="5.6213">
        <ele>274.1</ele>
        <time>2019-10-13T12:25:17Z</time>
      </trkpt>
      <trkpt lat="46.76181" lon="5.62126">
        <ele>269.2</ele>
        <time>2019-10-13T12:26:20Z</time>
      </trkpt>
      <trkpt lat="46.76177" lon="5.62124">
        <ele>267.7</ele>
        <time>2019-10-13T12:26:31Z</time>
      </trkpt>
      <trkpt lat="46.76172" lon="5.62122">
        <ele>267.3</ele>
        <time>2019-10-13T12:26:38Z</time>
      </trkpt>
      <trkpt lat="46.76168" lon="5.62118">
        <ele>266.3</ele>
        <time>2019-10-13T12:26:57Z</time>
      </trkpt>
      <trkpt lat="46.76172" lon="5.62122">
        <ele>266.1</ele>
        <time>2019-10-13T12:28:11Z</time>
      </trkpt>
      <trkpt lat="46.76168" lon="5.62118">
        <ele>267.7</ele>
        <time>2019-10-13T12:29:07Z</time>
      </trkpt>
      <trkpt lat="46.76168" lon="5.62125">
        <ele>267.9</ele>
        <time>2019-10-13T12:29:20Z</time>
      </trkpt>
      <trkpt lat="46.76172" lon="5.62121">
        <ele>269.5</ele>
        <time>2019-10-13T12:29:56Z</time>
      </trkpt>
      <trkpt lat="46.76169" lon="5.62114">
        <ele>268.9</ele>
        <time>2019-10-13T12:30:06Z</time>
      </trkpt>
      <trkpt lat="46.76165" lon="5.62111">
        <ele>268.6</ele>
        <time>2019-10-13T12:30:09Z</time>
      </trkpt>
      <trkpt lat="46.7616" lon="5.62108">
        <ele>268.2</ele>
        <time>2019-10-13T12:30:13Z</time>
      </trkpt>
      <trkpt lat="46.76156" lon="5.62104">
        <ele>267.9</ele>
        <time>2019-10-13T12:30:18Z</time>
      </trkpt>
      <trkpt lat="46.76151" lon="5.62102">
        <ele>267.6</ele>
        <time>2019-10-13T12:30:23Z</time>
      </trkpt>
      <trkpt lat="46.76147" lon="5.62099">
        <ele>267.2</ele>
        <time>2019-10-13T12:30:31Z</time>
      </trkpt>
      <trkpt lat="46.76142" lon="5.62097">
        <ele>266.7</ele>
        <time>2019-10-13T12:30:37Z</time>
      </trkpt>
      <trkpt lat="46.76138" lon="5.62093">
        <ele>266.1</ele>
        <time>2019-10-13T12:30:42Z</time>
      </trkpt>
      <trkpt lat="46.76134" lon="5.62089">
        <ele>265.2</ele>
        <time>2019-10-13T12:30:47Z</time>
      </trkpt>
      <trkpt lat="46.76131" lon="5.62082">
        <ele>263.9</ele>
        <time>2019-10-13T12:30:53Z</time>
      </trkpt>
      <trkpt lat="46.76129" lon="5.62075">
        <ele>262.9</ele>
        <time>2019-10-13T12:30:58Z</time>
      </trkpt>
      <trkpt lat="46.76125" lon="5.62073">
        <ele>262.5</ele>
        <time>2019-10-13T12:31:08Z</time>
      </trkpt>
      <trkpt lat="46.76125" lon="5.6207">
        <ele>266.5</ele>
        <time>2019-10-13T12:32:24Z</time>
      </trkpt>
      <trkpt lat="46.76126" lon="5.62062">
        <ele>265.9</ele>
        <time>2019-10-13T12:32:26Z</time>
      </trkpt>
      <trkpt lat="46.76128" lon="5.62054">
        <ele>264.8</ele>
        <time>2019-10-13T12:32:31Z</time>
      </trkpt>
      <trkpt lat="46.76129" lon="5.62048">
        <ele>263.9</ele>
        <time>2019-10-13T12:32:36Z</time>
      </trkpt>
      <trkpt lat="46.7613" lon="5.62041">
        <ele>263.2</ele>
        <time>2019-10-13T12:32:42Z</time>
      </trkpt>
      <trkpt lat="46.7613" lon="5.62034">
        <ele>262.9</ele>
        <time>2019-10-13T12:32:48Z</time>
      </trkpt>
      <trkpt lat="46.76129" lon="5.62027">
        <ele>262.1</ele>
        <time>2019-10-13T12:32:55Z</time>
      </trkpt>
      <trkpt lat="46.76128" lon="5.62019">
        <ele>260.8</ele>
        <time>2019-10-13T12:33:03Z</time>
      </trkpt>
      <trkpt lat="46.76126" lon="5.62013">
        <ele>259.7</ele>
        <time>2019-10-13T12:33:08Z</time>
      </trkpt>
      <trkpt lat="46.76123" lon="5.62006">
        <ele>258.9</ele>
        <time>2019-10-13T12:33:12Z</time>
      </trkpt>
      <trkpt lat="46.76123" lon="5.61999">
        <ele>256.9</ele>
        <time>2019-10-13T12:33:37Z</time>
      </trkpt>
      <trkpt lat="46.76121" lon="5.61993">
        <ele>256.6</ele>
        <time>2019-10-13T12:33:41Z</time>
      </trkpt>
      <trkpt lat="46.76119" lon="5.61986">
        <ele>256.8</ele>
        <time>2019-10-13T12:33:46Z</time>
      </trkpt>
      <trkpt lat="46.76119" lon="5.61979">
        <ele>257.3</ele>
        <time>2019-10-13T12:33:52Z</time>
      </trkpt>
      <trkpt lat="46.76118" lon="5.61972">
        <ele>257.5</ele>
        <time>2019-10-13T12:33:57Z</time>
      </trkpt>
      <trkpt lat="46.76117" lon="5.61965">
        <ele>257.6</ele>
        <time>2019-10-13T12:34:02Z</time>
      </trkpt>
      <trkpt lat="46.76116" lon="5.61957">
        <ele>257.7</ele>
        <time>2019-10-13T12:34:08Z</time>
      </trkpt>
      <trkpt lat="46.76114" lon="5.61949">
        <ele>257.9</ele>
        <time>2019-10-13T12:34:12Z</time>
      </trkpt>
      <trkpt lat="46.76112" lon="5.61941">
        <ele>258.1</ele>
        <time>2019-10-13T12:34:16Z</time>
      </trkpt>
      <trkpt lat="46.76111" lon="5.61934">
        <ele>258.1</ele>
        <time>2019-10-13T12:34:20Z</time>
      </trkpt>
      <trkpt lat="46.7611" lon="5.61927">
        <ele>258.1</ele>
        <time>2019-10-13T12:34:23Z</time>
      </trkpt>
      <trkpt lat="46.76109" lon="5.6192">
        <ele>258</ele>
        <time>2019-10-13T12:34:27Z</time>
      </trkpt>
      <trkpt lat="46.76108" lon="5.61912">
        <ele>257.9</ele>
        <time>2019-10-13T12:34:32Z</time>
      </trkpt>
      <trkpt lat="46.76106" lon="5.61906">
        <ele>257.7</ele>
        <time>2019-10-13T12:34:36Z</time>
      </trkpt>
      <trkpt lat="46.76104" lon="5.61899">
        <ele>257.3</ele>
        <time>2019-10-13T12:34:40Z</time>
      </trkpt>
      <trkpt lat="46.76103" lon="5.61892">
        <ele>256.9</ele>
        <time>2019-10-13T12:34:45Z</time>
      </trkpt>
      <trkpt lat="46.76101" lon="5.61885">
        <ele>256.7</ele>
        <time>2019-10-13T12:34:50Z</time>
      </trkpt>
      <trkpt lat="46.76099" lon="5.61878">
        <ele>256.6</ele>
        <time>2019-10-13T12:34:55Z</time>
      </trkpt>
      <trkpt lat="46.76097" lon="5.6187">
        <ele>256.3</ele>
        <time>2019-10-13T12:35:00Z</time>
      </trkpt>
      <trkpt lat="46.76095" lon="5.61863">
        <ele>256</ele>
        <time>2019-10-13T12:35:06Z</time>
      </trkpt>
      <trkpt lat="46.76093" lon="5.61857">
        <ele>256</ele>
        <time>2019-10-13T12:35:11Z</time>
      </trkpt>
      <trkpt lat="46.7609" lon="5.61849">
        <ele>256.2</ele>
        <time>2019-10-13T12:35:15Z</time>
      </trkpt>
      <trkpt lat="46.76087" lon="5.61843">
        <ele>256.4</ele>
        <time>2019-10-13T12:35:18Z</time>
      </trkpt>
      <trkpt lat="46.76084" lon="5.61837">
        <ele>256.6</ele>
        <time>2019-10-13T12:35:22Z</time>
      </trkpt>
      <trkpt lat="46.76082" lon="5.61831">
        <ele>256.6</ele>
        <time>2019-10-13T12:35:26Z</time>
      </trkpt>
      <trkpt lat="46.7608" lon="5.61825">
        <ele>256.6</ele>
        <time>2019-10-13T12:35:30Z</time>
      </trkpt>
      <trkpt lat="46.76077" lon="5.61818">
        <ele>256.5</ele>
        <time>2019-10-13T12:35:34Z</time>
      </trkpt>
      <trkpt lat="46.76075" lon="5.61812">
        <ele>256.3</ele>
        <time>2019-10-13T12:35:38Z</time>
      </trkpt>
      <trkpt lat="46.76074" lon="5.61804">
        <ele>256.2</ele>
        <time>2019-10-13T12:35:43Z</time>
      </trkpt>
      <trkpt lat="46.76071" lon="5.61797">
        <ele>256</ele>
        <time>2019-10-13T12:35:48Z</time>
      </trkpt>
      <trkpt lat="46.76069" lon="5.6179">
        <ele>256</ele>
        <time>2019-10-13T12:35:52Z</time>
      </trkpt>
      <trkpt lat="46.76067" lon="5.61783">
        <ele>255.9</ele>
        <time>2019-10-13T12:35:57Z</time>
      </trkpt>
      <trkpt lat="46.76066" lon="5.61775">
        <ele>256</ele>
        <time>2019-10-13T12:36:01Z</time>
      </trkpt>
      <trkpt lat="46.76065" lon="5.61768">
        <ele>256</ele>
        <time>2019-10-13T12:36:05Z</time>
      </trkpt>
      <trkpt lat="46.76064" lon="5.6176">
        <ele>256</ele>
        <time>2019-10-13T12:36:09Z</time>
      </trkpt>
      <trkpt lat="46.76064" lon="5.61753">
        <ele>255.8</ele>
        <time>2019-10-13T12:36:13Z</time>
      </trkpt>
      <trkpt lat="46.76063" lon="5.61745">
        <ele>255.3</ele>
        <time>2019-10-13T12:36:19Z</time>
      </trkpt>
      <trkpt lat="46.76063" lon="5.61738">
        <ele>255</ele>
        <time>2019-10-13T12:36:23Z</time>
      </trkpt>
      <trkpt lat="46.76062" lon="5.6173">
        <ele>254.6</ele>
        <time>2019-10-13T12:36:27Z</time>
      </trkpt>
      <trkpt lat="46.76062" lon="5.61723">
        <ele>254.2</ele>
        <time>2019-10-13T12:36:31Z</time>
      </trkpt>
      <trkpt lat="46.76062" lon="5.61716">
        <ele>253.7</ele>
        <time>2019-10-13T12:36:35Z</time>
      </trkpt>
      <trkpt lat="46.76064" lon="5.61709">
        <ele>253</ele>
        <time>2019-10-13T12:36:41Z</time>
      </trkpt>
      <trkpt lat="46.76065" lon="5.61702">
        <ele>252.1</ele>
        <time>2019-10-13T12:36:47Z</time>
      </trkpt>
      <trkpt lat="46.76066" lon="5.61695">
        <ele>251.6</ele>
        <time>2019-10-13T12:36:51Z</time>
      </trkpt>
      <trkpt lat="46.76065" lon="5.61688">
        <ele>250.1</ele>
        <time>2019-10-13T12:36:57Z</time>
      </trkpt>
      <trkpt lat="46.76065" lon="5.6168">
        <ele>249.1</ele>
        <time>2019-10-13T12:37:01Z</time>
      </trkpt>
      <trkpt lat="46.76065" lon="5.61673">
        <ele>248</ele>
        <time>2019-10-13T12:37:05Z</time>
      </trkpt>
      <trkpt lat="46.76065" lon="5.61666">
        <ele>246.8</ele>
        <time>2019-10-13T12:37:10Z</time>
      </trkpt>
      <trkpt lat="46.76065" lon="5.61659">
        <ele>246</ele>
        <time>2019-10-13T12:37:14Z</time>
      </trkpt>
      <trkpt lat="46.76065" lon="5.61652">
        <ele>245.4</ele>
        <time>2019-10-13T12:37:18Z</time>
      </trkpt>
      <trkpt lat="46.76066" lon="5.61645">
        <ele>244.6</ele>
        <time>2019-10-13T12:37:24Z</time>
      </trkpt>
      <trkpt lat="46.76065" lon="5.61638">
        <ele>244.3</ele>
        <time>2019-10-13T12:37:29Z</time>
      </trkpt>
      <trkpt lat="46.76064" lon="5.61631">
        <ele>244.3</ele>
        <time>2019-10-13T12:37:33Z</time>
      </trkpt>
      <trkpt lat="46.76065" lon="5.61624">
        <ele>244.2</ele>
        <time>2019-10-13T12:37:37Z</time>
      </trkpt>
      <trkpt lat="46.76064" lon="5.61618">
        <ele>244.2</ele>
        <time>2019-10-13T12:37:41Z</time>
      </trkpt>
      <trkpt lat="46.76062" lon="5.61612">
        <ele>244.3</ele>
        <time>2019-10-13T12:37:44Z</time>
      </trkpt>
      <trkpt lat="46.7606" lon="5.61605">
        <ele>244.3</ele>
        <time>2019-10-13T12:37:48Z</time>
      </trkpt>
      <trkpt lat="46.76059" lon="5.61598">
        <ele>243.9</ele>
        <time>2019-10-13T12:37:53Z</time>
      </trkpt>
      <trkpt lat="46.76058" lon="5.6159">
        <ele>243.6</ele>
        <time>2019-10-13T12:37:57Z</time>
      </trkpt>
      <trkpt lat="46.76057" lon="5.61582">
        <ele>243.2</ele>
        <time>2019-10-13T12:38:01Z</time>
      </trkpt>
      <trkpt lat="46.76055" lon="5.61575">
        <ele>242.8</ele>
        <time>2019-10-13T12:38:06Z</time>
      </trkpt>
      <trkpt lat="46.76054" lon="5.61568">
        <ele>242.5</ele>
        <time>2019-10-13T12:38:10Z</time>
      </trkpt>
      <trkpt lat="46.76053" lon="5.61561">
        <ele>242.3</ele>
        <time>2019-10-13T12:38:14Z</time>
      </trkpt>
      <trkpt lat="46.76053" lon="5.61554">
        <ele>242</ele>
        <time>2019-10-13T12:38:19Z</time>
      </trkpt>
      <trkpt lat="46.76052" lon="5.61547">
        <ele>241.6</ele>
        <time>2019-10-13T12:38:24Z</time>
      </trkpt>
      <trkpt lat="46.7605" lon="5.6154">
        <ele>241.3</ele>
        <time>2019-10-13T12:38:27Z</time>
      </trkpt>
      <trkpt lat="46.76049" lon="5.61532">
        <ele>240.7</ele>
        <time>2019-10-13T12:38:31Z</time>
      </trkpt>
      <trkpt lat="46.76049" lon="5.61525">
        <ele>240.1</ele>
        <time>2019-10-13T12:38:35Z</time>
      </trkpt>
      <trkpt lat="46.76048" lon="5.61518">
        <ele>239.5</ele>
        <time>2019-10-13T12:38:39Z</time>
      </trkpt>
      <trkpt lat="46.76048" lon="5.61512">
        <ele>238.9</ele>
        <time>2019-10-13T12:38:44Z</time>
      </trkpt>
      <trkpt lat="46.76045" lon="5.61505">
        <ele>238.7</ele>
        <time>2019-10-13T12:38:50Z</time>
      </trkpt>
      <trkpt lat="46.76042" lon="5.61501">
        <ele>238.7</ele>
        <time>2019-10-13T12:38:54Z</time>
      </trkpt>
      <trkpt lat="46.76038" lon="5.61498">
        <ele>238.9</ele>
        <time>2019-10-13T12:38:59Z</time>
      </trkpt>
      <trkpt lat="46.76033" lon="5.61495">
        <ele>239.2</ele>
        <time>2019-10-13T12:39:03Z</time>
      </trkpt>
      <trkpt lat="46.76028" lon="5.61492">
        <ele>239.6</ele>
        <time>2019-10-13T12:39:08Z</time>
      </trkpt>
      <trkpt lat="46.76023" lon="5.6149">
        <ele>240.2</ele>
        <time>2019-10-13T12:39:14Z</time>
      </trkpt>
      <trkpt lat="46.76019" lon="5.61488">
        <ele>240.7</ele>
        <time>2019-10-13T12:39:18Z</time>
      </trkpt>
      <trkpt lat="46.76014" lon="5.61487">
        <ele>241.2</ele>
        <time>2019-10-13T12:39:22Z</time>
      </trkpt>
      <trkpt lat="46.76009" lon="5.61487">
        <ele>241.8</ele>
        <time>2019-10-13T12:39:27Z</time>
      </trkpt>
      <trkpt lat="46.76005" lon="5.61489">
        <ele>242.5</ele>
        <time>2019-10-13T12:39:33Z</time>
      </trkpt>
      <trkpt lat="46.76" lon="5.61491">
        <ele>243</ele>
        <time>2019-10-13T12:39:43Z</time>
      </trkpt>
      <trkpt lat="46.75995" lon="5.61495">
        <ele>243.1</ele>
        <time>2019-10-13T12:39:48Z</time>
      </trkpt>
      <trkpt lat="46.75991" lon="5.61498">
        <ele>243.3</ele>
        <time>2019-10-13T12:39:53Z</time>
      </trkpt>
      <trkpt lat="46.75987" lon="5.61501">
        <ele>243.7</ele>
        <time>2019-10-13T12:39:58Z</time>
      </trkpt>
      <trkpt lat="46.75982" lon="5.61503">
        <ele>244.1</ele>
        <time>2019-10-13T12:40:03Z</time>
      </trkpt>
      <trkpt lat="46.75976" lon="5.61503">
        <ele>244.4</ele>
        <time>2019-10-13T12:40:08Z</time>
      </trkpt>
      <trkpt lat="46.75971" lon="5.61503">
        <ele>244.6</ele>
        <time>2019-10-13T12:40:13Z</time>
      </trkpt>
      <trkpt lat="46.75966" lon="5.61502">
        <ele>244.7</ele>
        <time>2019-10-13T12:40:18Z</time>
      </trkpt>
      <trkpt lat="46.75961" lon="5.61503">
        <ele>244.7</ele>
        <time>2019-10-13T12:40:26Z</time>
      </trkpt>
      <trkpt lat="46.75956" lon="5.61504">
        <ele>244.6</ele>
        <time>2019-10-13T12:40:31Z</time>
      </trkpt>
      <trkpt lat="46.75951" lon="5.61504">
        <ele>244.3</ele>
        <time>2019-10-13T12:40:35Z</time>
      </trkpt>
      <trkpt lat="46.75946" lon="5.61505">
        <ele>244</ele>
        <time>2019-10-13T12:40:39Z</time>
      </trkpt>
      <trkpt lat="46.75941" lon="5.61504">
        <ele>243.6</ele>
        <time>2019-10-13T12:40:44Z</time>
      </trkpt>
      <trkpt lat="46.75936" lon="5.61504">
        <ele>243.4</ele>
        <time>2019-10-13T12:40:50Z</time>
      </trkpt>
      <trkpt lat="46.75932" lon="5.61501">
        <ele>243</ele>
        <time>2019-10-13T12:41:00Z</time>
      </trkpt>
      <trkpt lat="46.75927" lon="5.61502">
        <ele>243.1</ele>
        <time>2019-10-13T12:41:09Z</time>
      </trkpt>
      <trkpt lat="46.75922" lon="5.61504">
        <ele>243.2</ele>
        <time>2019-10-13T12:41:13Z</time>
      </trkpt>
      <trkpt lat="46.75917" lon="5.61506">
        <ele>243.5</ele>
        <time>2019-10-13T12:41:19Z</time>
      </trkpt>
      <trkpt lat="46.75913" lon="5.61508">
        <ele>243.9</ele>
        <time>2019-10-13T12:41:26Z</time>
      </trkpt>
      <trkpt lat="46.75908" lon="5.61512">
        <ele>244.1</ele>
        <time>2019-10-13T12:41:31Z</time>
      </trkpt>
      <trkpt lat="46.75903" lon="5.61516">
        <ele>244.3</ele>
        <time>2019-10-13T12:41:36Z</time>
      </trkpt>
      <trkpt lat="46.75899" lon="5.6152">
        <ele>244.4</ele>
        <time>2019-10-13T12:41:40Z</time>
      </trkpt>
      <trkpt lat="46.75895" lon="5.61525">
        <ele>244.5</ele>
        <time>2019-10-13T12:41:44Z</time>
      </trkpt>
      <trkpt lat="46.75891" lon="5.61529">
        <ele>244.6</ele>
        <time>2019-10-13T12:41:49Z</time>
      </trkpt>
      <trkpt lat="46.75886" lon="5.61533">
        <ele>244.8</ele>
        <time>2019-10-13T12:41:53Z</time>
      </trkpt>
      <trkpt lat="46.75882" lon="5.61536">
        <ele>244.8</ele>
        <time>2019-10-13T12:41:57Z</time>
      </trkpt>
      <trkpt lat="46.75877" lon="5.61539">
        <ele>244.7</ele>
        <time>2019-10-13T12:42:02Z</time>
      </trkpt>
      <trkpt lat="46.75873" lon="5.61541">
        <ele>244.5</ele>
        <time>2019-10-13T12:42:07Z</time>
      </trkpt>
      <trkpt lat="46.75868" lon="5.61543">
        <ele>244.5</ele>
        <time>2019-10-13T12:42:11Z</time>
      </trkpt>
      <trkpt lat="46.75864" lon="5.61546">
        <ele>244.5</ele>
        <time>2019-10-13T12:42:15Z</time>
      </trkpt>
      <trkpt lat="46.75859" lon="5.61548">
        <ele>244.8</ele>
        <time>2019-10-13T12:42:20Z</time>
      </trkpt>
      <trkpt lat="46.75854" lon="5.61551">
        <ele>245</ele>
        <time>2019-10-13T12:42:25Z</time>
      </trkpt>
      <trkpt lat="46.75849" lon="5.61552">
        <ele>244.8</ele>
        <time>2019-10-13T12:42:31Z</time>
      </trkpt>
      <trkpt lat="46.75845" lon="5.61555">
        <ele>244.7</ele>
        <time>2019-10-13T12:42:36Z</time>
      </trkpt>
      <trkpt lat="46.7584" lon="5.6156">
        <ele>244.5</ele>
        <time>2019-10-13T12:42:41Z</time>
      </trkpt>
      <trkpt lat="46.75835" lon="5.61564">
        <ele>244.3</ele>
        <time>2019-10-13T12:42:45Z</time>
      </trkpt>
      <trkpt lat="46.7583" lon="5.61568">
        <ele>244.1</ele>
        <time>2019-10-13T12:42:49Z</time>
      </trkpt>
      <trkpt lat="46.75825" lon="5.6157">
        <ele>244</ele>
        <time>2019-10-13T12:42:55Z</time>
      </trkpt>
      <trkpt lat="46.75821" lon="5.61571">
        <ele>243.9</ele>
        <time>2019-10-13T12:42:59Z</time>
      </trkpt>
      <trkpt lat="46.75816" lon="5.61571">
        <ele>243.8</ele>
        <time>2019-10-13T12:43:03Z</time>
      </trkpt>
      <trkpt lat="46.7581" lon="5.6157">
        <ele>243.6</ele>
        <time>2019-10-13T12:43:08Z</time>
      </trkpt>
      <trkpt lat="46.75806" lon="5.61571">
        <ele>243.3</ele>
        <time>2019-10-13T12:43:13Z</time>
      </trkpt>
      <trkpt lat="46.758" lon="5.61569">
        <ele>242.8</ele>
        <time>2019-10-13T12:43:18Z</time>
      </trkpt>
      <trkpt lat="46.75796" lon="5.61566">
        <ele>242.2</ele>
        <time>2019-10-13T12:43:24Z</time>
      </trkpt>
      <trkpt lat="46.75793" lon="5.61562">
        <ele>241.8</ele>
        <time>2019-10-13T12:43:29Z</time>
      </trkpt>
      <trkpt lat="46.75789" lon="5.61557">
        <ele>241.2</ele>
        <time>2019-10-13T12:43:36Z</time>
      </trkpt>
      <trkpt lat="46.75785" lon="5.61557">
        <ele>241</ele>
        <time>2019-10-13T12:43:42Z</time>
      </trkpt>
      <trkpt lat="46.75779" lon="5.61554">
        <ele>241</ele>
        <time>2019-10-13T12:43:46Z</time>
      </trkpt>
      <trkpt lat="46.75777" lon="5.61547">
        <ele>241.3</ele>
        <time>2019-10-13T12:43:53Z</time>
      </trkpt>
      <trkpt lat="46.75775" lon="5.61541">
        <ele>241.3</ele>
        <time>2019-10-13T12:44:00Z</time>
      </trkpt>
      <trkpt lat="46.75773" lon="5.61534">
        <ele>241.3</ele>
        <time>2019-10-13T12:44:07Z</time>
      </trkpt>
      <trkpt lat="46.7577" lon="5.61529">
        <ele>241.3</ele>
        <time>2019-10-13T12:44:12Z</time>
      </trkpt>
      <trkpt lat="46.75766" lon="5.61523">
        <ele>241.4</ele>
        <time>2019-10-13T12:44:16Z</time>
      </trkpt>
      <trkpt lat="46.75763" lon="5.61519">
        <ele>241.5</ele>
        <time>2019-10-13T12:44:21Z</time>
      </trkpt>
      <trkpt lat="46.7576" lon="5.61512">
        <ele>241</ele>
        <time>2019-10-13T12:44:36Z</time>
      </trkpt>
      <trkpt lat="46.75758" lon="5.61506">
        <ele>240.7</ele>
        <time>2019-10-13T12:44:41Z</time>
      </trkpt>
      <trkpt lat="46.75755" lon="5.615">
        <ele>240.4</ele>
        <time>2019-10-13T12:44:46Z</time>
      </trkpt>
      <trkpt lat="46.7575" lon="5.61496">
        <ele>240.5</ele>
        <time>2019-10-13T12:44:52Z</time>
      </trkpt>
      <trkpt lat="46.75748" lon="5.61491">
        <ele>240.6</ele>
        <time>2019-10-13T12:44:57Z</time>
      </trkpt>
      <trkpt lat="46.75745" lon="5.61485">
        <ele>240.9</ele>
        <time>2019-10-13T12:45:02Z</time>
      </trkpt>
      <trkpt lat="46.75743" lon="5.61479">
        <ele>241.1</ele>
        <time>2019-10-13T12:45:06Z</time>
      </trkpt>
      <trkpt lat="46.75741" lon="5.61472">
        <ele>241.4</ele>
        <time>2019-10-13T12:45:11Z</time>
      </trkpt>
      <trkpt lat="46.75739" lon="5.61466">
        <ele>241.6</ele>
        <time>2019-10-13T12:45:15Z</time>
      </trkpt>
      <trkpt lat="46.75731" lon="5.61452">
        <ele>241.9</ele>
        <time>2019-10-13T12:45:25Z</time>
      </trkpt>
      <trkpt lat="46.75727" lon="5.61447">
        <ele>241.8</ele>
        <time>2019-10-13T12:45:30Z</time>
      </trkpt>
      <trkpt lat="46.75723" lon="5.61441">
        <ele>241.7</ele>
        <time>2019-10-13T12:45:37Z</time>
      </trkpt>
      <trkpt lat="46.75721" lon="5.61435">
        <ele>241.9</ele>
        <time>2019-10-13T12:45:42Z</time>
      </trkpt>
      <trkpt lat="46.75717" lon="5.61429">
        <ele>241.9</ele>
        <time>2019-10-13T12:45:47Z</time>
      </trkpt>
      <trkpt lat="46.75713" lon="5.61415">
        <ele>240.7</ele>
        <time>2019-10-13T12:46:05Z</time>
      </trkpt>
      <trkpt lat="46.7571" lon="5.6141">
        <ele>240.7</ele>
        <time>2019-10-13T12:46:10Z</time>
      </trkpt>
      <trkpt lat="46.75705" lon="5.61406">
        <ele>240.6</ele>
        <time>2019-10-13T12:46:16Z</time>
      </trkpt>
      <trkpt lat="46.75701" lon="5.61404">
        <ele>240.2</ele>
        <time>2019-10-13T12:46:19Z</time>
      </trkpt>
      <trkpt lat="46.75696" lon="5.61401">
        <ele>239.7</ele>
        <time>2019-10-13T12:46:22Z</time>
      </trkpt>
      <trkpt lat="46.7568" lon="5.61381">
        <ele>234.4</ele>
        <time>2019-10-13T12:46:39Z</time>
      </trkpt>
      <trkpt lat="46.75677" lon="5.61375">
        <ele>233.2</ele>
        <time>2019-10-13T12:46:45Z</time>
      </trkpt>
      <trkpt lat="46.75673" lon="5.6137">
        <ele>232.3</ele>
        <time>2019-10-13T12:46:49Z</time>
      </trkpt>
      <trkpt lat="46.75669" lon="5.61364">
        <ele>231.3</ele>
        <time>2019-10-13T12:46:53Z</time>
      </trkpt>
      <trkpt lat="46.75666" lon="5.61359">
        <ele>230.2</ele>
        <time>2019-10-13T12:46:58Z</time>
      </trkpt>
      <trkpt lat="46.75662" lon="5.61354">
        <ele>229.3</ele>
        <time>2019-10-13T12:47:03Z</time>
      </trkpt>
      <trkpt lat="46.75659" lon="5.61349">
        <ele>228.5</ele>
        <time>2019-10-13T12:47:08Z</time>
      </trkpt>
      <trkpt lat="46.75656" lon="5.61344">
        <ele>228</ele>
        <time>2019-10-13T12:47:12Z</time>
      </trkpt>
      <trkpt lat="46.75639" lon="5.61341">
        <ele>233.7</ele>
        <time>2019-10-13T12:47:35Z</time>
      </trkpt>
      <trkpt lat="46.75634" lon="5.61338">
        <ele>234.6</ele>
        <time>2019-10-13T12:47:39Z</time>
      </trkpt>
      <trkpt lat="46.75629" lon="5.61334">
        <ele>235.6</ele>
        <time>2019-10-13T12:47:43Z</time>
      </trkpt>
      <trkpt lat="46.75618" lon="5.61322">
        <ele>238.4</ele>
        <time>2019-10-13T12:47:55Z</time>
      </trkpt>
      <trkpt lat="46.75612" lon="5.61321">
        <ele>239.1</ele>
        <time>2019-10-13T12:48:00Z</time>
      </trkpt>
      <trkpt lat="46.75607" lon="5.61321">
        <ele>239.9</ele>
        <time>2019-10-13T12:48:05Z</time>
      </trkpt>
      <trkpt lat="46.75602" lon="5.61321">
        <ele>240.6</ele>
        <time>2019-10-13T12:48:10Z</time>
      </trkpt>
      <trkpt lat="46.7557" lon="5.6132">
        <ele>239.6</ele>
        <time>2019-10-13T12:48:40Z</time>
      </trkpt>
      <trkpt lat="46.75565" lon="5.61318">
        <ele>239.5</ele>
        <time>2019-10-13T12:48:45Z</time>
      </trkpt>
      <trkpt lat="46.75559" lon="5.61313">
        <ele>239.6</ele>
        <time>2019-10-13T12:48:49Z</time>
      </trkpt>
      <trkpt lat="46.75555" lon="5.6131">
        <ele>239.8</ele>
        <time>2019-10-13T12:48:52Z</time>
      </trkpt>
      <trkpt lat="46.7555" lon="5.61307">
        <ele>240.2</ele>
        <time>2019-10-13T12:48:57Z</time>
      </trkpt>
      <trkpt lat="46.75546" lon="5.61307">
        <ele>240.2</ele>
        <time>2019-10-13T12:49:02Z</time>
      </trkpt>
      <trkpt lat="46.75541" lon="5.61304">
        <ele>240.2</ele>
        <time>2019-10-13T12:49:05Z</time>
      </trkpt>
      <trkpt lat="46.75537" lon="5.613">
        <ele>240.1</ele>
        <time>2019-10-13T12:49:09Z</time>
      </trkpt>
      <trkpt lat="46.75526" lon="5.61292">
        <ele>237.8</ele>
        <time>2019-10-13T12:49:22Z</time>
      </trkpt>
      <trkpt lat="46.75514" lon="5.6129">
        <ele>236.3</ele>
        <time>2019-10-13T12:49:35Z</time>
      </trkpt>
      <trkpt lat="46.75499" lon="5.61281">
        <ele>236.7</ele>
        <time>2019-10-13T12:49:49Z</time>
      </trkpt>
      <trkpt lat="46.75478" lon="5.61266">
        <ele>235.4</ele>
        <time>2019-10-13T12:50:07Z</time>
      </trkpt>
      <trkpt lat="46.75474" lon="5.61263">
        <ele>234.9</ele>
        <time>2019-10-13T12:50:11Z</time>
      </trkpt>
      <trkpt lat="46.75469" lon="5.61261">
        <ele>234.4</ele>
        <time>2019-10-13T12:50:15Z</time>
      </trkpt>
      <trkpt lat="46.75464" lon="5.61258">
        <ele>233.9</ele>
        <time>2019-10-13T12:50:20Z</time>
      </trkpt>
      <trkpt lat="46.75446" lon="5.61267">
        <ele>236.9</ele>
        <time>2019-10-13T12:51:00Z</time>
      </trkpt>
      <trkpt lat="46.75442" lon="5.61271">
        <ele>237.2</ele>
        <time>2019-10-13T12:51:02Z</time>
      </trkpt>
      <trkpt lat="46.75437" lon="5.61272">
        <ele>237.9</ele>
        <time>2019-10-13T12:51:05Z</time>
      </trkpt>
      <trkpt lat="46.75431" lon="5.61271">
        <ele>238.9</ele>
        <time>2019-10-13T12:51:09Z</time>
      </trkpt>
      <trkpt lat="46.75422" lon="5.61259">
        <ele>240.2</ele>
        <time>2019-10-13T12:51:29Z</time>
      </trkpt>
      <trkpt lat="46.75421" lon="5.61271">
        <ele>251.6</ele>
        <time>2019-10-13T12:58:10Z</time>
      </trkpt>
      <trkpt lat="46.75419" lon="5.61277">
        <ele>251.8</ele>
        <time>2019-10-13T12:58:13Z</time>
      </trkpt>
      <trkpt lat="46.75417" lon="5.61285">
        <ele>252</ele>
        <time>2019-10-13T12:58:15Z</time>
      </trkpt>
      <trkpt lat="46.75417" lon="5.61293">
        <ele>252.3</ele>
        <time>2019-10-13T12:58:18Z</time>
      </trkpt>
      <trkpt lat="46.75416" lon="5.613">
        <ele>252.8</ele>
        <time>2019-10-13T12:58:21Z</time>
      </trkpt>
      <trkpt lat="46.75412" lon="5.61304">
        <ele>253.8</ele>
        <time>2019-10-13T12:58:26Z</time>
      </trkpt>
      <trkpt lat="46.75395" lon="5.6132">
        <ele>255.5</ele>
        <time>2019-10-13T12:58:38Z</time>
      </trkpt>
      <trkpt lat="46.75391" lon="5.61321">
        <ele>255.8</ele>
        <time>2019-10-13T12:58:42Z</time>
      </trkpt>
      <trkpt lat="46.75386" lon="5.61324">
        <ele>256.5</ele>
        <time>2019-10-13T12:58:48Z</time>
      </trkpt>
      <trkpt lat="46.75381" lon="5.61323">
        <ele>256.7</ele>
        <time>2019-10-13T12:58:52Z</time>
      </trkpt>
      <trkpt lat="46.75375" lon="5.61323">
        <ele>256.1</ele>
        <time>2019-10-13T12:58:57Z</time>
      </trkpt>
      <trkpt lat="46.75371" lon="5.61327">
        <ele>255.5</ele>
        <time>2019-10-13T12:59:01Z</time>
      </trkpt>
      <trkpt lat="46.7537" lon="5.61333">
        <ele>255.2</ele>
        <time>2019-10-13T12:59:04Z</time>
      </trkpt>
      <trkpt lat="46.75367" lon="5.61339">
        <ele>255</ele>
        <time>2019-10-13T12:59:08Z</time>
      </trkpt>
      <trkpt lat="46.75364" lon="5.61343">
        <ele>255</ele>
        <time>2019-10-13T12:59:11Z</time>
      </trkpt>
      <trkpt lat="46.75361" lon="5.61349">
        <ele>255</ele>
        <time>2019-10-13T12:59:14Z</time>
      </trkpt>
      <trkpt lat="46.75345" lon="5.61369">
        <ele>254.8</ele>
        <time>2019-10-13T12:59:33Z</time>
      </trkpt>
      <trkpt lat="46.7534" lon="5.61374">
        <ele>254.6</ele>
        <time>2019-10-13T12:59:39Z</time>
      </trkpt>
      <trkpt lat="46.75335" lon="5.61379">
        <ele>254.5</ele>
        <time>2019-10-13T12:59:43Z</time>
      </trkpt>
      <trkpt lat="46.75331" lon="5.61383">
        <ele>254.6</ele>
        <time>2019-10-13T12:59:47Z</time>
      </trkpt>
      <trkpt lat="46.75327" lon="5.61387">
        <ele>254.8</ele>
        <time>2019-10-13T12:59:54Z</time>
      </trkpt>
      <trkpt lat="46.75326" lon="5.61394">
        <ele>255.4</ele>
        <time>2019-10-13T13:00:02Z</time>
      </trkpt>
      <trkpt lat="46.75324" lon="5.61401">
        <ele>255.8</ele>
        <time>2019-10-13T13:00:08Z</time>
      </trkpt>
      <trkpt lat="46.75321" lon="5.61407">
        <ele>256</ele>
        <time>2019-10-13T13:00:12Z</time>
      </trkpt>
      <trkpt lat="46.7532" lon="5.61413">
        <ele>256.3</ele>
        <time>2019-10-13T13:00:16Z</time>
      </trkpt>
      <trkpt lat="46.75319" lon="5.61421">
        <ele>256.6</ele>
        <time>2019-10-13T13:00:20Z</time>
      </trkpt>
      <trkpt lat="46.75323" lon="5.61442">
        <ele>257.8</ele>
        <time>2019-10-13T13:00:31Z</time>
      </trkpt>
      <trkpt lat="46.75324" lon="5.61449">
        <ele>258</ele>
        <time>2019-10-13T13:00:37Z</time>
      </trkpt>
      <trkpt lat="46.75323" lon="5.61456">
        <ele>258.2</ele>
        <time>2019-10-13T13:00:41Z</time>
      </trkpt>
      <trkpt lat="46.75322" lon="5.61464">
        <ele>258.3</ele>
        <time>2019-10-13T13:00:47Z</time>
      </trkpt>
      <trkpt lat="46.75322" lon="5.61471">
        <ele>258.1</ele>
        <time>2019-10-13T13:00:54Z</time>
      </trkpt>
      <trkpt lat="46.75319" lon="5.61479">
        <ele>257.8</ele>
        <time>2019-10-13T13:00:58Z</time>
      </trkpt>
      <trkpt lat="46.75317" lon="5.61486">
        <ele>257.3</ele>
        <time>2019-10-13T13:01:02Z</time>
      </trkpt>
      <trkpt lat="46.75315" lon="5.61493">
        <ele>256.6</ele>
        <time>2019-10-13T13:01:06Z</time>
      </trkpt>
      <trkpt lat="46.75314" lon="5.61501">
        <ele>255.6</ele>
        <time>2019-10-13T13:01:12Z</time>
      </trkpt>
      <trkpt lat="46.75314" lon="5.61508">
        <ele>254.9</ele>
        <time>2019-10-13T13:01:17Z</time>
      </trkpt>
      <trkpt lat="46.75314" lon="5.61515">
        <ele>253.8</ele>
        <time>2019-10-13T13:01:23Z</time>
      </trkpt>
      <trkpt lat="46.75314" lon="5.61522">
        <ele>253</ele>
        <time>2019-10-13T13:01:29Z</time>
      </trkpt>
      <trkpt lat="46.75312" lon="5.61529">
        <ele>252.4</ele>
        <time>2019-10-13T13:01:35Z</time>
      </trkpt>
      <trkpt lat="46.7531" lon="5.61535">
        <ele>252.2</ele>
        <time>2019-10-13T13:01:39Z</time>
      </trkpt>
      <trkpt lat="46.75308" lon="5.61541">
        <ele>252</ele>
        <time>2019-10-13T13:01:43Z</time>
      </trkpt>
      <trkpt lat="46.75306" lon="5.6155">
        <ele>251.8</ele>
        <time>2019-10-13T13:01:47Z</time>
      </trkpt>
      <trkpt lat="46.75303" lon="5.61557">
        <ele>251.6</ele>
        <time>2019-10-13T13:01:50Z</time>
      </trkpt>
      <trkpt lat="46.75301" lon="5.61563">
        <ele>251.1</ele>
        <time>2019-10-13T13:01:54Z</time>
      </trkpt>
      <trkpt lat="46.75299" lon="5.6157">
        <ele>250.6</ele>
        <time>2019-10-13T13:01:59Z</time>
      </trkpt>
      <trkpt lat="46.75299" lon="5.61578">
        <ele>250.3</ele>
        <time>2019-10-13T13:02:04Z</time>
      </trkpt>
      <trkpt lat="46.75298" lon="5.61584">
        <ele>250.1</ele>
        <time>2019-10-13T13:02:09Z</time>
      </trkpt>
      <trkpt lat="46.75296" lon="5.6159">
        <ele>249.9</ele>
        <time>2019-10-13T13:02:13Z</time>
      </trkpt>
      <trkpt lat="46.75295" lon="5.61597">
        <ele>249.8</ele>
        <time>2019-10-13T13:02:17Z</time>
      </trkpt>
      <trkpt lat="46.75293" lon="5.61603">
        <ele>249.9</ele>
        <time>2019-10-13T13:02:21Z</time>
      </trkpt>
      <trkpt lat="46.75291" lon="5.6161">
        <ele>249.9</ele>
        <time>2019-10-13T13:02:24Z</time>
      </trkpt>
      <trkpt lat="46.75288" lon="5.61617">
        <ele>249.9</ele>
        <time>2019-10-13T13:02:28Z</time>
      </trkpt>
      <trkpt lat="46.75286" lon="5.61624">
        <ele>249.8</ele>
        <time>2019-10-13T13:02:32Z</time>
      </trkpt>
      <trkpt lat="46.75285" lon="5.61631">
        <ele>249.5</ele>
        <time>2019-10-13T13:02:38Z</time>
      </trkpt>
      <trkpt lat="46.75283" lon="5.61638">
        <ele>248.8</ele>
        <time>2019-10-13T13:02:44Z</time>
      </trkpt>
      <trkpt lat="46.75283" lon="5.61644">
        <ele>248.2</ele>
        <time>2019-10-13T13:02:48Z</time>
      </trkpt>
      <trkpt lat="46.75281" lon="5.61651">
        <ele>247.1</ele>
        <time>2019-10-13T13:02:54Z</time>
      </trkpt>
      <trkpt lat="46.75278" lon="5.61656">
        <ele>246.3</ele>
        <time>2019-10-13T13:02:59Z</time>
      </trkpt>
      <trkpt lat="46.75275" lon="5.61661">
        <ele>245.7</ele>
        <time>2019-10-13T13:03:03Z</time>
      </trkpt>
      <trkpt lat="46.75272" lon="5.61666">
        <ele>244.4</ele>
        <time>2019-10-13T13:03:12Z</time>
      </trkpt>
      <trkpt lat="46.75268" lon="5.61673">
        <ele>244.2</ele>
        <time>2019-10-13T13:03:15Z</time>
      </trkpt>
      <trkpt lat="46.75264" lon="5.61678">
        <ele>243.9</ele>
        <time>2019-10-13T13:03:19Z</time>
      </trkpt>
      <trkpt lat="46.75259" lon="5.61681">
        <ele>243.9</ele>
        <time>2019-10-13T13:03:23Z</time>
      </trkpt>
      <trkpt lat="46.75255" lon="5.61683">
        <ele>244</ele>
        <time>2019-10-13T13:03:27Z</time>
      </trkpt>
      <trkpt lat="46.7525" lon="5.61683">
        <ele>244.1</ele>
        <time>2019-10-13T13:03:30Z</time>
      </trkpt>
      <trkpt lat="46.75245" lon="5.61686">
        <ele>244.2</ele>
        <time>2019-10-13T13:03:34Z</time>
      </trkpt>
      <trkpt lat="46.75241" lon="5.61689">
        <ele>244.2</ele>
        <time>2019-10-13T13:03:37Z</time>
      </trkpt>
      <trkpt lat="46.75237" lon="5.61693">
        <ele>244</ele>
        <time>2019-10-13T13:03:43Z</time>
      </trkpt>
      <trkpt lat="46.75233" lon="5.61697">
        <ele>243.8</ele>
        <time>2019-10-13T13:03:49Z</time>
      </trkpt>
      <trkpt lat="46.75224" lon="5.61706">
        <ele>243.3</ele>
        <time>2019-10-13T13:04:02Z</time>
      </trkpt>
      <trkpt lat="46.7522" lon="5.61709">
        <ele>242.7</ele>
        <time>2019-10-13T13:04:06Z</time>
      </trkpt>
      <trkpt lat="46.75216" lon="5.61713">
        <ele>242</ele>
        <time>2019-10-13T13:04:12Z</time>
      </trkpt>
      <trkpt lat="46.75211" lon="5.61715">
        <ele>241.5</ele>
        <time>2019-10-13T13:04:18Z</time>
      </trkpt>
      <trkpt lat="46.75206" lon="5.61719">
        <ele>241</ele>
        <time>2019-10-13T13:04:23Z</time>
      </trkpt>
      <trkpt lat="46.75202" lon="5.61722">
        <ele>240.7</ele>
        <time>2019-10-13T13:04:27Z</time>
      </trkpt>
      <trkpt lat="46.75198" lon="5.61725">
        <ele>240.3</ele>
        <time>2019-10-13T13:04:31Z</time>
      </trkpt>
      <trkpt lat="46.75194" lon="5.61729">
        <ele>239.9</ele>
        <time>2019-10-13T13:04:35Z</time>
      </trkpt>
      <trkpt lat="46.7519" lon="5.61735">
        <ele>239.4</ele>
        <time>2019-10-13T13:04:40Z</time>
      </trkpt>
      <trkpt lat="46.75187" lon="5.6174">
        <ele>239.2</ele>
        <time>2019-10-13T13:04:44Z</time>
      </trkpt>
      <trkpt lat="46.75183" lon="5.61745">
        <ele>239</ele>
        <time>2019-10-13T13:04:48Z</time>
      </trkpt>
      <trkpt lat="46.75179" lon="5.6175">
        <ele>239.1</ele>
        <time>2019-10-13T13:04:53Z</time>
      </trkpt>
      <trkpt lat="46.75175" lon="5.61755">
        <ele>239.2</ele>
        <time>2019-10-13T13:04:58Z</time>
      </trkpt>
      <trkpt lat="46.75171" lon="5.6176">
        <ele>239.4</ele>
        <time>2019-10-13T13:05:03Z</time>
      </trkpt>
      <trkpt lat="46.75167" lon="5.61765">
        <ele>239.5</ele>
        <time>2019-10-13T13:05:07Z</time>
      </trkpt>
      <trkpt lat="46.75164" lon="5.6177">
        <ele>239.7</ele>
        <time>2019-10-13T13:05:11Z</time>
      </trkpt>
      <trkpt lat="46.7516" lon="5.61776">
        <ele>239.6</ele>
        <time>2019-10-13T13:05:15Z</time>
      </trkpt>
      <trkpt lat="46.75157" lon="5.61782">
        <ele>239.5</ele>
        <time>2019-10-13T13:05:19Z</time>
      </trkpt>
      <trkpt lat="46.75155" lon="5.61788">
        <ele>239.5</ele>
        <time>2019-10-13T13:05:23Z</time>
      </trkpt>
      <trkpt lat="46.75151" lon="5.61793">
        <ele>239.4</ele>
        <time>2019-10-13T13:05:27Z</time>
      </trkpt>
      <trkpt lat="46.75149" lon="5.61799">
        <ele>239.3</ele>
        <time>2019-10-13T13:05:32Z</time>
      </trkpt>
      <trkpt lat="46.75145" lon="5.61805">
        <ele>239.1</ele>
        <time>2019-10-13T13:05:37Z</time>
      </trkpt>
      <trkpt lat="46.75142" lon="5.6181">
        <ele>239.1</ele>
        <time>2019-10-13T13:05:41Z</time>
      </trkpt>
      <trkpt lat="46.75138" lon="5.61814">
        <ele>239</ele>
        <time>2019-10-13T13:05:45Z</time>
      </trkpt>
      <trkpt lat="46.75133" lon="5.61818">
        <ele>239.1</ele>
        <time>2019-10-13T13:05:54Z</time>
      </trkpt>
      <trkpt lat="46.75129" lon="5.61823">
        <ele>239.2</ele>
        <time>2019-10-13T13:05:57Z</time>
      </trkpt>
      <trkpt lat="46.75126" lon="5.61828">
        <ele>239.4</ele>
        <time>2019-10-13T13:06:02Z</time>
      </trkpt>
      <trkpt lat="46.75122" lon="5.61833">
        <ele>239.7</ele>
        <time>2019-10-13T13:06:07Z</time>
      </trkpt>
      <trkpt lat="46.75118" lon="5.61838">
        <ele>239.9</ele>
        <time>2019-10-13T13:06:11Z</time>
      </trkpt>
      <trkpt lat="46.75114" lon="5.61842">
        <ele>240.1</ele>
        <time>2019-10-13T13:06:15Z</time>
      </trkpt>
      <trkpt lat="46.7511" lon="5.61847">
        <ele>240.6</ele>
        <time>2019-10-13T13:06:20Z</time>
      </trkpt>
      <trkpt lat="46.75106" lon="5.61852">
        <ele>241.4</ele>
        <time>2019-10-13T13:06:25Z</time>
      </trkpt>
      <trkpt lat="46.75102" lon="5.61855">
        <ele>242.2</ele>
        <time>2019-10-13T13:06:30Z</time>
      </trkpt>
      <trkpt lat="46.75098" lon="5.6186">
        <ele>243</ele>
        <time>2019-10-13T13:06:36Z</time>
      </trkpt>
      <trkpt lat="46.75094" lon="5.61865">
        <ele>243.3</ele>
        <time>2019-10-13T13:06:41Z</time>
      </trkpt>
      <trkpt lat="46.7509" lon="5.61869">
        <ele>243.7</ele>
        <time>2019-10-13T13:06:48Z</time>
      </trkpt>
      <trkpt lat="46.75086" lon="5.61873">
        <ele>244.1</ele>
        <time>2019-10-13T13:06:53Z</time>
      </trkpt>
      <trkpt lat="46.75082" lon="5.61881">
        <ele>244.5</ele>
        <time>2019-10-13T13:06:57Z</time>
      </trkpt>
      <trkpt lat="46.75079" lon="5.61885">
        <ele>244.8</ele>
        <time>2019-10-13T13:07:02Z</time>
      </trkpt>
      <trkpt lat="46.75075" lon="5.61889">
        <ele>245.1</ele>
        <time>2019-10-13T13:07:07Z</time>
      </trkpt>
      <trkpt lat="46.75071" lon="5.61894">
        <ele>245.5</ele>
        <time>2019-10-13T13:07:12Z</time>
      </trkpt>
      <trkpt lat="46.75067" lon="5.61898">
        <ele>245.9</ele>
        <time>2019-10-13T13:07:17Z</time>
      </trkpt>
      <trkpt lat="46.75062" lon="5.61902">
        <ele>246.3</ele>
        <time>2019-10-13T13:07:22Z</time>
      </trkpt>
      <trkpt lat="46.75058" lon="5.61906">
        <ele>246.3</ele>
        <time>2019-10-13T13:07:27Z</time>
      </trkpt>
      <trkpt lat="46.75054" lon="5.61909">
        <ele>246.2</ele>
        <time>2019-10-13T13:07:33Z</time>
      </trkpt>
      <trkpt lat="46.75049" lon="5.61912">
        <ele>245.7</ele>
        <time>2019-10-13T13:07:40Z</time>
      </trkpt>
      <trkpt lat="46.75045" lon="5.61917">
        <ele>245</ele>
        <time>2019-10-13T13:07:45Z</time>
      </trkpt>
      <trkpt lat="46.75041" lon="5.61921">
        <ele>244.1</ele>
        <time>2019-10-13T13:07:50Z</time>
      </trkpt>
      <trkpt lat="46.75037" lon="5.61924">
        <ele>243.2</ele>
        <time>2019-10-13T13:07:55Z</time>
      </trkpt>
      <trkpt lat="46.75033" lon="5.61927">
        <ele>242.7</ele>
        <time>2019-10-13T13:07:59Z</time>
      </trkpt>
      <trkpt lat="46.75028" lon="5.6193">
        <ele>242.2</ele>
        <time>2019-10-13T13:08:03Z</time>
      </trkpt>
      <trkpt lat="46.75024" lon="5.61934">
        <ele>241.9</ele>
        <time>2019-10-13T13:08:06Z</time>
      </trkpt>
      <trkpt lat="46.7502" lon="5.61939">
        <ele>241.6</ele>
        <time>2019-10-13T13:08:10Z</time>
      </trkpt>
      <trkpt lat="46.75016" lon="5.61944">
        <ele>241.4</ele>
        <time>2019-10-13T13:08:15Z</time>
      </trkpt>
      <trkpt lat="46.75012" lon="5.61949">
        <ele>241.1</ele>
        <time>2019-10-13T13:08:20Z</time>
      </trkpt>
      <trkpt lat="46.75007" lon="5.61954">
        <ele>240.9</ele>
        <time>2019-10-13T13:08:25Z</time>
      </trkpt>
      <trkpt lat="46.75003" lon="5.61959">
        <ele>240.9</ele>
        <time>2019-10-13T13:08:29Z</time>
      </trkpt>
      <trkpt lat="46.75" lon="5.61964">
        <ele>240.9</ele>
        <time>2019-10-13T13:08:33Z</time>
      </trkpt>
      <trkpt lat="46.74996" lon="5.61969">
        <ele>240.8</ele>
        <time>2019-10-13T13:08:37Z</time>
      </trkpt>
      <trkpt lat="46.74992" lon="5.61973">
        <ele>240.7</ele>
        <time>2019-10-13T13:08:41Z</time>
      </trkpt>
      <trkpt lat="46.74988" lon="5.61978">
        <ele>240.7</ele>
        <time>2019-10-13T13:08:46Z</time>
      </trkpt>
      <trkpt lat="46.74984" lon="5.61983">
        <ele>240.5</ele>
        <time>2019-10-13T13:08:51Z</time>
      </trkpt>
      <trkpt lat="46.74981" lon="5.61989">
        <ele>240.1</ele>
        <time>2019-10-13T13:08:56Z</time>
      </trkpt>
      <trkpt lat="46.74978" lon="5.61994">
        <ele>239.8</ele>
        <time>2019-10-13T13:09:01Z</time>
      </trkpt>
      <trkpt lat="46.74975" lon="5.62">
        <ele>239.8</ele>
        <time>2019-10-13T13:09:05Z</time>
      </trkpt>
      <trkpt lat="46.74971" lon="5.62006">
        <ele>239.8</ele>
        <time>2019-10-13T13:09:09Z</time>
      </trkpt>
      <trkpt lat="46.74967" lon="5.6201">
        <ele>239.9</ele>
        <time>2019-10-13T13:09:12Z</time>
      </trkpt>
      <trkpt lat="46.74963" lon="5.62015">
        <ele>240.1</ele>
        <time>2019-10-13T13:09:16Z</time>
      </trkpt>
      <trkpt lat="46.74959" lon="5.62021">
        <ele>240.2</ele>
        <time>2019-10-13T13:09:21Z</time>
      </trkpt>
      <trkpt lat="46.74957" lon="5.62028">
        <ele>240.3</ele>
        <time>2019-10-13T13:09:25Z</time>
      </trkpt>
      <trkpt lat="46.74954" lon="5.62033">
        <ele>240.3</ele>
        <time>2019-10-13T13:09:29Z</time>
      </trkpt>
      <trkpt lat="46.74951" lon="5.62038">
        <ele>240.4</ele>
        <time>2019-10-13T13:09:33Z</time>
      </trkpt>
      <trkpt lat="46.74949" lon="5.62045">
        <ele>240.6</ele>
        <time>2019-10-13T13:09:41Z</time>
      </trkpt>
      <trkpt lat="46.74952" lon="5.6205">
        <ele>240.5</ele>
        <time>2019-10-13T13:09:53Z</time>
      </trkpt>
      <trkpt lat="46.74956" lon="5.62053">
        <ele>240.5</ele>
        <time>2019-10-13T13:09:57Z</time>
      </trkpt>
      <trkpt lat="46.7496" lon="5.62054">
        <ele>241.5</ele>
        <time>2019-10-13T13:10:09Z</time>
      </trkpt>
      <trkpt lat="46.74965" lon="5.62056">
        <ele>246.4</ele>
        <time>2019-10-13T13:11:22Z</time>
      </trkpt>
      <trkpt lat="46.74965" lon="5.62062">
        <ele>243.9</ele>
        <time>2019-10-13T13:11:50Z</time>
      </trkpt>
      <trkpt lat="46.74966" lon="5.62068">
        <ele>243.6</ele>
        <time>2019-10-13T13:11:56Z</time>
      </trkpt>
      <trkpt lat="46.74969" lon="5.62075">
        <ele>243.2</ele>
        <time>2019-10-13T13:12:05Z</time>
      </trkpt>
      <trkpt lat="46.74974" lon="5.62081">
        <ele>243</ele>
        <time>2019-10-13T13:12:10Z</time>
      </trkpt>
      <trkpt lat="46.74977" lon="5.62084">
        <ele>242.5</ele>
        <time>2019-10-13T13:12:15Z</time>
      </trkpt>
      <trkpt lat="46.74982" lon="5.62089">
        <ele>242.2</ele>
        <time>2019-10-13T13:12:19Z</time>
      </trkpt>
      <trkpt lat="46.74986" lon="5.62094">
        <ele>242</ele>
        <time>2019-10-13T13:12:24Z</time>
      </trkpt>
      <trkpt lat="46.7499" lon="5.621">
        <ele>241.9</ele>
        <time>2019-10-13T13:12:29Z</time>
      </trkpt>
      <trkpt lat="46.74993" lon="5.62105">
        <ele>241.8</ele>
        <time>2019-10-13T13:12:33Z</time>
      </trkpt>
      <trkpt lat="46.74996" lon="5.62111">
        <ele>241.8</ele>
        <time>2019-10-13T13:12:39Z</time>
      </trkpt>
      <trkpt lat="46.74999" lon="5.62116">
        <ele>241.9</ele>
        <time>2019-10-13T13:12:45Z</time>
      </trkpt>
      <trkpt lat="46.75003" lon="5.62121">
        <ele>242.3</ele>
        <time>2019-10-13T13:12:51Z</time>
      </trkpt>
      <trkpt lat="46.75007" lon="5.62125">
        <ele>242.6</ele>
        <time>2019-10-13T13:12:54Z</time>
      </trkpt>
      <trkpt lat="46.7501" lon="5.62131">
        <ele>242.8</ele>
        <time>2019-10-13T13:12:58Z</time>
      </trkpt>
      <trkpt lat="46.75013" lon="5.62138">
        <ele>243</ele>
        <time>2019-10-13T13:13:03Z</time>
      </trkpt>
      <trkpt lat="46.75017" lon="5.62143">
        <ele>243.2</ele>
        <time>2019-10-13T13:13:09Z</time>
      </trkpt>
      <trkpt lat="46.7502" lon="5.62148">
        <ele>243.2</ele>
        <time>2019-10-13T13:13:13Z</time>
      </trkpt>
      <trkpt lat="46.75024" lon="5.62153">
        <ele>243.3</ele>
        <time>2019-10-13T13:13:18Z</time>
      </trkpt>
      <trkpt lat="46.75029" lon="5.62157">
        <ele>243.5</ele>
        <time>2019-10-13T13:13:22Z</time>
      </trkpt>
      <trkpt lat="46.75033" lon="5.62161">
        <ele>243.8</ele>
        <time>2019-10-13T13:13:25Z</time>
      </trkpt>
      <trkpt lat="46.75037" lon="5.62164">
        <ele>244.3</ele>
        <time>2019-10-13T13:13:30Z</time>
      </trkpt>
      <trkpt lat="46.75042" lon="5.62166">
        <ele>244.9</ele>
        <time>2019-10-13T13:13:35Z</time>
      </trkpt>
      <trkpt lat="46.75046" lon="5.6217">
        <ele>245.2</ele>
        <time>2019-10-13T13:13:38Z</time>
      </trkpt>
      <trkpt lat="46.7505" lon="5.62168">
        <ele>244.9</ele>
        <time>2019-10-13T13:14:28Z</time>
      </trkpt>
      <trkpt lat="46.75055" lon="5.62171">
        <ele>245.1</ele>
        <time>2019-10-13T13:14:47Z</time>
      </trkpt>
      <trkpt lat="46.7506" lon="5.62172">
        <ele>245</ele>
        <time>2019-10-13T13:14:52Z</time>
      </trkpt>
      <trkpt lat="46.75065" lon="5.62171">
        <ele>244.6</ele>
        <time>2019-10-13T13:14:57Z</time>
      </trkpt>
      <trkpt lat="46.7507" lon="5.6217">
        <ele>244.3</ele>
        <time>2019-10-13T13:15:02Z</time>
      </trkpt>
      <trkpt lat="46.75075" lon="5.62168">
        <ele>243.9</ele>
        <time>2019-10-13T13:15:08Z</time>
      </trkpt>
      <trkpt lat="46.7508" lon="5.62165">
        <ele>243.6</ele>
        <time>2019-10-13T13:15:13Z</time>
      </trkpt>
      <trkpt lat="46.75085" lon="5.62162">
        <ele>243.3</ele>
        <time>2019-10-13T13:15:18Z</time>
      </trkpt>
      <trkpt lat="46.75089" lon="5.62158">
        <ele>243.1</ele>
        <time>2019-10-13T13:15:21Z</time>
      </trkpt>
      <trkpt lat="46.75092" lon="5.6215">
        <ele>242.7</ele>
        <time>2019-10-13T13:15:25Z</time>
      </trkpt>
      <trkpt lat="46.75094" lon="5.62144">
        <ele>242.4</ele>
        <time>2019-10-13T13:15:29Z</time>
      </trkpt>
      <trkpt lat="46.75096" lon="5.62138">
        <ele>242.1</ele>
        <time>2019-10-13T13:15:34Z</time>
      </trkpt>
      <trkpt lat="46.75099" lon="5.62132">
        <ele>242</ele>
        <time>2019-10-13T13:15:39Z</time>
      </trkpt>
      <trkpt lat="46.75102" lon="5.62127">
        <ele>241.9</ele>
        <time>2019-10-13T13:15:44Z</time>
      </trkpt>
      <trkpt lat="46.75106" lon="5.62122">
        <ele>241.9</ele>
        <time>2019-10-13T13:15:49Z</time>
      </trkpt>
      <trkpt lat="46.75109" lon="5.62117">
        <ele>241.8</ele>
        <time>2019-10-13T13:15:53Z</time>
      </trkpt>
      <trkpt lat="46.75112" lon="5.6211">
        <ele>241.7</ele>
        <time>2019-10-13T13:15:56Z</time>
      </trkpt>
      <trkpt lat="46.75114" lon="5.62103">
        <ele>241.7</ele>
        <time>2019-10-13T13:16:00Z</time>
      </trkpt>
      <trkpt lat="46.75118" lon="5.62096">
        <ele>241.9</ele>
        <time>2019-10-13T13:16:04Z</time>
      </trkpt>
      <trkpt lat="46.75121" lon="5.62091">
        <ele>242.1</ele>
        <time>2019-10-13T13:16:08Z</time>
      </trkpt>
      <trkpt lat="46.75124" lon="5.62086">
        <ele>242.2</ele>
        <time>2019-10-13T13:16:12Z</time>
      </trkpt>
      <trkpt lat="46.75126" lon="5.62079">
        <ele>242.4</ele>
        <time>2019-10-13T13:16:17Z</time>
      </trkpt>
      <trkpt lat="46.75131" lon="5.62076">
        <ele>243</ele>
        <time>2019-10-13T13:17:00Z</time>
      </trkpt>
      <trkpt lat="46.75135" lon="5.6207">
        <ele>242.9</ele>
        <time>2019-10-13T13:17:03Z</time>
      </trkpt>
      <trkpt lat="46.75137" lon="5.62065">
        <ele>242.8</ele>
        <time>2019-10-13T13:17:07Z</time>
      </trkpt>
      <trkpt lat="46.7514" lon="5.62058">
        <ele>242.8</ele>
        <time>2019-10-13T13:17:11Z</time>
      </trkpt>
      <trkpt lat="46.75142" lon="5.62052">
        <ele>242.9</ele>
        <time>2019-10-13T13:17:16Z</time>
      </trkpt>
      <trkpt lat="46.75145" lon="5.62047">
        <ele>243.4</ele>
        <time>2019-10-13T13:17:26Z</time>
      </trkpt>
      <trkpt lat="46.75152" lon="5.6204">
        <ele>244.5</ele>
        <time>2019-10-13T13:17:41Z</time>
      </trkpt>
      <trkpt lat="46.75156" lon="5.62034">
        <ele>244.9</ele>
        <time>2019-10-13T13:17:46Z</time>
      </trkpt>
      <trkpt lat="46.75159" lon="5.62028">
        <ele>245.1</ele>
        <time>2019-10-13T13:17:51Z</time>
      </trkpt>
      <trkpt lat="46.75161" lon="5.62021">
        <ele>245</ele>
        <time>2019-10-13T13:17:58Z</time>
      </trkpt>
      <trkpt lat="46.75164" lon="5.62015">
        <ele>245</ele>
        <time>2019-10-13T13:18:03Z</time>
      </trkpt>
      <trkpt lat="46.75167" lon="5.62007">
        <ele>245</ele>
        <time>2019-10-13T13:18:07Z</time>
      </trkpt>
      <trkpt lat="46.7517" lon="5.62001">
        <ele>244.8</ele>
        <time>2019-10-13T13:18:11Z</time>
      </trkpt>
      <trkpt lat="46.75174" lon="5.61996">
        <ele>244.2</ele>
        <time>2019-10-13T13:18:17Z</time>
      </trkpt>
      <trkpt lat="46.75184" lon="5.61986">
        <ele>242.4</ele>
        <time>2019-10-13T13:18:31Z</time>
      </trkpt>
      <trkpt lat="46.75188" lon="5.61981">
        <ele>242.3</ele>
        <time>2019-10-13T13:18:35Z</time>
      </trkpt>
      <trkpt lat="46.75191" lon="5.61975">
        <ele>242.2</ele>
        <time>2019-10-13T13:18:38Z</time>
      </trkpt>
      <trkpt lat="46.75193" lon="5.61968">
        <ele>241.9</ele>
        <time>2019-10-13T13:18:42Z</time>
      </trkpt>
      <trkpt lat="46.75196" lon="5.61961">
        <ele>241.5</ele>
        <time>2019-10-13T13:18:47Z</time>
      </trkpt>
      <trkpt lat="46.752" lon="5.61955">
        <ele>241.1</ele>
        <time>2019-10-13T13:18:51Z</time>
      </trkpt>
      <trkpt lat="46.75203" lon="5.61949">
        <ele>240.8</ele>
        <time>2019-10-13T13:18:57Z</time>
      </trkpt>
      <trkpt lat="46.75206" lon="5.61943">
        <ele>240.7</ele>
        <time>2019-10-13T13:19:00Z</time>
      </trkpt>
      <trkpt lat="46.75209" lon="5.61938">
        <ele>240.6</ele>
        <time>2019-10-13T13:19:04Z</time>
      </trkpt>
      <trkpt lat="46.75212" lon="5.61933">
        <ele>240.5</ele>
        <time>2019-10-13T13:19:08Z</time>
      </trkpt>
      <trkpt lat="46.75216" lon="5.61927">
        <ele>240.5</ele>
        <time>2019-10-13T13:19:12Z</time>
      </trkpt>
      <trkpt lat="46.7522" lon="5.61922">
        <ele>240.6</ele>
        <time>2019-10-13T13:19:16Z</time>
      </trkpt>
      <trkpt lat="46.75224" lon="5.61919">
        <ele>240.7</ele>
        <time>2019-10-13T13:19:20Z</time>
      </trkpt>
      <trkpt lat="46.75228" lon="5.61915">
        <ele>240.8</ele>
        <time>2019-10-13T13:19:24Z</time>
      </trkpt>
      <trkpt lat="46.75233" lon="5.61913">
        <ele>240.7</ele>
        <time>2019-10-13T13:19:28Z</time>
      </trkpt>
      <trkpt lat="46.75237" lon="5.61909">
        <ele>240.5</ele>
        <time>2019-10-13T13:19:32Z</time>
      </trkpt>
      <trkpt lat="46.75242" lon="5.61905">
        <ele>240.3</ele>
        <time>2019-10-13T13:19:36Z</time>
      </trkpt>
      <trkpt lat="46.75247" lon="5.61902">
        <ele>240.2</ele>
        <time>2019-10-13T13:19:40Z</time>
      </trkpt>
      <trkpt lat="46.75251" lon="5.619">
        <ele>240.2</ele>
        <time>2019-10-13T13:19:44Z</time>
      </trkpt>
      <trkpt lat="46.75256" lon="5.61899">
        <ele>240.4</ele>
        <time>2019-10-13T13:19:48Z</time>
      </trkpt>
      <trkpt lat="46.75261" lon="5.61898">
        <ele>240.5</ele>
        <time>2019-10-13T13:19:53Z</time>
      </trkpt>
      <trkpt lat="46.75266" lon="5.61897">
        <ele>240.7</ele>
        <time>2019-10-13T13:19:58Z</time>
      </trkpt>
      <trkpt lat="46.75272" lon="5.61899">
        <ele>240.7</ele>
        <time>2019-10-13T13:20:03Z</time>
      </trkpt>
      <trkpt lat="46.75276" lon="5.61904">
        <ele>240.6</ele>
        <time>2019-10-13T13:20:07Z</time>
      </trkpt>
      <trkpt lat="46.7528" lon="5.61909">
        <ele>240.4</ele>
        <time>2019-10-13T13:20:11Z</time>
      </trkpt>
      <trkpt lat="46.75283" lon="5.61913">
        <ele>240.4</ele>
        <time>2019-10-13T13:20:15Z</time>
      </trkpt>
      <trkpt lat="46.75288" lon="5.61916">
        <ele>240.5</ele>
        <time>2019-10-13T13:20:19Z</time>
      </trkpt>
      <trkpt lat="46.75293" lon="5.61919">
        <ele>240.7</ele>
        <time>2019-10-13T13:20:23Z</time>
      </trkpt>
      <trkpt lat="46.75298" lon="5.6192">
        <ele>240.9</ele>
        <time>2019-10-13T13:20:28Z</time>
      </trkpt>
      <trkpt lat="46.75303" lon="5.61918">
        <ele>241.1</ele>
        <time>2019-10-13T13:20:32Z</time>
      </trkpt>
      <trkpt lat="46.75308" lon="5.61917">
        <ele>241.5</ele>
        <time>2019-10-13T13:20:38Z</time>
      </trkpt>
      <trkpt lat="46.75313" lon="5.61913">
        <ele>241.8</ele>
        <time>2019-10-13T13:20:44Z</time>
      </trkpt>
      <trkpt lat="46.75317" lon="5.6191">
        <ele>241.7</ele>
        <time>2019-10-13T13:20:48Z</time>
      </trkpt>
      <trkpt lat="46.75319" lon="5.61904">
        <ele>241.5</ele>
        <time>2019-10-13T13:20:52Z</time>
      </trkpt>
      <trkpt lat="46.75322" lon="5.61897">
        <ele>241</ele>
        <time>2019-10-13T13:20:56Z</time>
      </trkpt>
      <trkpt lat="46.75325" lon="5.61892">
        <ele>240.5</ele>
        <time>2019-10-13T13:21:00Z</time>
      </trkpt>
      <trkpt lat="46.75328" lon="5.61886">
        <ele>240.2</ele>
        <time>2019-10-13T13:21:04Z</time>
      </trkpt>
      <trkpt lat="46.75332" lon="5.61881">
        <ele>239.7</ele>
        <time>2019-10-13T13:21:09Z</time>
      </trkpt>
      <trkpt lat="46.75335" lon="5.61876">
        <ele>239.6</ele>
        <time>2019-10-13T13:21:18Z</time>
      </trkpt>
      <trkpt lat="46.75338" lon="5.61869">
        <ele>240</ele>
        <time>2019-10-13T13:21:24Z</time>
      </trkpt>
      <trkpt lat="46.7534" lon="5.61863">
        <ele>240.2</ele>
        <time>2019-10-13T13:21:28Z</time>
      </trkpt>
      <trkpt lat="46.75343" lon="5.61857">
        <ele>240.2</ele>
        <time>2019-10-13T13:21:32Z</time>
      </trkpt>
      <trkpt lat="46.75345" lon="5.61851">
        <ele>240.1</ele>
        <time>2019-10-13T13:21:36Z</time>
      </trkpt>
      <trkpt lat="46.75347" lon="5.61844">
        <ele>240.1</ele>
        <time>2019-10-13T13:21:40Z</time>
      </trkpt>
      <trkpt lat="46.75349" lon="5.61837">
        <ele>240</ele>
        <time>2019-10-13T13:21:46Z</time>
      </trkpt>
      <trkpt lat="46.7535" lon="5.6183">
        <ele>239.9</ele>
        <time>2019-10-13T13:21:51Z</time>
      </trkpt>
      <trkpt lat="46.75352" lon="5.61822">
        <ele>239.9</ele>
        <time>2019-10-13T13:21:56Z</time>
      </trkpt>
      <trkpt lat="46.75354" lon="5.61816">
        <ele>239.8</ele>
        <time>2019-10-13T13:22:01Z</time>
      </trkpt>
      <trkpt lat="46.75356" lon="5.61809">
        <ele>239.9</ele>
        <time>2019-10-13T13:22:07Z</time>
      </trkpt>
      <trkpt lat="46.75358" lon="5.61803">
        <ele>239.9</ele>
        <time>2019-10-13T13:22:11Z</time>
      </trkpt>
      <trkpt lat="46.7536" lon="5.61797">
        <ele>239.8</ele>
        <time>2019-10-13T13:22:14Z</time>
      </trkpt>
      <trkpt lat="46.75363" lon="5.6179">
        <ele>239.6</ele>
        <time>2019-10-13T13:22:18Z</time>
      </trkpt>
      <trkpt lat="46.75367" lon="5.61785">
        <ele>239.6</ele>
        <time>2019-10-13T13:22:22Z</time>
      </trkpt>
      <trkpt lat="46.7537" lon="5.6178">
        <ele>239.6</ele>
        <time>2019-10-13T13:22:27Z</time>
      </trkpt>
      <trkpt lat="46.75374" lon="5.61775">
        <ele>239.9</ele>
        <time>2019-10-13T13:22:32Z</time>
      </trkpt>
      <trkpt lat="46.75378" lon="5.6177">
        <ele>240</ele>
        <time>2019-10-13T13:22:35Z</time>
      </trkpt>
      <trkpt lat="46.75382" lon="5.61766">
        <ele>240.1</ele>
        <time>2019-10-13T13:22:39Z</time>
      </trkpt>
      <trkpt lat="46.75386" lon="5.61762">
        <ele>240.2</ele>
        <time>2019-10-13T13:22:44Z</time>
      </trkpt>
      <trkpt lat="46.75391" lon="5.61759">
        <ele>240.2</ele>
        <time>2019-10-13T13:22:48Z</time>
      </trkpt>
      <trkpt lat="46.75395" lon="5.61755">
        <ele>240.5</ele>
        <time>2019-10-13T13:22:53Z</time>
      </trkpt>
      <trkpt lat="46.75399" lon="5.61753">
        <ele>241.6</ele>
        <time>2019-10-13T13:23:06Z</time>
      </trkpt>
      <trkpt lat="46.75403" lon="5.61749">
        <ele>242</ele>
        <time>2019-10-13T13:23:15Z</time>
      </trkpt>
      <trkpt lat="46.75408" lon="5.61751">
        <ele>241.9</ele>
        <time>2019-10-13T13:23:35Z</time>
      </trkpt>
      <trkpt lat="46.75411" lon="5.61758">
        <ele>242</ele>
        <time>2019-10-13T13:23:40Z</time>
      </trkpt>
      <trkpt lat="46.75415" lon="5.61773">
        <ele>248.6</ele>
        <time>2019-10-13T13:24:30Z</time>
      </trkpt>
      <trkpt lat="46.7542" lon="5.61773">
        <ele>248.9</ele>
        <time>2019-10-13T13:24:38Z</time>
      </trkpt>
      <trkpt lat="46.75422" lon="5.61779">
        <ele>249.1</ele>
        <time>2019-10-13T13:24:47Z</time>
      </trkpt>
      <trkpt lat="46.75419" lon="5.61796">
        <ele>248.9</ele>
        <time>2019-10-13T13:25:01Z</time>
      </trkpt>
      <trkpt lat="46.75418" lon="5.61803">
        <ele>248.3</ele>
        <time>2019-10-13T13:25:06Z</time>
      </trkpt>
      <trkpt lat="46.75418" lon="5.61811">
        <ele>247.6</ele>
        <time>2019-10-13T13:25:12Z</time>
      </trkpt>
      <trkpt lat="46.75415" lon="5.61817">
        <ele>247.3</ele>
        <time>2019-10-13T13:25:18Z</time>
      </trkpt>
      <trkpt lat="46.75412" lon="5.61822">
        <ele>247.1</ele>
        <time>2019-10-13T13:25:25Z</time>
      </trkpt>
      <trkpt lat="46.75408" lon="5.61826">
        <ele>247.3</ele>
        <time>2019-10-13T13:25:30Z</time>
      </trkpt>
      <trkpt lat="46.75404" lon="5.6183">
        <ele>247.6</ele>
        <time>2019-10-13T13:25:35Z</time>
      </trkpt>
      <trkpt lat="46.754" lon="5.61835">
        <ele>248.1</ele>
        <time>2019-10-13T13:25:40Z</time>
      </trkpt>
      <trkpt lat="46.75397" lon="5.61839">
        <ele>248.6</ele>
        <time>2019-10-13T13:25:45Z</time>
      </trkpt>
      <trkpt lat="46.75393" lon="5.61845">
        <ele>249.2</ele>
        <time>2019-10-13T13:25:51Z</time>
      </trkpt>
      <trkpt lat="46.7539" lon="5.6185">
        <ele>249.6</ele>
        <time>2019-10-13T13:25:56Z</time>
      </trkpt>
      <trkpt lat="46.75388" lon="5.61856">
        <ele>249.7</ele>
        <time>2019-10-13T13:26:01Z</time>
      </trkpt>
      <trkpt lat="46.75384" lon="5.61862">
        <ele>249.7</ele>
        <time>2019-10-13T13:26:06Z</time>
      </trkpt>
      <trkpt lat="46.75382" lon="5.61868">
        <ele>249.8</ele>
        <time>2019-10-13T13:26:10Z</time>
      </trkpt>
      <trkpt lat="46.75379" lon="5.61874">
        <ele>250.3</ele>
        <time>2019-10-13T13:26:16Z</time>
      </trkpt>
      <trkpt lat="46.75375" lon="5.61879">
        <ele>250.9</ele>
        <time>2019-10-13T13:26:22Z</time>
      </trkpt>
      <trkpt lat="46.75372" lon="5.61886">
        <ele>251.3</ele>
        <time>2019-10-13T13:26:27Z</time>
      </trkpt>
      <trkpt lat="46.7537" lon="5.61892">
        <ele>252</ele>
        <time>2019-10-13T13:26:32Z</time>
      </trkpt>
      <trkpt lat="46.75367" lon="5.61899">
        <ele>252.7</ele>
        <time>2019-10-13T13:26:38Z</time>
      </trkpt>
      <trkpt lat="46.75364" lon="5.61905">
        <ele>253.5</ele>
        <time>2019-10-13T13:26:44Z</time>
      </trkpt>
      <trkpt lat="46.75361" lon="5.61911">
        <ele>254.5</ele>
        <time>2019-10-13T13:26:51Z</time>
      </trkpt>
      <trkpt lat="46.75357" lon="5.61917">
        <ele>255.1</ele>
        <time>2019-10-13T13:26:55Z</time>
      </trkpt>
      <trkpt lat="46.75355" lon="5.61922">
        <ele>256</ele>
        <time>2019-10-13T13:27:02Z</time>
      </trkpt>
      <trkpt lat="46.75348" lon="5.61937">
        <ele>257.9</ele>
        <time>2019-10-13T13:27:18Z</time>
      </trkpt>
      <trkpt lat="46.75346" lon="5.61943">
        <ele>258</ele>
        <time>2019-10-13T13:27:23Z</time>
      </trkpt>
      <trkpt lat="46.75343" lon="5.6195">
        <ele>258.2</ele>
        <time>2019-10-13T13:27:28Z</time>
      </trkpt>
      <trkpt lat="46.7534" lon="5.61955">
        <ele>258.5</ele>
        <time>2019-10-13T13:27:34Z</time>
      </trkpt>
      <trkpt lat="46.75337" lon="5.6196">
        <ele>258.6</ele>
        <time>2019-10-13T13:27:40Z</time>
      </trkpt>
      <trkpt lat="46.75335" lon="5.61966">
        <ele>258.9</ele>
        <time>2019-10-13T13:27:45Z</time>
      </trkpt>
      <trkpt lat="46.75332" lon="5.61972">
        <ele>259.3</ele>
        <time>2019-10-13T13:27:50Z</time>
      </trkpt>
      <trkpt lat="46.7533" lon="5.61979">
        <ele>259.5</ele>
        <time>2019-10-13T13:27:56Z</time>
      </trkpt>
      <trkpt lat="46.75328" lon="5.61986">
        <ele>259.4</ele>
        <time>2019-10-13T13:28:02Z</time>
      </trkpt>
      <trkpt lat="46.75325" lon="5.61992">
        <ele>259.6</ele>
        <time>2019-10-13T13:28:08Z</time>
      </trkpt>
      <trkpt lat="46.75323" lon="5.61999">
        <ele>259.9</ele>
        <time>2019-10-13T13:28:13Z</time>
      </trkpt>
      <trkpt lat="46.75321" lon="5.62005">
        <ele>260</ele>
        <time>2019-10-13T13:28:18Z</time>
      </trkpt>
      <trkpt lat="46.75318" lon="5.6201">
        <ele>259.8</ele>
        <time>2019-10-13T13:28:22Z</time>
      </trkpt>
      <trkpt lat="46.75315" lon="5.62015">
        <ele>259.7</ele>
        <time>2019-10-13T13:28:27Z</time>
      </trkpt>
      <trkpt lat="46.75311" lon="5.6202">
        <ele>259.1</ele>
        <time>2019-10-13T13:28:59Z</time>
      </trkpt>
      <trkpt lat="46.75306" lon="5.62021">
        <ele>259</ele>
        <time>2019-10-13T13:29:03Z</time>
      </trkpt>
      <trkpt lat="46.75296" lon="5.62028">
        <ele>259.6</ele>
        <time>2019-10-13T13:29:44Z</time>
      </trkpt>
      <trkpt lat="46.75292" lon="5.62032">
        <ele>259.4</ele>
        <time>2019-10-13T13:29:49Z</time>
      </trkpt>
      <trkpt lat="46.75288" lon="5.62036">
        <ele>259.5</ele>
        <time>2019-10-13T13:29:59Z</time>
      </trkpt>
      <trkpt lat="46.75283" lon="5.6204">
        <ele>260.5</ele>
        <time>2019-10-13T13:30:05Z</time>
      </trkpt>
      <trkpt lat="46.75279" lon="5.62043">
        <ele>261.5</ele>
        <time>2019-10-13T13:30:12Z</time>
      </trkpt>
      <trkpt lat="46.75276" lon="5.62048">
        <ele>262.5</ele>
        <time>2019-10-13T13:30:20Z</time>
      </trkpt>
      <trkpt lat="46.75273" lon="5.62054">
        <ele>262.9</ele>
        <time>2019-10-13T13:30:27Z</time>
      </trkpt>
      <trkpt lat="46.75269" lon="5.62059">
        <ele>263.2</ele>
        <time>2019-10-13T13:30:33Z</time>
      </trkpt>
      <trkpt lat="46.75265" lon="5.62064">
        <ele>263.3</ele>
        <time>2019-10-13T13:30:37Z</time>
      </trkpt>
      <trkpt lat="46.75262" lon="5.62069">
        <ele>263.7</ele>
        <time>2019-10-13T13:30:45Z</time>
      </trkpt>
      <trkpt lat="46.7526" lon="5.62076">
        <ele>263.8</ele>
        <time>2019-10-13T13:31:00Z</time>
      </trkpt>
      <trkpt lat="46.75256" lon="5.62081">
        <ele>263.8</ele>
        <time>2019-10-13T13:31:05Z</time>
      </trkpt>
      <trkpt lat="46.75253" lon="5.62086">
        <ele>263.9</ele>
        <time>2019-10-13T13:31:09Z</time>
      </trkpt>
      <trkpt lat="46.7525" lon="5.62093">
        <ele>264.1</ele>
        <time>2019-10-13T13:31:15Z</time>
      </trkpt>
      <trkpt lat="46.75247" lon="5.62098">
        <ele>264.6</ele>
        <time>2019-10-13T13:31:20Z</time>
      </trkpt>
      <trkpt lat="46.75243" lon="5.62103">
        <ele>264.9</ele>
        <time>2019-10-13T13:31:24Z</time>
      </trkpt>
      <trkpt lat="46.7524" lon="5.62108">
        <ele>265.2</ele>
        <time>2019-10-13T13:31:27Z</time>
      </trkpt>
      <trkpt lat="46.75236" lon="5.62114">
        <ele>265.4</ele>
        <time>2019-10-13T13:31:31Z</time>
      </trkpt>
      <trkpt lat="46.75232" lon="5.6212">
        <ele>265.8</ele>
        <time>2019-10-13T13:31:36Z</time>
      </trkpt>
      <trkpt lat="46.75228" lon="5.62125">
        <ele>266</ele>
        <time>2019-10-13T13:31:40Z</time>
      </trkpt>
      <trkpt lat="46.75225" lon="5.6213">
        <ele>266.2</ele>
        <time>2019-10-13T13:31:45Z</time>
      </trkpt>
      <trkpt lat="46.75222" lon="5.62136">
        <ele>266.6</ele>
        <time>2019-10-13T13:31:50Z</time>
      </trkpt>
      <trkpt lat="46.75218" lon="5.62142">
        <ele>266.9</ele>
        <time>2019-10-13T13:31:55Z</time>
      </trkpt>
      <trkpt lat="46.75214" lon="5.62146">
        <ele>267.2</ele>
        <time>2019-10-13T13:31:59Z</time>
      </trkpt>
      <trkpt lat="46.7521" lon="5.62152">
        <ele>267.6</ele>
        <time>2019-10-13T13:32:03Z</time>
      </trkpt>
      <trkpt lat="46.75207" lon="5.62159">
        <ele>268</ele>
        <time>2019-10-13T13:32:08Z</time>
      </trkpt>
      <trkpt lat="46.75204" lon="5.62165">
        <ele>268.2</ele>
        <time>2019-10-13T13:32:12Z</time>
      </trkpt>
      <trkpt lat="46.75201" lon="5.62171">
        <ele>268.3</ele>
        <time>2019-10-13T13:32:16Z</time>
      </trkpt>
      <trkpt lat="46.75199" lon="5.62178">
        <ele>268.8</ele>
        <time>2019-10-13T13:32:21Z</time>
      </trkpt>
      <trkpt lat="46.75197" lon="5.62184">
        <ele>269.4</ele>
        <time>2019-10-13T13:32:26Z</time>
      </trkpt>
      <trkpt lat="46.75194" lon="5.6219">
        <ele>270</ele>
        <time>2019-10-13T13:32:32Z</time>
      </trkpt>
      <trkpt lat="46.75191" lon="5.62195">
        <ele>270.7</ele>
        <time>2019-10-13T13:32:38Z</time>
      </trkpt>
      <trkpt lat="46.75189" lon="5.62202">
        <ele>271.5</ele>
        <time>2019-10-13T13:32:43Z</time>
      </trkpt>
      <trkpt lat="46.75186" lon="5.62208">
        <ele>272.3</ele>
        <time>2019-10-13T13:32:48Z</time>
      </trkpt>
      <trkpt lat="46.75183" lon="5.62212">
        <ele>273.4</ele>
        <time>2019-10-13T13:32:53Z</time>
      </trkpt>
      <trkpt lat="46.75179" lon="5.62217">
        <ele>274.8</ele>
        <time>2019-10-13T13:32:59Z</time>
      </trkpt>
      <trkpt lat="46.75176" lon="5.62223">
        <ele>275.5</ele>
        <time>2019-10-13T13:33:03Z</time>
      </trkpt>
      <trkpt lat="46.75173" lon="5.6223">
        <ele>276.2</ele>
        <time>2019-10-13T13:33:08Z</time>
      </trkpt>
      <trkpt lat="46.75169" lon="5.62236">
        <ele>276.8</ele>
        <time>2019-10-13T13:33:13Z</time>
      </trkpt>
      <trkpt lat="46.75167" lon="5.62242">
        <ele>277.4</ele>
        <time>2019-10-13T13:33:18Z</time>
      </trkpt>
      <trkpt lat="46.75163" lon="5.62247">
        <ele>277.9</ele>
        <time>2019-10-13T13:33:23Z</time>
      </trkpt>
      <trkpt lat="46.7516" lon="5.62253">
        <ele>278.4</ele>
        <time>2019-10-13T13:33:29Z</time>
      </trkpt>
      <trkpt lat="46.75164" lon="5.6225">
        <ele>277.7</ele>
        <time>2019-10-13T13:34:28Z</time>
      </trkpt>
      <trkpt lat="46.7516" lon="5.6225">
        <ele>276.6</ele>
        <time>2019-10-13T13:34:45Z</time>
      </trkpt>
      <trkpt lat="46.75155" lon="5.6225">
        <ele>276.5</ele>
        <time>2019-10-13T13:34:54Z</time>
      </trkpt>
      <trkpt lat="46.75151" lon="5.62252">
        <ele>276.8</ele>
        <time>2019-10-13T13:35:04Z</time>
      </trkpt>
      <trkpt lat="46.75147" lon="5.62257">
        <ele>277.3</ele>
        <time>2019-10-13T13:35:10Z</time>
      </trkpt>
      <trkpt lat="46.75143" lon="5.62262">
        <ele>278</ele>
        <time>2019-10-13T13:35:15Z</time>
      </trkpt>
      <trkpt lat="46.7514" lon="5.62268">
        <ele>278.6</ele>
        <time>2019-10-13T13:35:20Z</time>
      </trkpt>
      <trkpt lat="46.75137" lon="5.62274">
        <ele>279</ele>
        <time>2019-10-13T13:35:25Z</time>
      </trkpt>
      <trkpt lat="46.75134" lon="5.62279">
        <ele>279.3</ele>
        <time>2019-10-13T13:35:29Z</time>
      </trkpt>
      <trkpt lat="46.75131" lon="5.62284">
        <ele>279.6</ele>
        <time>2019-10-13T13:35:33Z</time>
      </trkpt>
      <trkpt lat="46.75127" lon="5.6229">
        <ele>280.1</ele>
        <time>2019-10-13T13:35:38Z</time>
      </trkpt>
      <trkpt lat="46.75124" lon="5.62295">
        <ele>280.7</ele>
        <time>2019-10-13T13:35:43Z</time>
      </trkpt>
      <trkpt lat="46.75121" lon="5.623">
        <ele>281.6</ele>
        <time>2019-10-13T13:35:48Z</time>
      </trkpt>
      <trkpt lat="46.75117" lon="5.62305">
        <ele>282.2</ele>
        <time>2019-10-13T13:35:52Z</time>
      </trkpt>
      <trkpt lat="46.75113" lon="5.6231">
        <ele>282.6</ele>
        <time>2019-10-13T13:35:57Z</time>
      </trkpt>
      <trkpt lat="46.75114" lon="5.62317">
        <ele>282.9</ele>
        <time>2019-10-13T13:36:18Z</time>
      </trkpt>
      <trkpt lat="46.75115" lon="5.62324">
        <ele>283</ele>
        <time>2019-10-13T13:36:22Z</time>
      </trkpt>
      <trkpt lat="46.75118" lon="5.62331">
        <ele>283.2</ele>
        <time>2019-10-13T13:36:27Z</time>
      </trkpt>
      <trkpt lat="46.7512" lon="5.62336">
        <ele>283.5</ele>
        <time>2019-10-13T13:36:32Z</time>
      </trkpt>
      <trkpt lat="46.75123" lon="5.62342">
        <ele>283.7</ele>
        <time>2019-10-13T13:36:37Z</time>
      </trkpt>
      <trkpt lat="46.75125" lon="5.62348">
        <ele>283.9</ele>
        <time>2019-10-13T13:36:42Z</time>
      </trkpt>
      <trkpt lat="46.75128" lon="5.62355">
        <ele>283.8</ele>
        <time>2019-10-13T13:36:48Z</time>
      </trkpt>
      <trkpt lat="46.75129" lon="5.62362">
        <ele>283.9</ele>
        <time>2019-10-13T13:36:55Z</time>
      </trkpt>
      <trkpt lat="46.75131" lon="5.62369">
        <ele>284.4</ele>
        <time>2019-10-13T13:37:01Z</time>
      </trkpt>
      <trkpt lat="46.75133" lon="5.62376">
        <ele>285.2</ele>
        <time>2019-10-13T13:37:07Z</time>
      </trkpt>
      <trkpt lat="46.75135" lon="5.62382">
        <ele>285.7</ele>
        <time>2019-10-13T13:37:12Z</time>
      </trkpt>
      <trkpt lat="46.75135" lon="5.62389">
        <ele>286.4</ele>
        <time>2019-10-13T13:37:19Z</time>
      </trkpt>
      <trkpt lat="46.75134" lon="5.62396">
        <ele>287.1</ele>
        <time>2019-10-13T13:37:25Z</time>
      </trkpt>
      <trkpt lat="46.75131" lon="5.62402">
        <ele>287.8</ele>
        <time>2019-10-13T13:37:31Z</time>
      </trkpt>
      <trkpt lat="46.75129" lon="5.62408">
        <ele>288.6</ele>
        <time>2019-10-13T13:37:36Z</time>
      </trkpt>
      <trkpt lat="46.75127" lon="5.62414">
        <ele>289.5</ele>
        <time>2019-10-13T13:37:42Z</time>
      </trkpt>
      <trkpt lat="46.75124" lon="5.6242">
        <ele>290.3</ele>
        <time>2019-10-13T13:37:48Z</time>
      </trkpt>
      <trkpt lat="46.75121" lon="5.62426">
        <ele>291.1</ele>
        <time>2019-10-13T13:37:55Z</time>
      </trkpt>
      <trkpt lat="46.75118" lon="5.6243">
        <ele>292.1</ele>
        <time>2019-10-13T13:38:06Z</time>
      </trkpt>
      <trkpt lat="46.75112" lon="5.62433">
        <ele>292</ele>
        <time>2019-10-13T13:38:16Z</time>
      </trkpt>
      <trkpt lat="46.75107" lon="5.62436">
        <ele>291.7</ele>
        <time>2019-10-13T13:38:20Z</time>
      </trkpt>
      <trkpt lat="46.75103" lon="5.62439">
        <ele>291.3</ele>
        <time>2019-10-13T13:38:24Z</time>
      </trkpt>
      <trkpt lat="46.75099" lon="5.62442">
        <ele>291.1</ele>
        <time>2019-10-13T13:38:29Z</time>
      </trkpt>
      <trkpt lat="46.75094" lon="5.62445">
        <ele>291</ele>
        <time>2019-10-13T13:38:33Z</time>
      </trkpt>
      <trkpt lat="46.75091" lon="5.62449">
        <ele>290.9</ele>
        <time>2019-10-13T13:38:38Z</time>
      </trkpt>
      <trkpt lat="46.75087" lon="5.62454">
        <ele>291</ele>
        <time>2019-10-13T13:38:46Z</time>
      </trkpt>
      <trkpt lat="46.75082" lon="5.62457">
        <ele>291</ele>
        <time>2019-10-13T13:38:52Z</time>
      </trkpt>
      <trkpt lat="46.75078" lon="5.6246">
        <ele>291</ele>
        <time>2019-10-13T13:38:58Z</time>
      </trkpt>
      <trkpt lat="46.75074" lon="5.62462">
        <ele>290.6</ele>
        <time>2019-10-13T13:39:06Z</time>
      </trkpt>
      <trkpt lat="46.75069" lon="5.62463">
        <ele>289.9</ele>
        <time>2019-10-13T13:39:13Z</time>
      </trkpt>
      <trkpt lat="46.75064" lon="5.62465">
        <ele>289.3</ele>
        <time>2019-10-13T13:39:21Z</time>
      </trkpt>
      <trkpt lat="46.7506" lon="5.6247">
        <ele>289.1</ele>
        <time>2019-10-13T13:39:26Z</time>
      </trkpt>
      <trkpt lat="46.75057" lon="5.62476">
        <ele>289</ele>
        <time>2019-10-13T13:39:31Z</time>
      </trkpt>
      <trkpt lat="46.75054" lon="5.62481">
        <ele>288.5</ele>
        <time>2019-10-13T13:39:54Z</time>
      </trkpt>
      <trkpt lat="46.75052" lon="5.62487">
        <ele>288.4</ele>
        <time>2019-10-13T13:40:00Z</time>
      </trkpt>
      <trkpt lat="46.75049" lon="5.62494">
        <ele>288.5</ele>
        <time>2019-10-13T13:40:04Z</time>
      </trkpt>
      <trkpt lat="46.75046" lon="5.625">
        <ele>288.7</ele>
        <time>2019-10-13T13:40:08Z</time>
      </trkpt>
      <trkpt lat="46.75045" lon="5.62506">
        <ele>289</ele>
        <time>2019-10-13T13:40:12Z</time>
      </trkpt>
      <trkpt lat="46.75042" lon="5.62513">
        <ele>289.6</ele>
        <time>2019-10-13T13:40:15Z</time>
      </trkpt>
      <trkpt lat="46.75037" lon="5.62519">
        <ele>290.4</ele>
        <time>2019-10-13T13:40:18Z</time>
      </trkpt>
      <trkpt lat="46.75033" lon="5.62523">
        <ele>291.4</ele>
        <time>2019-10-13T13:40:21Z</time>
      </trkpt>
      <trkpt lat="46.75029" lon="5.62528">
        <ele>292.9</ele>
        <time>2019-10-13T13:40:25Z</time>
      </trkpt>
      <trkpt lat="46.75024" lon="5.62532">
        <ele>294.1</ele>
        <time>2019-10-13T13:40:29Z</time>
      </trkpt>
      <trkpt lat="46.7502" lon="5.62536">
        <ele>295.3</ele>
        <time>2019-10-13T13:40:34Z</time>
      </trkpt>
      <trkpt lat="46.75017" lon="5.62542">
        <ele>296.4</ele>
        <time>2019-10-13T13:40:40Z</time>
      </trkpt>
      <trkpt lat="46.75015" lon="5.62548">
        <ele>297.1</ele>
        <time>2019-10-13T13:40:44Z</time>
      </trkpt>
      <trkpt lat="46.75012" lon="5.62554">
        <ele>298.2</ele>
        <time>2019-10-13T13:40:49Z</time>
      </trkpt>
      <trkpt lat="46.7501" lon="5.62561">
        <ele>299.5</ele>
        <time>2019-10-13T13:40:55Z</time>
      </trkpt>
      <trkpt lat="46.7501" lon="5.62568">
        <ele>300.5</ele>
        <time>2019-10-13T13:41:00Z</time>
      </trkpt>
      <trkpt lat="46.7501" lon="5.62575">
        <ele>301.5</ele>
        <time>2019-10-13T13:41:05Z</time>
      </trkpt>
      <trkpt lat="46.75011" lon="5.62582">
        <ele>303</ele>
        <time>2019-10-13T13:41:16Z</time>
      </trkpt>
      <trkpt lat="46.75016" lon="5.62587">
        <ele>303.8</ele>
        <time>2019-10-13T13:41:29Z</time>
      </trkpt>
      <trkpt lat="46.7502" lon="5.6259">
        <ele>304.1</ele>
        <time>2019-10-13T13:41:33Z</time>
      </trkpt>
      <trkpt lat="46.75024" lon="5.62594">
        <ele>305.5</ele>
        <time>2019-10-13T13:41:43Z</time>
      </trkpt>
      <trkpt lat="46.75028" lon="5.62596">
        <ele>306.2</ele>
        <time>2019-10-13T13:41:48Z</time>
      </trkpt>
      <trkpt lat="46.75033" lon="5.62599">
        <ele>306.8</ele>
        <time>2019-10-13T13:41:52Z</time>
      </trkpt>
      <trkpt lat="46.75038" lon="5.62601">
        <ele>307.7</ele>
        <time>2019-10-13T13:41:57Z</time>
      </trkpt>
      <trkpt lat="46.75042" lon="5.62604">
        <ele>309.3</ele>
        <time>2019-10-13T13:42:08Z</time>
      </trkpt>
      <trkpt lat="46.75046" lon="5.62607">
        <ele>310.8</ele>
        <time>2019-10-13T13:42:13Z</time>
      </trkpt>
      <trkpt lat="46.75051" lon="5.62605">
        <ele>311.9</ele>
        <time>2019-10-13T13:42:19Z</time>
      </trkpt>
      <trkpt lat="46.75056" lon="5.62604">
        <ele>312.8</ele>
        <time>2019-10-13T13:42:26Z</time>
      </trkpt>
      <trkpt lat="46.75061" lon="5.62603">
        <ele>313.2</ele>
        <time>2019-10-13T13:42:30Z</time>
      </trkpt>
      <trkpt lat="46.75065" lon="5.62601">
        <ele>313.5</ele>
        <time>2019-10-13T13:42:35Z</time>
      </trkpt>
      <trkpt lat="46.7507" lon="5.62601">
        <ele>313.9</ele>
        <time>2019-10-13T13:42:40Z</time>
      </trkpt>
      <trkpt lat="46.75075" lon="5.62604">
        <ele>314.3</ele>
        <time>2019-10-13T13:42:45Z</time>
      </trkpt>
      <trkpt lat="46.75079" lon="5.62609">
        <ele>315</ele>
        <time>2019-10-13T13:42:51Z</time>
      </trkpt>
      <trkpt lat="46.75081" lon="5.62616">
        <ele>315.6</ele>
        <time>2019-10-13T13:42:55Z</time>
      </trkpt>
      <trkpt lat="46.75082" lon="5.62622">
        <ele>316.1</ele>
        <time>2019-10-13T13:43:00Z</time>
      </trkpt>
      <trkpt lat="46.75084" lon="5.62628">
        <ele>316.4</ele>
        <time>2019-10-13T13:43:05Z</time>
      </trkpt>
      <trkpt lat="46.75085" lon="5.62635">
        <ele>316.6</ele>
        <time>2019-10-13T13:43:10Z</time>
      </trkpt>
      <trkpt lat="46.75086" lon="5.62642">
        <ele>316.9</ele>
        <time>2019-10-13T13:43:14Z</time>
      </trkpt>
      <trkpt lat="46.75087" lon="5.6265">
        <ele>317.2</ele>
        <time>2019-10-13T13:43:19Z</time>
      </trkpt>
      <trkpt lat="46.75087" lon="5.62658">
        <ele>317.6</ele>
        <time>2019-10-13T13:43:24Z</time>
      </trkpt>
      <trkpt lat="46.75086" lon="5.62665">
        <ele>318.2</ele>
        <time>2019-10-13T13:43:30Z</time>
      </trkpt>
      <trkpt lat="46.75086" lon="5.62672">
        <ele>318.8</ele>
        <time>2019-10-13T13:43:35Z</time>
      </trkpt>
      <trkpt lat="46.75087" lon="5.62681">
        <ele>319.3</ele>
        <time>2019-10-13T13:43:40Z</time>
      </trkpt>
      <trkpt lat="46.75088" lon="5.62687">
        <ele>319.5</ele>
        <time>2019-10-13T13:43:43Z</time>
      </trkpt>
      <trkpt lat="46.75088" lon="5.62694">
        <ele>319.6</ele>
        <time>2019-10-13T13:43:47Z</time>
      </trkpt>
      <trkpt lat="46.75088" lon="5.62702">
        <ele>319.8</ele>
        <time>2019-10-13T13:43:54Z</time>
      </trkpt>
      <trkpt lat="46.75089" lon="5.62708">
        <ele>319.8</ele>
        <time>2019-10-13T13:43:59Z</time>
      </trkpt>
      <trkpt lat="46.7509" lon="5.62716">
        <ele>319.7</ele>
        <time>2019-10-13T13:44:06Z</time>
      </trkpt>
      <trkpt lat="46.7509" lon="5.62724">
        <ele>319.8</ele>
        <time>2019-10-13T13:44:11Z</time>
      </trkpt>
      <trkpt lat="46.75089" lon="5.62731">
        <ele>320.2</ele>
        <time>2019-10-13T13:44:16Z</time>
      </trkpt>
      <trkpt lat="46.75088" lon="5.62738">
        <ele>320.9</ele>
        <time>2019-10-13T13:44:22Z</time>
      </trkpt>
      <trkpt lat="46.75091" lon="5.62753">
        <ele>322.2</ele>
        <time>2019-10-13T13:44:35Z</time>
      </trkpt>
      <trkpt lat="46.75094" lon="5.62758">
        <ele>322.3</ele>
        <time>2019-10-13T13:44:37Z</time>
      </trkpt>
      <trkpt lat="46.75096" lon="5.62765">
        <ele>322.2</ele>
        <time>2019-10-13T13:44:40Z</time>
      </trkpt>
      <trkpt lat="46.75099" lon="5.62772">
        <ele>321.9</ele>
        <time>2019-10-13T13:44:44Z</time>
      </trkpt>
      <trkpt lat="46.751" lon="5.62778">
        <ele>321.6</ele>
        <time>2019-10-13T13:44:48Z</time>
      </trkpt>
      <trkpt lat="46.751" lon="5.62786">
        <ele>321</ele>
        <time>2019-10-13T13:44:55Z</time>
      </trkpt>
      <trkpt lat="46.75102" lon="5.62792">
        <ele>320.3</ele>
        <time>2019-10-13T13:45:00Z</time>
      </trkpt>
      <trkpt lat="46.75102" lon="5.628">
        <ele>319.6</ele>
        <time>2019-10-13T13:45:06Z</time>
      </trkpt>
      <trkpt lat="46.75105" lon="5.62816">
        <ele>318.7</ele>
        <time>2019-10-13T13:45:17Z</time>
      </trkpt>
      <trkpt lat="46.75103" lon="5.62822">
        <ele>318.8</ele>
        <time>2019-10-13T13:45:20Z</time>
      </trkpt>
      <trkpt lat="46.75101" lon="5.62829">
        <ele>319</ele>
        <time>2019-10-13T13:45:24Z</time>
      </trkpt>
      <trkpt lat="46.75099" lon="5.62835">
        <ele>319.6</ele>
        <time>2019-10-13T13:45:28Z</time>
      </trkpt>
      <trkpt lat="46.75099" lon="5.62842">
        <ele>320.4</ele>
        <time>2019-10-13T13:45:33Z</time>
      </trkpt>
      <trkpt lat="46.75103" lon="5.62848">
        <ele>321.5</ele>
        <time>2019-10-13T13:45:50Z</time>
      </trkpt>
      <trkpt lat="46.75108" lon="5.62863">
        <ele>323.5</ele>
        <time>2019-10-13T13:46:07Z</time>
      </trkpt>
      <trkpt lat="46.75111" lon="5.62869">
        <ele>323.8</ele>
        <time>2019-10-13T13:46:10Z</time>
      </trkpt>
      <trkpt lat="46.75113" lon="5.62876">
        <ele>324.2</ele>
        <time>2019-10-13T13:46:13Z</time>
      </trkpt>
      <trkpt lat="46.75113" lon="5.62883">
        <ele>324.7</ele>
        <time>2019-10-13T13:46:18Z</time>
      </trkpt>
      <trkpt lat="46.75093" lon="5.62886">
        <ele>326.3</ele>
        <time>2019-10-13T13:46:51Z</time>
      </trkpt>
      <trkpt lat="46.75088" lon="5.62885">
        <ele>326.5</ele>
        <time>2019-10-13T13:46:54Z</time>
      </trkpt>
      <trkpt lat="46.75084" lon="5.62883">
        <ele>326.8</ele>
        <time>2019-10-13T13:46:58Z</time>
      </trkpt>
      <trkpt lat="46.75079" lon="5.62882">
        <ele>326.9</ele>
        <time>2019-10-13T13:47:02Z</time>
      </trkpt>
      <trkpt lat="46.75074" lon="5.62883">
        <ele>327</ele>
        <time>2019-10-13T13:47:05Z</time>
      </trkpt>
      <trkpt lat="46.75069" lon="5.62881">
        <ele>327.4</ele>
        <time>2019-10-13T13:47:10Z</time>
      </trkpt>
      <trkpt lat="46.75064" lon="5.62879">
        <ele>327.8</ele>
        <time>2019-10-13T13:47:15Z</time>
      </trkpt>
      <trkpt lat="46.7506" lon="5.6288">
        <ele>328.4</ele>
        <time>2019-10-13T13:47:20Z</time>
      </trkpt>
      <trkpt lat="46.75055" lon="5.62881">
        <ele>328.9</ele>
        <time>2019-10-13T13:47:24Z</time>
      </trkpt>
      <trkpt lat="46.7505" lon="5.6288">
        <ele>329.4</ele>
        <time>2019-10-13T13:47:28Z</time>
      </trkpt>
      <trkpt lat="46.75045" lon="5.62877">
        <ele>329.9</ele>
        <time>2019-10-13T13:47:32Z</time>
      </trkpt>
      <trkpt lat="46.75041" lon="5.62874">
        <ele>330.8</ele>
        <time>2019-10-13T13:47:37Z</time>
      </trkpt>
      <trkpt lat="46.75036" lon="5.62872">
        <ele>332</ele>
        <time>2019-10-13T13:47:42Z</time>
      </trkpt>
      <trkpt lat="46.75032" lon="5.62875">
        <ele>333.1</ele>
        <time>2019-10-13T13:47:48Z</time>
      </trkpt>
      <trkpt lat="46.75029" lon="5.62881">
        <ele>334.1</ele>
        <time>2019-10-13T13:48:06Z</time>
      </trkpt>
      <trkpt lat="46.75033" lon="5.62884">
        <ele>333.8</ele>
        <time>2019-10-13T13:48:46Z</time>
      </trkpt>
      <trkpt lat="46.75038" lon="5.62885">
        <ele>333.7</ele>
        <time>2019-10-13T13:48:51Z</time>
      </trkpt>
      <trkpt lat="46.75042" lon="5.62888">
        <ele>333.8</ele>
        <time>2019-10-13T13:48:57Z</time>
      </trkpt>
      <trkpt lat="46.75047" lon="5.62891">
        <ele>333.8</ele>
        <time>2019-10-13T13:49:02Z</time>
      </trkpt>
      <trkpt lat="46.75052" lon="5.62893">
        <ele>333.9</ele>
        <time>2019-10-13T13:49:06Z</time>
      </trkpt>
      <trkpt lat="46.75056" lon="5.62896">
        <ele>334.2</ele>
        <time>2019-10-13T13:49:11Z</time>
      </trkpt>
      <trkpt lat="46.7506" lon="5.62898">
        <ele>334.4</ele>
        <time>2019-10-13T13:49:16Z</time>
      </trkpt>
      <trkpt lat="46.75065" lon="5.62902">
        <ele>334.6</ele>
        <time>2019-10-13T13:49:22Z</time>
      </trkpt>
      <trkpt lat="46.75069" lon="5.62907">
        <ele>334.7</ele>
        <time>2019-10-13T13:49:27Z</time>
      </trkpt>
      <trkpt lat="46.75073" lon="5.62911">
        <ele>334.9</ele>
        <time>2019-10-13T13:49:32Z</time>
      </trkpt>
      <trkpt lat="46.75077" lon="5.62915">
        <ele>335.2</ele>
        <time>2019-10-13T13:49:39Z</time>
      </trkpt>
      <trkpt lat="46.7508" lon="5.62921">
        <ele>335.5</ele>
        <time>2019-10-13T13:49:45Z</time>
      </trkpt>
      <trkpt lat="46.75085" lon="5.62925">
        <ele>336</ele>
        <time>2019-10-13T13:49:52Z</time>
      </trkpt>
      <trkpt lat="46.7509" lon="5.62928">
        <ele>336.5</ele>
        <time>2019-10-13T13:49:56Z</time>
      </trkpt>
      <trkpt lat="46.75093" lon="5.62932">
        <ele>337</ele>
        <time>2019-10-13T13:50:04Z</time>
      </trkpt>
      <trkpt lat="46.75098" lon="5.62936">
        <ele>337.2</ele>
        <time>2019-10-13T13:50:07Z</time>
      </trkpt>
      <trkpt lat="46.7512" lon="5.62943">
        <ele>342.2</ele>
        <time>2019-10-13T13:50:30Z</time>
      </trkpt>
      <trkpt lat="46.75124" lon="5.62945">
        <ele>343.3</ele>
        <time>2019-10-13T13:50:37Z</time>
      </trkpt>
      <trkpt lat="46.75135" lon="5.62948">
        <ele>347.8</ele>
        <time>2019-10-13T13:51:52Z</time>
      </trkpt>
      <trkpt lat="46.75141" lon="5.62947">
        <ele>348.2</ele>
        <time>2019-10-13T13:51:55Z</time>
      </trkpt>
      <trkpt lat="46.75146" lon="5.62947">
        <ele>348.7</ele>
        <time>2019-10-13T13:51:59Z</time>
      </trkpt>
      <trkpt lat="46.75153" lon="5.62947">
        <ele>349.1</ele>
        <time>2019-10-13T13:52:03Z</time>
      </trkpt>
      <trkpt lat="46.75158" lon="5.62945">
        <ele>349.4</ele>
        <time>2019-10-13T13:52:07Z</time>
      </trkpt>
      <trkpt lat="46.75163" lon="5.62945">
        <ele>350.1</ele>
        <time>2019-10-13T13:52:13Z</time>
      </trkpt>
      <trkpt lat="46.75167" lon="5.62944">
        <ele>350.9</ele>
        <time>2019-10-13T13:52:18Z</time>
      </trkpt>
      <trkpt lat="46.75173" lon="5.62941">
        <ele>351.6</ele>
        <time>2019-10-13T13:52:21Z</time>
      </trkpt>
      <trkpt lat="46.75177" lon="5.62938">
        <ele>352.6</ele>
        <time>2019-10-13T13:52:25Z</time>
      </trkpt>
      <trkpt lat="46.75182" lon="5.62933">
        <ele>354.1</ele>
        <time>2019-10-13T13:52:30Z</time>
      </trkpt>
      <trkpt lat="46.75186" lon="5.62929">
        <ele>355.1</ele>
        <time>2019-10-13T13:52:34Z</time>
      </trkpt>
      <trkpt lat="46.75189" lon="5.62923">
        <ele>356.1</ele>
        <time>2019-10-13T13:52:40Z</time>
      </trkpt>
      <trkpt lat="46.7519" lon="5.62916">
        <ele>356.8</ele>
        <time>2019-10-13T13:52:44Z</time>
      </trkpt>
      <trkpt lat="46.7519" lon="5.62909">
        <ele>357.3</ele>
        <time>2019-10-13T13:52:47Z</time>
      </trkpt>
      <trkpt lat="46.75192" lon="5.62903">
        <ele>358</ele>
        <time>2019-10-13T13:52:53Z</time>
      </trkpt>
      <trkpt lat="46.75194" lon="5.62896">
        <ele>359.2</ele>
        <time>2019-10-13T13:53:01Z</time>
      </trkpt>
      <trkpt lat="46.75194" lon="5.6289">
        <ele>359.8</ele>
        <time>2019-10-13T13:53:07Z</time>
      </trkpt>
      <trkpt lat="46.75194" lon="5.62883">
        <ele>360</ele>
        <time>2019-10-13T13:53:14Z</time>
      </trkpt>
      <trkpt lat="46.75193" lon="5.62875">
        <ele>360.3</ele>
        <time>2019-10-13T13:53:20Z</time>
      </trkpt>
      <trkpt lat="46.75194" lon="5.62868">
        <ele>360.6</ele>
        <time>2019-10-13T13:53:25Z</time>
      </trkpt>
      <trkpt lat="46.75196" lon="5.62862">
        <ele>360.8</ele>
        <time>2019-10-13T13:53:28Z</time>
      </trkpt>
      <trkpt lat="46.75198" lon="5.62854">
        <ele>361</ele>
        <time>2019-10-13T13:53:32Z</time>
      </trkpt>
      <trkpt lat="46.75199" lon="5.62847">
        <ele>361.1</ele>
        <time>2019-10-13T13:53:36Z</time>
      </trkpt>
      <trkpt lat="46.75201" lon="5.6284">
        <ele>361.1</ele>
        <time>2019-10-13T13:53:40Z</time>
      </trkpt>
      <trkpt lat="46.75203" lon="5.62834">
        <ele>361.1</ele>
        <time>2019-10-13T13:53:45Z</time>
      </trkpt>
      <trkpt lat="46.75205" lon="5.62828">
        <ele>361</ele>
        <time>2019-10-13T13:53:49Z</time>
      </trkpt>
      <trkpt lat="46.75208" lon="5.62823">
        <ele>361.1</ele>
        <time>2019-10-13T13:53:53Z</time>
      </trkpt>
      <trkpt lat="46.75216" lon="5.62827">
        <ele>361.3</ele>
        <time>2019-10-13T13:54:03Z</time>
      </trkpt>
      <trkpt lat="46.7522" lon="5.6283">
        <ele>361.1</ele>
        <time>2019-10-13T13:54:09Z</time>
      </trkpt>
      <trkpt lat="46.75222" lon="5.62823">
        <ele>358</ele>
        <time>2019-10-13T13:54:50Z</time>
      </trkpt>
      <trkpt lat="46.75222" lon="5.62816">
        <ele>357.8</ele>
        <time>2019-10-13T13:54:53Z</time>
      </trkpt>
      <trkpt lat="46.75223" lon="5.62808">
        <ele>357.9</ele>
        <time>2019-10-13T13:54:57Z</time>
      </trkpt>
      <trkpt lat="46.75222" lon="5.62801">
        <ele>358.2</ele>
        <time>2019-10-13T13:55:00Z</time>
      </trkpt>
      <trkpt lat="46.75221" lon="5.62793">
        <ele>359</ele>
        <time>2019-10-13T13:55:04Z</time>
      </trkpt>
      <trkpt lat="46.75221" lon="5.62785">
        <ele>360</ele>
        <time>2019-10-13T13:55:08Z</time>
      </trkpt>
      <trkpt lat="46.7522" lon="5.62777">
        <ele>361.2</ele>
        <time>2019-10-13T13:55:12Z</time>
      </trkpt>
      <trkpt lat="46.75218" lon="5.6277">
        <ele>362.3</ele>
        <time>2019-10-13T13:55:16Z</time>
      </trkpt>
      <trkpt lat="46.75217" lon="5.62763">
        <ele>363.3</ele>
        <time>2019-10-13T13:55:20Z</time>
      </trkpt>
      <trkpt lat="46.75216" lon="5.62757">
        <ele>364.6</ele>
        <time>2019-10-13T13:55:25Z</time>
      </trkpt>
      <trkpt lat="46.75215" lon="5.6275">
        <ele>365.8</ele>
        <time>2019-10-13T13:55:30Z</time>
      </trkpt>
      <trkpt lat="46.75213" lon="5.62742">
        <ele>367.4</ele>
        <time>2019-10-13T13:55:35Z</time>
      </trkpt>
      <trkpt lat="46.75211" lon="5.62736">
        <ele>369.2</ele>
        <time>2019-10-13T13:55:40Z</time>
      </trkpt>
      <trkpt lat="46.7521" lon="5.62729">
        <ele>371.3</ele>
        <time>2019-10-13T13:55:46Z</time>
      </trkpt>
      <trkpt lat="46.75209" lon="5.62721">
        <ele>373.6</ele>
        <time>2019-10-13T13:55:52Z</time>
      </trkpt>
      <trkpt lat="46.75207" lon="5.62715">
        <ele>375.8</ele>
        <time>2019-10-13T13:55:58Z</time>
      </trkpt>
      <trkpt lat="46.75207" lon="5.62708">
        <ele>377.9</ele>
        <time>2019-10-13T13:56:06Z</time>
      </trkpt>
      <trkpt lat="46.75207" lon="5.62701">
        <ele>378.4</ele>
        <time>2019-10-13T13:56:11Z</time>
      </trkpt>
      <trkpt lat="46.75208" lon="5.62694">
        <ele>378.6</ele>
        <time>2019-10-13T13:56:14Z</time>
      </trkpt>
      <trkpt lat="46.7521" lon="5.62687">
        <ele>378.7</ele>
        <time>2019-10-13T13:56:19Z</time>
      </trkpt>
      <trkpt lat="46.75212" lon="5.6268">
        <ele>378.6</ele>
        <time>2019-10-13T13:56:28Z</time>
      </trkpt>
      <trkpt lat="46.75212" lon="5.62673">
        <ele>378.5</ele>
        <time>2019-10-13T13:56:33Z</time>
      </trkpt>
      <trkpt lat="46.75213" lon="5.62666">
        <ele>378.4</ele>
        <time>2019-10-13T13:56:39Z</time>
      </trkpt>
      <trkpt lat="46.75215" lon="5.62658">
        <ele>378.3</ele>
        <time>2019-10-13T13:56:44Z</time>
      </trkpt>
      <trkpt lat="46.75217" lon="5.62652">
        <ele>378.2</ele>
        <time>2019-10-13T13:56:47Z</time>
      </trkpt>
      <trkpt lat="46.75218" lon="5.62646">
        <ele>378.1</ele>
        <time>2019-10-13T13:56:51Z</time>
      </trkpt>
      <trkpt lat="46.7522" lon="5.62639">
        <ele>378.1</ele>
        <time>2019-10-13T13:56:56Z</time>
      </trkpt>
      <trkpt lat="46.75223" lon="5.62632">
        <ele>378.4</ele>
        <time>2019-10-13T13:57:01Z</time>
      </trkpt>
      <trkpt lat="46.75227" lon="5.62626">
        <ele>378.9</ele>
        <time>2019-10-13T13:57:09Z</time>
      </trkpt>
      <trkpt lat="46.7523" lon="5.6262">
        <ele>379.2</ele>
        <time>2019-10-13T13:57:13Z</time>
      </trkpt>
      <trkpt lat="46.75233" lon="5.62614">
        <ele>379.4</ele>
        <time>2019-10-13T13:57:18Z</time>
      </trkpt>
      <trkpt lat="46.75237" lon="5.62609">
        <ele>379.6</ele>
        <time>2019-10-13T13:57:22Z</time>
      </trkpt>
      <trkpt lat="46.75241" lon="5.62605">
        <ele>380</ele>
        <time>2019-10-13T13:57:27Z</time>
      </trkpt>
      <trkpt lat="46.75245" lon="5.62601">
        <ele>380.7</ele>
        <time>2019-10-13T13:57:33Z</time>
      </trkpt>
      <trkpt lat="46.75249" lon="5.62604">
        <ele>380.7</ele>
        <time>2019-10-13T13:57:37Z</time>
      </trkpt>
      <trkpt lat="46.75253" lon="5.62606">
        <ele>380</ele>
        <time>2019-10-13T13:57:43Z</time>
      </trkpt>
      <trkpt lat="46.75258" lon="5.62602">
        <ele>379.2</ele>
        <time>2019-10-13T13:57:48Z</time>
      </trkpt>
      <trkpt lat="46.75262" lon="5.62599">
        <ele>378.6</ele>
        <time>2019-10-13T13:57:52Z</time>
      </trkpt>
      <trkpt lat="46.75266" lon="5.62595">
        <ele>377.2</ele>
        <time>2019-10-13T13:57:59Z</time>
      </trkpt>
      <trkpt lat="46.7527" lon="5.6259">
        <ele>376.3</ele>
        <time>2019-10-13T13:58:05Z</time>
      </trkpt>
      <trkpt lat="46.75274" lon="5.62585">
        <ele>375.6</ele>
        <time>2019-10-13T13:58:10Z</time>
      </trkpt>
      <trkpt lat="46.75279" lon="5.62581">
        <ele>375</ele>
        <time>2019-10-13T13:58:16Z</time>
      </trkpt>
      <trkpt lat="46.75283" lon="5.62578">
        <ele>374.5</ele>
        <time>2019-10-13T13:58:20Z</time>
      </trkpt>
      <trkpt lat="46.75286" lon="5.62572">
        <ele>374.1</ele>
        <time>2019-10-13T13:58:27Z</time>
      </trkpt>
      <trkpt lat="46.75289" lon="5.62567">
        <ele>374</ele>
        <time>2019-10-13T13:58:33Z</time>
      </trkpt>
      <trkpt lat="46.75293" lon="5.62563">
        <ele>374</ele>
        <time>2019-10-13T13:58:38Z</time>
      </trkpt>
      <trkpt lat="46.75298" lon="5.62561">
        <ele>373.5</ele>
        <time>2019-10-13T13:58:47Z</time>
      </trkpt>
      <trkpt lat="46.75303" lon="5.62559">
        <ele>373.2</ele>
        <time>2019-10-13T13:58:52Z</time>
      </trkpt>
      <trkpt lat="46.75309" lon="5.62556">
        <ele>372.5</ele>
        <time>2019-10-13T14:01:02Z</time>
      </trkpt>
      <trkpt lat="46.75313" lon="5.62551">
        <ele>372.7</ele>
        <time>2019-10-13T14:01:08Z</time>
      </trkpt>
      <trkpt lat="46.75316" lon="5.62544">
        <ele>373.1</ele>
        <time>2019-10-13T14:01:13Z</time>
      </trkpt>
      <trkpt lat="46.75319" lon="5.62538">
        <ele>373.5</ele>
        <time>2019-10-13T14:01:18Z</time>
      </trkpt>
      <trkpt lat="46.75321" lon="5.62533">
        <ele>374.2</ele>
        <time>2019-10-13T14:01:26Z</time>
      </trkpt>
      <trkpt lat="46.7533" lon="5.62538">
        <ele>373.8</ele>
        <time>2019-10-13T14:01:58Z</time>
      </trkpt>
      <trkpt lat="46.75335" lon="5.62543">
        <ele>373.5</ele>
        <time>2019-10-13T14:02:06Z</time>
      </trkpt>
      <trkpt lat="46.75338" lon="5.62547">
        <ele>373.6</ele>
        <time>2019-10-13T14:02:11Z</time>
      </trkpt>
      <trkpt lat="46.75342" lon="5.62551">
        <ele>374</ele>
        <time>2019-10-13T14:02:22Z</time>
      </trkpt>
      <trkpt lat="46.75346" lon="5.62553">
        <ele>375.2</ele>
        <time>2019-10-13T14:02:37Z</time>
      </trkpt>
      <trkpt lat="46.75349" lon="5.62559">
        <ele>375.8</ele>
        <time>2019-10-13T14:03:05Z</time>
      </trkpt>
      <trkpt lat="46.75357" lon="5.62566">
        <ele>376.3</ele>
        <time>2019-10-13T14:03:22Z</time>
      </trkpt>
      <trkpt lat="46.7536" lon="5.62571">
        <ele>377</ele>
        <time>2019-10-13T14:03:29Z</time>
      </trkpt>
      <trkpt lat="46.75364" lon="5.62574">
        <ele>377.6</ele>
        <time>2019-10-13T14:03:33Z</time>
      </trkpt>
      <trkpt lat="46.75365" lon="5.62581">
        <ele>378.8</ele>
        <time>2019-10-13T14:03:39Z</time>
      </trkpt>
      <trkpt lat="46.75399" lon="5.62594">
        <ele>410.8</ele>
        <time>2019-10-13T14:06:39Z</time>
      </trkpt>
      <trkpt lat="46.7539" lon="5.62549">
        <ele>411.3</ele>
        <time>2019-10-13T14:08:07Z</time>
      </trkpt>
      <trkpt lat="46.75387" lon="5.62544">
        <ele>411.7</ele>
        <time>2019-10-13T14:08:12Z</time>
      </trkpt>
      <trkpt lat="46.75383" lon="5.62539">
        <ele>412.5</ele>
        <time>2019-10-13T14:08:17Z</time>
      </trkpt>
      <trkpt lat="46.75381" lon="5.62532">
        <ele>414.2</ele>
        <time>2019-10-13T14:08:23Z</time>
      </trkpt>
      <trkpt lat="46.75395" lon="5.62501">
        <ele>433.1</ele>
        <time>2019-10-13T14:09:19Z</time>
      </trkpt>
      <trkpt lat="46.75396" lon="5.62494">
        <ele>433.8</ele>
        <time>2019-10-13T14:09:22Z</time>
      </trkpt>
      <trkpt lat="46.75406" lon="5.62494">
        <ele>437.6</ele>
        <time>2019-10-13T14:09:32Z</time>
      </trkpt>
      <trkpt lat="46.75411" lon="5.62495">
        <ele>438.9</ele>
        <time>2019-10-13T14:09:38Z</time>
      </trkpt>
      <trkpt lat="46.7542" lon="5.62489">
        <ele>441.3</ele>
        <time>2019-10-13T14:10:23Z</time>
      </trkpt>
      <trkpt lat="46.75418" lon="5.62482">
        <ele>442</ele>
        <time>2019-10-13T14:10:31Z</time>
      </trkpt>
      <trkpt lat="46.75418" lon="5.62476">
        <ele>442.5</ele>
        <time>2019-10-13T14:10:37Z</time>
      </trkpt>
      <trkpt lat="46.75403" lon="5.62448">
        <ele>443.7</ele>
        <time>2019-10-13T14:11:14Z</time>
      </trkpt>
      <trkpt lat="46.75378" lon="5.62438">
        <ele>444.2</ele>
        <time>2019-10-13T14:11:48Z</time>
      </trkpt>
      <trkpt lat="46.75373" lon="5.62438">
        <ele>442.2</ele>
        <time>2019-10-13T14:11:55Z</time>
      </trkpt>
      <trkpt lat="46.75369" lon="5.62437">
        <ele>438.1</ele>
        <time>2019-10-13T14:12:04Z</time>
      </trkpt>
      <trkpt lat="46.75364" lon="5.62436">
        <ele>435.5</ele>
        <time>2019-10-13T14:12:10Z</time>
      </trkpt>
      <trkpt lat="46.75359" lon="5.62435">
        <ele>433.5</ele>
        <time>2019-10-13T14:12:15Z</time>
      </trkpt>
      <trkpt lat="46.75355" lon="5.62432">
        <ele>432.7</ele>
        <time>2019-10-13T14:12:18Z</time>
      </trkpt>
      <trkpt lat="46.75342" lon="5.62416">
        <ele>433.7</ele>
        <time>2019-10-13T14:12:33Z</time>
      </trkpt>
      <trkpt lat="46.75333" lon="5.62412">
        <ele>434.5</ele>
        <time>2019-10-13T14:12:43Z</time>
      </trkpt>
      <trkpt lat="46.75328" lon="5.6241">
        <ele>434.7</ele>
        <time>2019-10-13T14:12:48Z</time>
      </trkpt>
      <trkpt lat="46.75325" lon="5.62406">
        <ele>434.9</ele>
        <time>2019-10-13T14:12:54Z</time>
      </trkpt>
      <trkpt lat="46.75321" lon="5.62401">
        <ele>435</ele>
        <time>2019-10-13T14:12:59Z</time>
      </trkpt>
      <trkpt lat="46.75311" lon="5.62398">
        <ele>434.6</ele>
        <time>2019-10-13T14:13:28Z</time>
      </trkpt>
      <trkpt lat="46.75308" lon="5.62405">
        <ele>437.5</ele>
        <time>2019-10-13T14:15:46Z</time>
      </trkpt>
      <trkpt lat="46.75315" lon="5.62413">
        <ele>438.4</ele>
        <time>2019-10-13T14:16:50Z</time>
      </trkpt>
      <trkpt lat="46.7532" lon="5.62415">
        <ele>437.9</ele>
        <time>2019-10-13T14:16:54Z</time>
      </trkpt>
      <trkpt lat="46.75325" lon="5.62419">
        <ele>437.4</ele>
        <time>2019-10-13T14:16:59Z</time>
      </trkpt>
      <trkpt lat="46.75329" lon="5.62423">
        <ele>436.9</ele>
        <time>2019-10-13T14:17:04Z</time>
      </trkpt>
      <trkpt lat="46.75332" lon="5.62427">
        <ele>436</ele>
        <time>2019-10-13T14:17:18Z</time>
      </trkpt>
      <trkpt lat="46.75335" lon="5.62433">
        <ele>435.1</ele>
        <time>2019-10-13T14:17:27Z</time>
      </trkpt>
      <trkpt lat="46.75338" lon="5.62439">
        <ele>434.7</ele>
        <time>2019-10-13T14:17:31Z</time>
      </trkpt>
      <trkpt lat="46.75341" lon="5.62445">
        <ele>434.6</ele>
        <time>2019-10-13T14:17:35Z</time>
      </trkpt>
      <trkpt lat="46.75343" lon="5.62451">
        <ele>435.1</ele>
        <time>2019-10-13T14:17:42Z</time>
      </trkpt>
      <trkpt lat="46.7535" lon="5.62455">
        <ele>436.1</ele>
        <time>2019-10-13T14:17:51Z</time>
      </trkpt>
      <trkpt lat="46.75355" lon="5.62454">
        <ele>436.1</ele>
        <time>2019-10-13T14:17:55Z</time>
      </trkpt>
      <trkpt lat="46.7536" lon="5.62453">
        <ele>435.9</ele>
        <time>2019-10-13T14:17:59Z</time>
      </trkpt>
      <trkpt lat="46.75365" lon="5.62453">
        <ele>435.6</ele>
        <time>2019-10-13T14:18:05Z</time>
      </trkpt>
      <trkpt lat="46.75371" lon="5.62452">
        <ele>436</ele>
        <time>2019-10-13T14:18:13Z</time>
      </trkpt>
      <trkpt lat="46.75375" lon="5.62451">
        <ele>436.7</ele>
        <time>2019-10-13T14:18:19Z</time>
      </trkpt>
      <trkpt lat="46.75399" lon="5.62454">
        <ele>439</ele>
        <time>2019-10-13T14:18:45Z</time>
      </trkpt>
      <trkpt lat="46.75421" lon="5.62452">
        <ele>437.7</ele>
        <time>2019-10-13T14:19:10Z</time>
      </trkpt>
      <trkpt lat="46.75434" lon="5.62448">
        <ele>437.5</ele>
        <time>2019-10-13T14:19:25Z</time>
      </trkpt>
      <trkpt lat="46.75439" lon="5.62447">
        <ele>437.9</ele>
        <time>2019-10-13T14:19:33Z</time>
      </trkpt>
      <trkpt lat="46.75443" lon="5.62442">
        <ele>437.9</ele>
        <time>2019-10-13T14:19:41Z</time>
      </trkpt>
      <trkpt lat="46.75445" lon="5.62436">
        <ele>438.1</ele>
        <time>2019-10-13T14:19:45Z</time>
      </trkpt>
      <trkpt lat="46.75446" lon="5.62429">
        <ele>438.3</ele>
        <time>2019-10-13T14:19:49Z</time>
      </trkpt>
      <trkpt lat="46.75448" lon="5.62422">
        <ele>438.8</ele>
        <time>2019-10-13T14:19:55Z</time>
      </trkpt>
      <trkpt lat="46.75449" lon="5.62416">
        <ele>439.7</ele>
        <time>2019-10-13T14:20:00Z</time>
      </trkpt>
      <trkpt lat="46.75452" lon="5.6241">
        <ele>441.6</ele>
        <time>2019-10-13T14:20:09Z</time>
      </trkpt>
      <trkpt lat="46.75455" lon="5.62405">
        <ele>442.6</ele>
        <time>2019-10-13T14:20:15Z</time>
      </trkpt>
      <trkpt lat="46.75458" lon="5.624">
        <ele>443</ele>
        <time>2019-10-13T14:20:18Z</time>
      </trkpt>
      <trkpt lat="46.75462" lon="5.62394">
        <ele>443.4</ele>
        <time>2019-10-13T14:20:22Z</time>
      </trkpt>
      <trkpt lat="46.75465" lon="5.6239">
        <ele>444</ele>
        <time>2019-10-13T14:20:27Z</time>
      </trkpt>
      <trkpt lat="46.75501" lon="5.62398">
        <ele>440.2</ele>
        <time>2019-10-13T14:21:19Z</time>
      </trkpt>
      <trkpt lat="46.75505" lon="5.62401">
        <ele>439.7</ele>
        <time>2019-10-13T14:21:24Z</time>
      </trkpt>
      <trkpt lat="46.75527" lon="5.62407">
        <ele>438.1</ele>
        <time>2019-10-13T14:21:46Z</time>
      </trkpt>
      <trkpt lat="46.75532" lon="5.6241">
        <ele>438.6</ele>
        <time>2019-10-13T14:21:51Z</time>
      </trkpt>
      <trkpt lat="46.75535" lon="5.62417">
        <ele>439</ele>
        <time>2019-10-13T14:21:55Z</time>
      </trkpt>
      <trkpt lat="46.75539" lon="5.62422">
        <ele>439.4</ele>
        <time>2019-10-13T14:21:59Z</time>
      </trkpt>
      <trkpt lat="46.75544" lon="5.62423">
        <ele>439.6</ele>
        <time>2019-10-13T14:22:02Z</time>
      </trkpt>
      <trkpt lat="46.75549" lon="5.62424">
        <ele>439.9</ele>
        <time>2019-10-13T14:22:06Z</time>
      </trkpt>
      <trkpt lat="46.75564" lon="5.62426">
        <ele>439.8</ele>
        <time>2019-10-13T14:22:20Z</time>
      </trkpt>
      <trkpt lat="46.75569" lon="5.62426">
        <ele>439.5</ele>
        <time>2019-10-13T14:22:23Z</time>
      </trkpt>
      <trkpt lat="46.75583" lon="5.62442">
        <ele>438.7</ele>
        <time>2019-10-13T14:22:35Z</time>
      </trkpt>
      <trkpt lat="46.75594" lon="5.62457">
        <ele>438.2</ele>
        <time>2019-10-13T14:22:51Z</time>
      </trkpt>
      <trkpt lat="46.756" lon="5.6246">
        <ele>437.8</ele>
        <time>2019-10-13T14:22:55Z</time>
      </trkpt>
      <trkpt lat="46.75603" lon="5.62464">
        <ele>437.3</ele>
        <time>2019-10-13T14:22:59Z</time>
      </trkpt>
      <trkpt lat="46.75613" lon="5.62472">
        <ele>435.8</ele>
        <time>2019-10-13T14:23:10Z</time>
      </trkpt>
      <trkpt lat="46.75617" lon="5.62475">
        <ele>435</ele>
        <time>2019-10-13T14:23:16Z</time>
      </trkpt>
      <trkpt lat="46.75621" lon="5.62473">
        <ele>434.5</ele>
        <time>2019-10-13T14:23:19Z</time>
      </trkpt>
      <trkpt lat="46.75627" lon="5.62474">
        <ele>433.4</ele>
        <time>2019-10-13T14:23:25Z</time>
      </trkpt>
      <trkpt lat="46.75632" lon="5.62474">
        <ele>432.7</ele>
        <time>2019-10-13T14:23:29Z</time>
      </trkpt>
      <trkpt lat="46.75636" lon="5.62475">
        <ele>430.4</ele>
        <time>2019-10-13T14:23:39Z</time>
      </trkpt>
      <trkpt lat="46.75646" lon="5.62486">
        <ele>436.4</ele>
        <time>2019-10-13T14:25:21Z</time>
      </trkpt>
      <trkpt lat="46.7565" lon="5.62491">
        <ele>436.1</ele>
        <time>2019-10-13T14:25:25Z</time>
      </trkpt>
      <trkpt lat="46.75654" lon="5.62498">
        <ele>435.4</ele>
        <time>2019-10-13T14:25:31Z</time>
      </trkpt>
      <trkpt lat="46.75655" lon="5.62505">
        <ele>435.2</ele>
        <time>2019-10-13T14:25:33Z</time>
      </trkpt>
      <trkpt lat="46.75658" lon="5.62511">
        <ele>435</ele>
        <time>2019-10-13T14:25:35Z</time>
      </trkpt>
      <trkpt lat="46.75661" lon="5.62516">
        <ele>434.7</ele>
        <time>2019-10-13T14:25:38Z</time>
      </trkpt>
      <trkpt lat="46.75664" lon="5.62522">
        <ele>433.9</ele>
        <time>2019-10-13T14:25:43Z</time>
      </trkpt>
      <trkpt lat="46.75665" lon="5.62535">
        <ele>432.7</ele>
        <time>2019-10-13T14:25:58Z</time>
      </trkpt>
      <trkpt lat="46.75665" lon="5.62542">
        <ele>432.9</ele>
        <time>2019-10-13T14:26:02Z</time>
      </trkpt>
      <trkpt lat="46.75668" lon="5.62575">
        <ele>427.1</ele>
        <time>2019-10-13T14:26:26Z</time>
      </trkpt>
      <trkpt lat="46.75667" lon="5.62582">
        <ele>426</ele>
        <time>2019-10-13T14:26:30Z</time>
      </trkpt>
      <trkpt lat="46.75666" lon="5.62589">
        <ele>424.9</ele>
        <time>2019-10-13T14:26:34Z</time>
      </trkpt>
      <trkpt lat="46.75663" lon="5.62596">
        <ele>424</ele>
        <time>2019-10-13T14:26:38Z</time>
      </trkpt>
      <trkpt lat="46.75661" lon="5.62602">
        <ele>423.2</ele>
        <time>2019-10-13T14:26:41Z</time>
      </trkpt>
      <trkpt lat="46.75658" lon="5.62609">
        <ele>422.4</ele>
        <time>2019-10-13T14:26:45Z</time>
      </trkpt>
      <trkpt lat="46.75654" lon="5.62613">
        <ele>421.7</ele>
        <time>2019-10-13T14:26:52Z</time>
      </trkpt>
      <trkpt lat="46.75642" lon="5.62611">
        <ele>424</ele>
        <time>2019-10-13T14:27:14Z</time>
      </trkpt>
      <trkpt lat="46.75637" lon="5.62607">
        <ele>425</ele>
        <time>2019-10-13T14:27:17Z</time>
      </trkpt>
      <trkpt lat="46.75633" lon="5.62604">
        <ele>426.6</ele>
        <time>2019-10-13T14:27:21Z</time>
      </trkpt>
      <trkpt lat="46.75629" lon="5.62601">
        <ele>428.7</ele>
        <time>2019-10-13T14:27:26Z</time>
      </trkpt>
      <trkpt lat="46.75625" lon="5.62597">
        <ele>430.6</ele>
        <time>2019-10-13T14:27:30Z</time>
      </trkpt>
      <trkpt lat="46.75621" lon="5.62594">
        <ele>431.8</ele>
        <time>2019-10-13T14:27:33Z</time>
      </trkpt>
      <trkpt lat="46.75617" lon="5.6259">
        <ele>432.4</ele>
        <time>2019-10-13T14:27:35Z</time>
      </trkpt>
      <trkpt lat="46.75612" lon="5.62586">
        <ele>433.4</ele>
        <time>2019-10-13T14:27:38Z</time>
      </trkpt>
      <trkpt lat="46.75608" lon="5.62582">
        <ele>434.5</ele>
        <time>2019-10-13T14:27:43Z</time>
      </trkpt>
      <trkpt lat="46.75604" lon="5.62577">
        <ele>435</ele>
        <time>2019-10-13T14:27:47Z</time>
      </trkpt>
      <trkpt lat="46.75603" lon="5.6257">
        <ele>435.4</ele>
        <time>2019-10-13T14:27:51Z</time>
      </trkpt>
      <trkpt lat="46.75599" lon="5.62565">
        <ele>434.9</ele>
        <time>2019-10-13T14:27:59Z</time>
      </trkpt>
      <trkpt lat="46.75594" lon="5.62562">
        <ele>432.9</ele>
        <time>2019-10-13T14:28:06Z</time>
      </trkpt>
      <trkpt lat="46.75589" lon="5.62562">
        <ele>431.1</ele>
        <time>2019-10-13T14:28:11Z</time>
      </trkpt>
      <trkpt lat="46.75585" lon="5.62563">
        <ele>428.9</ele>
        <time>2019-10-13T14:28:17Z</time>
      </trkpt>
      <trkpt lat="46.7558" lon="5.62565">
        <ele>426.6</ele>
        <time>2019-10-13T14:28:23Z</time>
      </trkpt>
      <trkpt lat="46.75575" lon="5.62565">
        <ele>424.8</ele>
        <time>2019-10-13T14:28:28Z</time>
      </trkpt>
      <trkpt lat="46.75571" lon="5.62564">
        <ele>423.3</ele>
        <time>2019-10-13T14:28:32Z</time>
      </trkpt>
      <trkpt lat="46.75565" lon="5.62565">
        <ele>421</ele>
        <time>2019-10-13T14:28:38Z</time>
      </trkpt>
      <trkpt lat="46.7556" lon="5.62566">
        <ele>420.1</ele>
        <time>2019-10-13T14:28:41Z</time>
      </trkpt>
      <trkpt lat="46.7554" lon="5.62571">
        <ele>419.9</ele>
        <time>2019-10-13T14:29:04Z</time>
      </trkpt>
      <trkpt lat="46.75535" lon="5.62576">
        <ele>421.3</ele>
        <time>2019-10-13T14:29:08Z</time>
      </trkpt>
      <trkpt lat="46.75496" lon="5.62595">
        <ele>431.7</ele>
        <time>2019-10-13T14:29:50Z</time>
      </trkpt>
      <trkpt lat="46.75486" lon="5.62607">
        <ele>430.4</ele>
        <time>2019-10-13T14:30:06Z</time>
      </trkpt>
      <trkpt lat="46.75481" lon="5.62611">
        <ele>431.1</ele>
        <time>2019-10-13T14:30:15Z</time>
      </trkpt>
      <trkpt lat="46.75478" lon="5.62615">
        <ele>431.9</ele>
        <time>2019-10-13T14:30:19Z</time>
      </trkpt>
      <trkpt lat="46.7547" lon="5.62628">
        <ele>436.5</ele>
        <time>2019-10-13T14:30:35Z</time>
      </trkpt>
      <trkpt lat="46.75465" lon="5.62632">
        <ele>438</ele>
        <time>2019-10-13T14:30:42Z</time>
      </trkpt>
      <trkpt lat="46.75461" lon="5.62637">
        <ele>439</ele>
        <time>2019-10-13T14:30:47Z</time>
      </trkpt>
      <trkpt lat="46.75457" lon="5.62638">
        <ele>439.9</ele>
        <time>2019-10-13T14:30:53Z</time>
      </trkpt>
      <trkpt lat="46.75453" lon="5.62643">
        <ele>440.5</ele>
        <time>2019-10-13T14:30:58Z</time>
      </trkpt>
      <trkpt lat="46.7545" lon="5.62647">
        <ele>440.9</ele>
        <time>2019-10-13T14:31:02Z</time>
      </trkpt>
      <trkpt lat="46.75432" lon="5.62657">
        <ele>442</ele>
        <time>2019-10-13T14:31:21Z</time>
      </trkpt>
      <trkpt lat="46.75424" lon="5.62658">
        <ele>449.7</ele>
        <time>2019-10-13T14:32:21Z</time>
      </trkpt>
      <trkpt lat="46.7542" lon="5.62661">
        <ele>452.4</ele>
        <time>2019-10-13T14:32:33Z</time>
      </trkpt>
      <trkpt lat="46.75416" lon="5.62666">
        <ele>453.6</ele>
        <time>2019-10-13T14:32:38Z</time>
      </trkpt>
      <trkpt lat="46.75413" lon="5.62671">
        <ele>454.4</ele>
        <time>2019-10-13T14:32:42Z</time>
      </trkpt>
      <trkpt lat="46.7541" lon="5.62676">
        <ele>454.9</ele>
        <time>2019-10-13T14:32:46Z</time>
      </trkpt>
      <trkpt lat="46.75406" lon="5.6268">
        <ele>455.2</ele>
        <time>2019-10-13T14:32:54Z</time>
      </trkpt>
      <trkpt lat="46.75403" lon="5.62685">
        <ele>455.2</ele>
        <time>2019-10-13T14:32:58Z</time>
      </trkpt>
      <trkpt lat="46.75399" lon="5.6269">
        <ele>455.2</ele>
        <time>2019-10-13T14:33:03Z</time>
      </trkpt>
      <trkpt lat="46.75388" lon="5.62702">
        <ele>455.6</ele>
        <time>2019-10-13T14:33:22Z</time>
      </trkpt>
      <trkpt lat="46.75383" lon="5.62707">
        <ele>455.5</ele>
        <time>2019-10-13T14:33:25Z</time>
      </trkpt>
      <trkpt lat="46.75379" lon="5.62711">
        <ele>455.3</ele>
        <time>2019-10-13T14:33:29Z</time>
      </trkpt>
      <trkpt lat="46.75377" lon="5.62717">
        <ele>454.8</ele>
        <time>2019-10-13T14:33:33Z</time>
      </trkpt>
      <trkpt lat="46.75375" lon="5.62726">
        <ele>453.8</ele>
        <time>2019-10-13T14:33:38Z</time>
      </trkpt>
      <trkpt lat="46.75373" lon="5.62733">
        <ele>452.8</ele>
        <time>2019-10-13T14:33:43Z</time>
      </trkpt>
      <trkpt lat="46.75371" lon="5.6274">
        <ele>452.1</ele>
        <time>2019-10-13T14:33:47Z</time>
      </trkpt>
      <trkpt lat="46.7537" lon="5.62748">
        <ele>451.4</ele>
        <time>2019-10-13T14:33:52Z</time>
      </trkpt>
      <trkpt lat="46.75367" lon="5.62769">
        <ele>450.6</ele>
        <time>2019-10-13T14:34:05Z</time>
      </trkpt>
      <trkpt lat="46.75368" lon="5.62776">
        <ele>450.7</ele>
        <time>2019-10-13T14:34:10Z</time>
      </trkpt>
      <trkpt lat="46.75377" lon="5.62801">
        <ele>453.8</ele>
        <time>2019-10-13T14:34:31Z</time>
      </trkpt>
      <trkpt lat="46.75379" lon="5.62807">
        <ele>454.2</ele>
        <time>2019-10-13T14:34:36Z</time>
      </trkpt>
      <trkpt lat="46.75381" lon="5.62813">
        <ele>454.5</ele>
        <time>2019-10-13T14:34:43Z</time>
      </trkpt>
      <trkpt lat="46.75384" lon="5.62819">
        <ele>454.5</ele>
        <time>2019-10-13T14:34:47Z</time>
      </trkpt>
      <trkpt lat="46.7539" lon="5.62834">
        <ele>454.2</ele>
        <time>2019-10-13T14:34:56Z</time>
      </trkpt>
      <trkpt lat="46.75392" lon="5.62841">
        <ele>454.4</ele>
        <time>2019-10-13T14:35:02Z</time>
      </trkpt>
      <trkpt lat="46.75394" lon="5.62848">
        <ele>454.8</ele>
        <time>2019-10-13T14:35:07Z</time>
      </trkpt>
      <trkpt lat="46.75396" lon="5.62854">
        <ele>455.4</ele>
        <time>2019-10-13T14:35:12Z</time>
      </trkpt>
      <trkpt lat="46.75399" lon="5.62871">
        <ele>456.3</ele>
        <time>2019-10-13T14:35:23Z</time>
      </trkpt>
      <trkpt lat="46.754" lon="5.62877">
        <ele>456.2</ele>
        <time>2019-10-13T14:35:27Z</time>
      </trkpt>
      <trkpt lat="46.75402" lon="5.62883">
        <ele>456.5</ele>
        <time>2019-10-13T14:35:31Z</time>
      </trkpt>
      <trkpt lat="46.75404" lon="5.6289">
        <ele>456.8</ele>
        <time>2019-10-13T14:35:36Z</time>
      </trkpt>
      <trkpt lat="46.75405" lon="5.62897">
        <ele>457.1</ele>
        <time>2019-10-13T14:35:40Z</time>
      </trkpt>
      <trkpt lat="46.75407" lon="5.62903">
        <ele>457.4</ele>
        <time>2019-10-13T14:35:44Z</time>
      </trkpt>
      <trkpt lat="46.75412" lon="5.62922">
        <ele>456.9</ele>
        <time>2019-10-13T14:35:56Z</time>
      </trkpt>
      <trkpt lat="46.75413" lon="5.62928">
        <ele>456.6</ele>
        <time>2019-10-13T14:36:01Z</time>
      </trkpt>
      <trkpt lat="46.75412" lon="5.62935">
        <ele>456.6</ele>
        <time>2019-10-13T14:36:06Z</time>
      </trkpt>
      <trkpt lat="46.75412" lon="5.62942">
        <ele>456.7</ele>
        <time>2019-10-13T14:36:11Z</time>
      </trkpt>
      <trkpt lat="46.75413" lon="5.62949">
        <ele>456.6</ele>
        <time>2019-10-13T14:36:17Z</time>
      </trkpt>
      <trkpt lat="46.75414" lon="5.62955">
        <ele>456.4</ele>
        <time>2019-10-13T14:36:21Z</time>
      </trkpt>
      <trkpt lat="46.75415" lon="5.62962">
        <ele>456.1</ele>
        <time>2019-10-13T14:36:26Z</time>
      </trkpt>
      <trkpt lat="46.75419" lon="5.62974">
        <ele>454.5</ele>
        <time>2019-10-13T14:36:36Z</time>
      </trkpt>
      <trkpt lat="46.75422" lon="5.62981">
        <ele>453.9</ele>
        <time>2019-10-13T14:36:40Z</time>
      </trkpt>
      <trkpt lat="46.75425" lon="5.62987">
        <ele>453.2</ele>
        <time>2019-10-13T14:36:44Z</time>
      </trkpt>
      <trkpt lat="46.75426" lon="5.62994">
        <ele>452.2</ele>
        <time>2019-10-13T14:36:49Z</time>
      </trkpt>
      <trkpt lat="46.75427" lon="5.63">
        <ele>450.1</ele>
        <time>2019-10-13T14:36:59Z</time>
      </trkpt>
      <trkpt lat="46.75428" lon="5.63007">
        <ele>449.1</ele>
        <time>2019-10-13T14:37:04Z</time>
      </trkpt>
      <trkpt lat="46.7543" lon="5.63014">
        <ele>448.3</ele>
        <time>2019-10-13T14:37:09Z</time>
      </trkpt>
      <trkpt lat="46.75432" lon="5.63021">
        <ele>447.7</ele>
        <time>2019-10-13T14:37:14Z</time>
      </trkpt>
      <trkpt lat="46.75435" lon="5.63029">
        <ele>447.4</ele>
        <time>2019-10-13T14:37:18Z</time>
      </trkpt>
      <trkpt lat="46.75437" lon="5.63037">
        <ele>447.4</ele>
        <time>2019-10-13T14:37:23Z</time>
      </trkpt>
      <trkpt lat="46.75439" lon="5.63043">
        <ele>447.8</ele>
        <time>2019-10-13T14:37:28Z</time>
      </trkpt>
      <trkpt lat="46.75441" lon="5.63049">
        <ele>448.2</ele>
        <time>2019-10-13T14:37:33Z</time>
      </trkpt>
      <trkpt lat="46.75444" lon="5.63055">
        <ele>448.5</ele>
        <time>2019-10-13T14:37:37Z</time>
      </trkpt>
      <trkpt lat="46.75445" lon="5.63062">
        <ele>448.9</ele>
        <time>2019-10-13T14:37:42Z</time>
      </trkpt>
      <trkpt lat="46.75448" lon="5.63068">
        <ele>449.5</ele>
        <time>2019-10-13T14:37:48Z</time>
      </trkpt>
      <trkpt lat="46.7545" lon="5.63074">
        <ele>450.1</ele>
        <time>2019-10-13T14:37:53Z</time>
      </trkpt>
      <trkpt lat="46.75453" lon="5.6308">
        <ele>450.6</ele>
        <time>2019-10-13T14:37:58Z</time>
      </trkpt>
      <trkpt lat="46.75456" lon="5.63086">
        <ele>451</ele>
        <time>2019-10-13T14:38:03Z</time>
      </trkpt>
      <trkpt lat="46.7546" lon="5.63091">
        <ele>451</ele>
        <time>2019-10-13T14:38:08Z</time>
      </trkpt>
      <trkpt lat="46.75464" lon="5.63096">
        <ele>451</ele>
        <time>2019-10-13T14:38:13Z</time>
      </trkpt>
      <trkpt lat="46.75468" lon="5.631">
        <ele>450.9</ele>
        <time>2019-10-13T14:38:19Z</time>
      </trkpt>
      <trkpt lat="46.75471" lon="5.63105">
        <ele>450.7</ele>
        <time>2019-10-13T14:38:25Z</time>
      </trkpt>
      <trkpt lat="46.75475" lon="5.6311">
        <ele>450.9</ele>
        <time>2019-10-13T14:38:34Z</time>
      </trkpt>
      <trkpt lat="46.7548" lon="5.63113">
        <ele>451.2</ele>
        <time>2019-10-13T14:38:39Z</time>
      </trkpt>
      <trkpt lat="46.75484" lon="5.63117">
        <ele>451.2</ele>
        <time>2019-10-13T14:38:43Z</time>
      </trkpt>
      <trkpt lat="46.75487" lon="5.63123">
        <ele>451.4</ele>
        <time>2019-10-13T14:38:47Z</time>
      </trkpt>
      <trkpt lat="46.7549" lon="5.63128">
        <ele>451.5</ele>
        <time>2019-10-13T14:38:51Z</time>
      </trkpt>
      <trkpt lat="46.75494" lon="5.63133">
        <ele>451.8</ele>
        <time>2019-10-13T14:38:55Z</time>
      </trkpt>
      <trkpt lat="46.75498" lon="5.63137">
        <ele>452.2</ele>
        <time>2019-10-13T14:39:00Z</time>
      </trkpt>
      <trkpt lat="46.75502" lon="5.6314">
        <ele>456.7</ele>
        <time>2019-10-13T14:39:27Z</time>
      </trkpt>
      <trkpt lat="46.75506" lon="5.63136">
        <ele>458.3</ele>
        <time>2019-10-13T14:40:00Z</time>
      </trkpt>
      <trkpt lat="46.75507" lon="5.6313">
        <ele>457.8</ele>
        <time>2019-10-13T14:40:16Z</time>
      </trkpt>
      <trkpt lat="46.75511" lon="5.63124">
        <ele>457.3</ele>
        <time>2019-10-13T14:40:35Z</time>
      </trkpt>
      <trkpt lat="46.75512" lon="5.63118">
        <ele>457</ele>
        <time>2019-10-13T14:40:42Z</time>
      </trkpt>
    </trkseg>
  </trk>
</gpx>